Time,TemperatureF,DewpointF,PressureIn,WindDirection,WindDirectionDegrees,WindSpeedMPH,WindSpeedGustMPH,Humidity,HourlyPrecipIn,Conditions,Clouds,dailyrainin,SoftwareType,DateUTC
2013-10-16 00:00:00,51.5,48.1,29.95,North,5,5.0,7.0,88,0.00,,SKC,0.00,VWS V14.01,2013-10-16 05:00:00,
2013-10-16 00:01:00,51.5,48.1,29.95,NE,34,4.0,6.0,88,0.00,,SKC,0.00,VWS V14.01,2013-10-16 05:01:00,
2013-10-16 00:02:00,50.9,47.5,29.95,North,10,9.0,10.0,88,0.00,,SKC,0.00,VWS V14.01,2013-10-16 05:02:00,
2013-10-16 00:03:00,51.4,48.0,29.95,NNE,32,4.0,11.0,88,0.00,,SKC,0.00,VWS V14.01,2013-10-16 05:03:00,
2013-10-16 00:04:00,51.4,48.0,29.95,North,360,9.0,13.0,88,0.00,,SKC,0.00,VWS V14.01,2013-10-16 05:04:00,
2013-10-16 00:05:00,51.4,48.0,29.95,NNE,26,8.0,11.0,88,0.00,,SKC,0.00,VWS V14.01,2013-10-16 05:05:00,
2013-10-16 00:06:00,51.4,48.3,29.95,NNE,13,6.0,9.0,89,0.00,,SKC,0.00,VWS V14.01,2013-10-16 05:06:00,
2013-10-16 00:07:00,50.9,47.5,29.95,NNE,21,6.0,8.0,88,0.00,,SKC,0.00,VWS V14.01,2013-10-16 05:07:00,
2013-10-16 00:08:00,51.3,48.2,29.95,North,5,2.0,9.0,89,0.00,,SKC,0.00,VWS V14.01,2013-10-16 05:08:00,
2013-10-16 00:09:00,51.3,48.2,29.95,North,349,8.0,9.0,89,0.00,,SKC,0.00,VWS V14.01,2013-10-16 05:09:00,
2013-10-16 00:10:00,51.3,48.2,29.95,North,9,5.0,8.0,89,0.00,,SKC,0.00,VWS V14.01,2013-10-16 05:10:00,
2013-10-16 00:11:00,51.3,48.2,29.96,NNE,22,4.0,11.0,89,0.00,,SKC,0.00,VWS V14.01,2013-10-16 05:11:00,
2013-10-16 00:12:00,50.9,47.5,29.94,NNE,29,4.0,10.0,88,0.00,,SKC,0.00,VWS V14.01,2013-10-16 05:12:00,
2013-10-16 00:13:00,51.2,48.1,29.96,North,5,6.0,11.0,89,0.00,,SKC,0.00,VWS V14.01,2013-10-16 05:13:00,
2013-10-16 00:14:00,51.2,48.1,29.96,NNE,17,9.0,11.0,89,0.00,,SKC,0.00,VWS V14.01,2013-10-16 05:14:00,
2013-10-16 00:15:00,51.2,48.1,29.96,NNE,18,6.0,10.0,89,0.00,,SKC,0.00,VWS V14.01,2013-10-16 05:15:00,
2013-10-16 00:16:00,51.2,48.1,29.96,NNE,17,9.0,11.0,89,0.00,,SKC,0.00,VWS V14.01,2013-10-16 05:16:00,
2013-10-16 00:17:00,50.9,47.5,29.95,NNE,30,3.0,7.0,88,0.00,,SKC,0.00,VWS V14.01,2013-10-16 05:17:00,
2013-10-16 00:18:00,51.2,48.1,29.96,NNW,336,4.0,6.0,89,0.00,,SKC,0.00,VWS V14.01,2013-10-16 05:18:00,
2013-10-16 00:19:00,51.2,48.1,29.96,North,5,2.0,7.0,89,0.00,,SKC,0.00,VWS V14.01,2013-10-16 05:19:00,
2013-10-16 00:20:00,51.2,48.1,29.96,North,360,6.0,10.0,89,0.00,,SKC,0.00,VWS V14.01,2013-10-16 05:20:00,
2013-10-16 00:21:00,51.2,48.1,29.96,North,5,9.0,9.0,89,0.00,,SKC,0.00,VWS V14.01,2013-10-16 05:21:00,
2013-10-16 00:22:00,51.0,47.6,29.95,NNE,17,6.0,9.0,88,0.00,,SKC,0.00,VWS V14.01,2013-10-16 05:22:00,
2013-10-16 00:23:00,51.2,48.1,29.96,North,360,6.0,14.0,89,0.00,,SKC,0.00,VWS V14.01,2013-10-16 05:23:00,
2013-10-16 00:24:00,51.1,48.0,29.96,North,350,5.0,11.0,89,0.00,,SKC,0.00,VWS V14.01,2013-10-16 05:24:00,
2013-10-16 00:25:00,51.1,48.0,29.96,North,360,6.0,7.0,89,0.00,,SKC,0.00,VWS V14.01,2013-10-16 05:25:00,
2013-10-16 00:26:00,51.1,48.0,29.96,NNE,17,4.0,13.0,89,0.00,,SKC,0.00,VWS V14.01,2013-10-16 05:26:00,
2013-10-16 00:27:00,51.0,47.6,29.95,North,360,5.0,7.0,88,0.00,,SKC,0.00,VWS V14.01,2013-10-16 05:27:00,
2013-10-16 00:28:00,51.1,48.0,29.96,NNE,17,4.0,8.0,89,0.00,,SKC,0.00,VWS V14.01,2013-10-16 05:28:00,
2013-10-16 00:29:00,51.1,48.0,29.97,North,355,3.0,7.0,89,0.00,,SKC,0.00,VWS V14.01,2013-10-16 05:29:00,
2013-10-16 00:30:00,51.1,48.9,29.97,North,11,7.0,7.0,92,0.00,,SKC,0.00,VWS V14.01,2013-10-16 05:30:00,
2013-10-16 00:31:00,51.1,48.0,29.96,NNW,336,4.0,10.0,89,0.00,,SKC,0.00,VWS V14.01,2013-10-16 05:31:00,
2013-10-16 00:32:00,51.0,47.6,29.96,North,5,5.0,10.0,88,0.00,,SKC,0.00,VWS V14.01,2013-10-16 05:32:00,
2013-10-16 00:33:00,51.1,47.7,29.96,North,11,3.0,10.0,88,0.00,,SKC,0.00,VWS V14.01,2013-10-16 05:33:00,
2013-10-16 00:34:00,51.1,48.9,29.96,NNE,20,4.0,12.0,92,0.00,,SKC,0.00,VWS V14.01,2013-10-16 05:34:00,
2013-10-16 00:35:00,51.1,48.0,29.96,NNE,23,6.0,6.0,89,0.00,,SKC,0.00,VWS V14.01,2013-10-16 05:35:00,
2013-10-16 00:36:00,51.1,48.0,29.96,North,355,5.0,7.0,89,0.00,,SKC,0.00,VWS V14.01,2013-10-16 05:36:00,
2013-10-16 00:37:00,51.0,47.6,29.95,NE,34,6.0,11.0,88,0.00,,SKC,0.00,VWS V14.01,2013-10-16 05:37:00,
2013-10-16 00:38:00,51.1,48.0,29.96,NNE,18,10.0,11.0,89,0.00,,SKC,0.00,VWS V14.01,2013-10-16 05:38:00,
2013-10-16 00:39:00,51.1,48.0,29.96,NNW,333,6.0,10.0,89,0.00,,SKC,0.00,VWS V14.01,2013-10-16 05:39:00,
2013-10-16 00:40:00,51.1,48.0,29.96,North,355,6.0,10.0,89,0.00,,SKC,0.00,VWS V14.01,2013-10-16 05:40:00,
2013-10-16 00:41:00,51.0,47.6,29.96,NNE,26,11.0,11.0,88,0.00,,SKC,0.00,VWS V14.01,2013-10-16 05:41:00,
2013-10-16 00:42:00,50.9,47.8,29.95,North,360,6.0,12.0,89,0.00,,SKC,0.00,VWS V14.01,2013-10-16 05:42:00,
2013-10-16 00:43:00,51.0,47.6,29.95,NNW,348,4.0,9.0,88,0.00,,SKC,0.00,VWS V14.01,2013-10-16 05:43:00,
2013-10-16 00:44:00,51.0,47.9,29.95,North,9,6.0,9.0,89,0.00,,SKC,0.00,VWS V14.01,2013-10-16 05:44:00,
2013-10-16 00:45:00,51.0,47.9,29.95,NNE,23,5.0,10.0,89,0.00,,SKC,0.00,VWS V14.01,2013-10-16 05:45:00,
2013-10-16 00:46:00,51.0,47.6,29.95,North,5,10.0,10.0,88,0.00,,SKC,0.00,VWS V14.01,2013-10-16 05:46:00,
2013-10-16 00:47:00,50.9,47.8,29.95,NNE,31,5.0,12.0,89,0.00,,SKC,0.00,VWS V14.01,2013-10-16 05:47:00,
2013-10-16 00:48:00,51.0,47.9,29.94,North,11,6.0,11.0,89,0.00,,SKC,0.00,VWS V14.01,2013-10-16 05:48:00,
2013-10-16 00:49:00,51.0,47.6,29.94,NNE,17,6.0,10.0,88,0.00,,SKC,0.00,VWS V14.01,2013-10-16 05:49:00,
2013-10-16 00:50:00,51.0,47.6,29.94,NNE,22,3.0,7.0,88,0.00,,SKC,0.00,VWS V14.01,2013-10-16 05:50:00,
2013-10-16 00:51:00,51.0,47.6,29.94,NNE,22,10.0,11.0,88,0.00,,SKC,0.00,VWS V14.01,2013-10-16 05:51:00,
2013-10-16 00:52:00,51.0,47.6,29.95,NNW,346,5.0,9.0,88,0.00,,SKC,0.00,VWS V14.01,2013-10-16 05:52:00,
2013-10-16 00:53:00,50.9,47.5,29.95,NNW,348,9.0,13.0,88,0.00,,SKC,0.00,VWS V14.01,2013-10-16 05:53:00,
2013-10-16 00:54:00,50.9,47.5,29.95,North,5,5.0,11.0,88,0.00,,SKC,0.00,VWS V14.01,2013-10-16 05:54:00,
2013-10-16 00:55:00,50.9,47.5,29.95,NNE,28,7.0,11.0,88,0.00,,SKC,0.00,VWS V14.01,2013-10-16 05:55:00,
2013-10-16 00:56:00,50.9,47.5,29.95,North,9,4.0,10.0,88,0.00,,SKC,0.00,VWS V14.01,2013-10-16 05:56:00,
2013-10-16 00:57:00,51.1,48.9,29.94,North,355,6.0,6.0,92,0.00,,SKC,0.00,VWS V14.01,2013-10-16 05:57:00,
2013-10-16 00:58:00,50.9,47.5,29.95,NNE,32,9.0,9.0,88,0.00,,SKC,0.00,VWS V14.01,2013-10-16 05:58:00,
2013-10-16 00:59:00,50.9,47.5,29.95,NNE,15,6.0,11.0,88,0.00,,SKC,0.00,VWS V14.01,2013-10-16 05:59:00,
2013-10-16 01:00:00,50.9,47.5,29.95,NNE,14,7.0,10.0,88,0.00,,SKC,0.00,VWS V14.01,2013-10-16 06:00:00,
2013-10-16 01:01:00,50.9,47.5,29.95,NNE,17,5.0,10.0,88,0.00,,SKC,0.00,VWS V14.01,2013-10-16 06:01:00,
2013-10-16 01:02:00,51.1,48.0,29.94,North,360,4.0,6.0,89,0.00,,SKC,0.00,VWS V14.01,2013-10-16 06:02:00,
2013-10-16 01:03:00,50.9,47.5,29.95,NNE,14,7.0,15.0,88,0.00,,SKC,0.00,VWS V14.01,2013-10-16 06:03:00,
2013-10-16 01:04:00,50.9,47.5,29.95,North,360,5.0,10.0,88,0.00,,SKC,0.00,VWS V14.01,2013-10-16 06:04:00,
2013-10-16 01:05:00,50.9,47.5,29.95,NE,35,11.0,11.0,88,0.00,,SKC,0.00,VWS V14.01,2013-10-16 06:05:00,
2013-10-16 01:06:00,50.9,47.5,29.94,North,360,7.0,12.0,88,0.00,,SKC,0.00,VWS V14.01,2013-10-16 06:06:00,
2013-10-16 01:07:00,51.1,48.0,29.94,NNE,28,6.0,11.0,89,0.00,,SKC,0.00,VWS V14.01,2013-10-16 06:07:00,
2013-10-16 01:08:00,50.9,47.5,29.94,North,11,6.0,10.0,88,0.00,,SKC,0.00,VWS V14.01,2013-10-16 06:08:00,
2013-10-16 01:09:00,50.9,47.5,29.94,NNE,28,3.0,10.0,88,0.00,,SKC,0.00,VWS V14.01,2013-10-16 06:09:00,
2013-10-16 01:10:00,50.9,47.5,29.94,North,5,6.0,10.0,88,0.00,,SKC,0.00,VWS V14.01,2013-10-16 06:10:00,
2013-10-16 01:11:00,50.9,47.5,29.95,NNE,16,10.0,14.0,88,0.00,,SKC,0.00,VWS V14.01,2013-10-16 06:11:00,
2013-10-16 01:12:00,51.1,48.9,29.93,North,9,5.0,5.0,92,0.00,,SKC,0.00,VWS V14.01,2013-10-16 06:12:00,
2013-10-16 01:13:00,50.9,47.5,29.95,NNE,28,3.0,6.0,88,0.00,,SKC,0.00,VWS V14.01,2013-10-16 06:13:00,
2013-10-16 01:14:00,50.9,47.5,29.95,NNE,25,3.0,4.0,88,0.00,,SKC,0.00,VWS V14.01,2013-10-16 06:14:00,
2013-10-16 01:15:00,50.9,47.5,29.95,NNE,14,5.0,7.0,88,0.00,,SKC,0.00,VWS V14.01,2013-10-16 06:15:00,
2013-10-16 01:16:00,50.9,47.5,29.95,North,5,4.0,7.0,88,0.00,,SKC,0.00,VWS V14.01,2013-10-16 06:16:00,
2013-10-16 01:17:00,51.1,48.9,29.94,North,5,0.0,2.0,92,0.00,,SKC,0.00,VWS V14.01,2013-10-16 06:17:00,
2013-10-16 01:18:00,51.0,47.6,29.95,NNW,344,3.0,7.0,88,0.00,,SKC,0.00,VWS V14.01,2013-10-16 06:18:00,
2013-10-16 01:19:00,51.0,47.6,29.95,NNE,24,4.0,7.0,88,0.00,,SKC,0.00,VWS V14.01,2013-10-16 06:19:00,
2013-10-16 01:20:00,51.0,47.6,29.95,North,5,6.0,9.0,88,0.00,,SKC,0.00,VWS V14.01,2013-10-16 06:20:00,
2013-10-16 01:21:00,51.0,47.6,29.95,NNW,345,4.0,8.0,88,0.00,,SKC,0.00,VWS V14.01,2013-10-16 06:21:00,
2013-10-16 01:22:00,51.1,48.0,29.94,North,349,4.0,9.0,89,0.00,,SKC,0.00,VWS V14.01,2013-10-16 06:22:00,
2013-10-16 01:23:00,51.0,47.6,29.95,NNE,25,5.0,9.0,88,0.00,,SKC,0.00,VWS V14.01,2013-10-16 06:23:00,
2013-10-16 01:24:00,51.0,47.6,29.95,NNE,17,1.0,5.0,88,0.00,,SKC,0.00,VWS V14.01,2013-10-16 06:24:00,
2013-10-16 01:25:00,51.0,47.6,29.95,North,360,5.0,7.0,88,0.00,,SKC,0.00,VWS V14.01,2013-10-16 06:25:00,
2013-10-16 01:26:00,51.0,47.6,29.94,North,355,8.0,10.0,88,0.00,,SKC,0.00,VWS V14.01,2013-10-16 06:26:00,
2013-10-16 01:27:00,51.0,47.6,29.95,North,5,3.0,9.0,88,0.00,,SKC,0.00,VWS V14.01,2013-10-16 06:27:00,
2013-10-16 01:28:00,51.0,47.6,29.95,NNE,13,6.0,10.0,88,0.00,,SKC,0.00,VWS V14.01,2013-10-16 06:28:00,
2013-10-16 01:29:00,51.0,47.6,29.96,North,350,7.0,10.0,88,0.00,,SKC,0.00,VWS V14.01,2013-10-16 06:29:00,
2013-10-16 01:30:00,51.0,47.6,29.96,North,10,5.0,10.0,88,0.00,,SKC,0.00,VWS V14.01,2013-10-16 06:30:00,
2013-10-16 01:31:00,50.9,47.8,29.96,North,360,5.0,9.0,89,0.00,,SKC,0.00,VWS V14.01,2013-10-16 06:31:00,
2013-10-16 01:32:00,51.0,47.6,29.95,North,10,5.0,8.0,88,0.00,,SKC,0.00,VWS V14.01,2013-10-16 06:32:00,
2013-10-16 01:33:00,51.0,47.6,29.95,North,5,3.0,5.0,88,0.00,,SKC,0.00,VWS V14.01,2013-10-16 06:33:00,
2013-10-16 01:34:00,51.0,47.6,29.95,NNE,24,8.0,9.0,88,0.00,,SKC,0.00,VWS V14.01,2013-10-16 06:34:00,
2013-10-16 01:35:00,51.0,47.6,29.95,NNE,25,9.0,11.0,88,0.00,,SKC,0.00,VWS V14.01,2013-10-16 06:35:00,
2013-10-16 01:36:00,50.9,47.5,29.95,NNW,346,4.0,10.0,88,0.00,,SKC,0.00,VWS V14.01,2013-10-16 06:36:00,
2013-10-16 01:37:00,51.0,47.6,29.95,North,351,6.0,6.0,88,0.00,,SKC,0.00,VWS V14.01,2013-10-16 06:37:00,
2013-10-16 01:38:00,51.0,47.9,29.95,North,5,10.0,12.0,89,0.00,,SKC,0.00,VWS V14.01,2013-10-16 06:38:00,
2013-10-16 01:39:00,50.9,47.8,29.95,NNE,13,12.0,13.0,89,0.00,,SKC,0.00,VWS V14.01,2013-10-16 06:39:00,
2013-10-16 01:40:00,50.9,47.8,29.95,North,5,5.0,12.0,89,0.00,,SKC,0.00,VWS V14.01,2013-10-16 06:40:00,
2013-10-16 01:41:00,50.9,47.5,29.96,North,360,9.0,9.0,88,0.00,,SKC,0.00,VWS V14.01,2013-10-16 06:41:00,
2013-10-16 01:42:00,50.9,47.8,29.95,NNE,30,7.0,9.0,89,0.00,,SKC,0.00,VWS V14.01,2013-10-16 06:42:00,
2013-10-16 01:43:00,50.9,47.8,29.95,North,360,8.0,10.0,89,0.00,,SKC,0.00,VWS V14.01,2013-10-16 06:43:00,
2013-10-16 01:44:00,50.9,47.8,29.96,North,360,3.0,10.0,89,0.00,,SKC,0.00,VWS V14.01,2013-10-16 06:44:00,
2013-10-16 01:45:00,50.9,47.8,29.95,North,5,5.0,12.0,89,0.00,,SKC,0.00,VWS V14.01,2013-10-16 06:45:00,
2013-10-16 01:46:00,50.9,47.5,29.95,North,11,10.0,10.0,88,0.00,,SKC,0.00,VWS V14.01,2013-10-16 06:46:00,
2013-10-16 01:47:00,51.0,47.6,29.95,NNE,17,3.0,9.0,88,0.00,,SKC,0.00,VWS V14.01,2013-10-16 06:47:00,
2013-10-16 01:48:00,51.0,47.6,29.95,North,5,2.0,6.0,88,0.00,,SKC,0.00,VWS V14.01,2013-10-16 06:48:00,
2013-10-16 01:49:00,51.0,47.6,29.95,NNE,13,3.0,6.0,88,0.00,,SKC,0.00,VWS V14.01,2013-10-16 06:49:00,
2013-10-16 01:50:00,51.0,47.6,29.95,NNE,27,6.0,9.0,88,0.00,,SKC,0.00,VWS V14.01,2013-10-16 06:50:00,
2013-10-16 01:51:00,50.8,47.7,29.96,NNW,330,5.0,5.0,89,0.00,,SKC,0.00,VWS V14.01,2013-10-16 06:51:00,
2013-10-16 01:52:00,51.1,47.7,29.95,North,355,7.0,9.0,88,0.00,,SKC,0.00,VWS V14.01,2013-10-16 06:52:00,
2013-10-16 01:53:00,51.1,47.7,29.95,NNE,22,4.0,7.0,88,0.00,,SKC,0.00,VWS V14.01,2013-10-16 06:53:00,
2013-10-16 01:54:00,51.1,48.9,29.94,NNE,25,5.0,6.0,92,0.00,,SKC,0.00,VWS V14.01,2013-10-16 06:54:00,
2013-10-16 01:55:00,51.1,48.9,29.94,NNE,19,5.0,7.0,92,0.00,,SKC,0.00,VWS V14.01,2013-10-16 06:55:00,
2013-10-16 01:56:00,50.6,47.5,29.96,North,5,11.0,12.0,89,0.00,,SKC,0.00,VWS V14.01,2013-10-16 06:56:00,
2013-10-16 01:57:00,51.1,48.9,29.94,NNE,21,4.0,7.0,92,0.00,,SKC,0.00,VWS V14.01,2013-10-16 06:57:00,
2013-10-16 01:58:00,51.1,48.0,29.94,North,350,3.0,9.0,89,0.00,,SKC,0.00,VWS V14.01,2013-10-16 06:58:00,
2013-10-16 01:59:00,51.1,48.9,29.94,North,5,4.0,10.0,92,0.00,,SKC,0.00,VWS V14.01,2013-10-16 06:59:00,
2013-10-16 02:00:00,51.1,48.0,29.94,North,5,3.0,6.0,89,0.00,,SKC,0.00,VWS V14.01,2013-10-16 07:00:00,
2013-10-16 02:01:00,50.5,47.4,29.96,NNE,27,8.0,9.0,89,0.00,,SKC,0.00,VWS V14.01,2013-10-16 07:01:00,
2013-10-16 02:03:00,51.1,48.0,29.94,North,360,1.0,6.0,89,0.00,,SKC,0.00,VWS V14.01,2013-10-16 07:03:00,
2013-10-16 02:04:00,51.1,48.0,29.94,North,5,11.0,11.0,89,0.00,,SKC,0.00,VWS V14.01,2013-10-16 07:04:00,
2013-10-16 02:05:00,51.1,48.0,29.94,North,360,7.0,11.0,89,0.00,,SKC,0.00,VWS V14.01,2013-10-16 07:05:00,
2013-10-16 02:06:00,50.4,47.3,29.97,NNW,348,4.0,4.0,89,0.00,,SKC,0.00,VWS V14.01,2013-10-16 07:06:00,
2013-10-16 02:07:00,51.1,48.9,29.94,North,360,6.0,8.0,92,0.00,,SKC,0.00,VWS V14.01,2013-10-16 07:07:00,
2013-10-16 02:08:00,51.1,48.9,29.94,NNE,26,7.0,13.0,92,0.00,,SKC,0.00,VWS V14.01,2013-10-16 07:08:00,
2013-10-16 02:09:00,51.1,47.7,29.93,NNE,28,5.0,7.0,88,0.00,,SKC,0.00,VWS V14.01,2013-10-16 07:09:00,
2013-10-16 02:10:00,51.1,48.9,29.93,North,360,5.0,5.0,92,0.00,,SKC,0.00,VWS V14.01,2013-10-16 07:10:00,
2013-10-16 02:11:00,50.3,48.1,29.97,NNW,344,6.0,10.0,92,0.00,,SKC,0.00,VWS V14.01,2013-10-16 07:11:00,
2013-10-16 02:12:00,51.1,48.0,29.94,NNE,15,2.0,9.0,89,0.00,,SKC,0.00,VWS V14.01,2013-10-16 07:12:00,
2013-10-16 02:13:00,51.1,48.9,29.94,North,5,4.0,8.0,92,0.00,,SKC,0.00,VWS V14.01,2013-10-16 07:13:00,
2013-10-16 02:14:00,51.1,48.9,29.94,North,5,2.0,4.0,92,0.00,,SKC,0.00,VWS V14.01,2013-10-16 07:14:00,
2013-10-16 02:15:00,51.1,48.9,29.94,North,5,1.0,2.0,92,0.00,,SKC,0.00,VWS V14.01,2013-10-16 07:15:00,
2013-10-16 02:16:00,50.3,47.2,29.97,NNW,331,10.0,10.0,89,0.00,,SKC,0.00,VWS V14.01,2013-10-16 07:16:00,
2013-10-16 02:17:00,51.2,48.1,29.94,North,355,4.0,5.0,89,0.00,,SKC,0.00,VWS V14.01,2013-10-16 07:17:00,
2013-10-16 02:18:00,51.1,48.0,29.94,North,355,5.0,5.0,89,0.00,,SKC,0.00,VWS V14.01,2013-10-16 07:18:00,
2013-10-16 02:19:00,51.1,48.0,29.94,North,360,3.0,6.0,89,0.00,,SKC,0.00,VWS V14.01,2013-10-16 07:19:00,
2013-10-16 02:20:00,51.1,48.0,29.94,North,360,6.0,9.0,89,0.00,,SKC,0.00,VWS V14.01,2013-10-16 07:20:00,
2013-10-16 02:21:00,50.2,47.1,29.98,NNW,348,1.0,5.0,89,0.00,,SKC,0.00,VWS V14.01,2013-10-16 07:21:00,
2013-10-16 02:22:00,51.0,47.6,29.94,North,355,4.0,7.0,88,0.00,,SKC,0.00,VWS V14.01,2013-10-16 07:22:00,
2013-10-16 02:23:00,51.0,47.6,29.94,NNW,344,2.0,5.0,88,0.00,,SKC,0.00,VWS V14.01,2013-10-16 07:23:00,
2013-10-16 02:24:00,51.0,47.6,29.94,North,11,6.0,6.0,88,0.00,,SKC,0.00,VWS V14.01,2013-10-16 07:24:00,
2013-10-16 02:25:00,51.0,47.6,29.94,North,5,4.0,10.0,88,0.00,,SKC,0.00,VWS V14.01,2013-10-16 07:25:00,
2013-10-16 02:26:00,50.1,47.0,29.98,NNW,342,6.0,13.0,89,0.01,,SKC,0.01,VWS V14.01,2013-10-16 07:26:00,
2013-10-16 02:27:00,50.9,47.8,29.95,North,360,3.0,6.0,89,0.00,,SKC,0.00,VWS V14.01,2013-10-16 07:27:00,
2013-10-16 02:28:00,50.9,47.8,29.95,North,360,3.0,5.0,89,0.00,,SKC,0.00,VWS V14.01,2013-10-16 07:28:00,
2013-10-16 02:29:00,50.9,47.8,29.95,NNW,342,4.0,5.0,89,0.00,,SKC,0.00,VWS V14.01,2013-10-16 07:29:00,
2013-10-16 02:30:00,50.9,47.8,29.95,NNW,338,5.0,9.0,89,0.00,,SKC,0.00,VWS V14.01,2013-10-16 07:30:00,
2013-10-16 02:31:00,50.1,47.0,29.98,NNW,340,4.0,12.0,89,0.01,,SKC,0.01,VWS V14.01,2013-10-16 07:31:00,
2013-10-16 02:32:00,50.9,47.8,29.96,North,5,5.0,6.0,89,0.00,,SKC,0.00,VWS V14.01,2013-10-16 07:32:00,
2013-10-16 02:33:00,50.9,47.8,29.95,North,355,2.0,5.0,89,0.00,,SKC,0.00,VWS V14.01,2013-10-16 07:33:00,
2013-10-16 02:34:00,50.9,47.5,29.95,NNE,15,7.0,7.0,88,0.00,,SKC,0.00,VWS V14.01,2013-10-16 07:34:00,
2013-10-16 02:35:00,50.9,47.5,29.95,North,360,4.0,10.0,88,0.00,,SKC,0.00,VWS V14.01,2013-10-16 07:35:00,
2013-10-16 02:36:00,50.1,47.0,29.98,North,5,6.0,8.0,89,0.02,,SKC,0.02,VWS V14.01,2013-10-16 07:36:00,
2013-10-16 02:37:00,50.9,47.5,29.95,North,360,5.0,6.0,88,0.00,,SKC,0.00,VWS V14.01,2013-10-16 07:37:00,
2013-10-16 02:38:00,50.9,47.5,29.95,NNW,346,4.0,6.0,88,0.00,,SKC,0.00,VWS V14.01,2013-10-16 07:38:00,
2013-10-16 02:39:00,50.9,47.5,29.96,NNE,17,5.0,9.0,88,0.00,,SKC,0.00,VWS V14.01,2013-10-16 07:39:00,
2013-10-16 02:40:00,50.9,47.5,29.96,North,355,6.0,9.0,88,0.00,,SKC,0.00,VWS V14.01,2013-10-16 07:40:00,
2013-10-16 02:41:00,50.2,47.1,29.98,NNW,346,4.0,7.0,89,0.02,,SKC,0.02,VWS V14.01,2013-10-16 07:41:00,
2013-10-16 02:42:00,50.9,47.5,29.96,NNW,327,3.0,4.0,88,0.00,,SKC,0.00,VWS V14.01,2013-10-16 07:42:00,
2013-10-16 02:43:00,50.9,47.5,29.96,NNW,339,2.0,5.0,88,0.00,,SKC,0.00,VWS V14.01,2013-10-16 07:43:00,
2013-10-16 02:44:00,50.9,47.5,29.96,NNW,346,4.0,7.0,88,0.00,,SKC,0.00,VWS V14.01,2013-10-16 07:44:00,
2013-10-16 02:45:00,50.9,47.5,29.95,North,360,9.0,10.0,88,0.00,,SKC,0.00,VWS V14.01,2013-10-16 07:45:00,
2013-10-16 02:46:00,50.2,47.1,29.97,North,11,5.0,9.0,89,0.04,,SKC,0.04,VWS V14.01,2013-10-16 07:46:00,
2013-10-16 02:47:00,50.9,47.5,29.96,NNW,344,0.0,5.0,88,0.00,,SKC,0.00,VWS V14.01,2013-10-16 07:47:00,
2013-10-16 02:48:00,50.9,47.5,29.96,NNW,331,7.0,9.0,88,0.00,,SKC,0.00,VWS V14.01,2013-10-16 07:48:00,
2013-10-16 02:49:00,50.8,47.7,29.96,North,5,5.0,10.0,89,0.00,,SKC,0.00,VWS V14.01,2013-10-16 07:49:00,
2013-10-16 02:50:00,50.8,47.7,29.96,North,350,5.0,5.0,89,0.00,,SKC,0.00,VWS V14.01,2013-10-16 07:50:00,
2013-10-16 02:51:00,50.2,47.1,29.96,NNE,29,9.0,9.0,89,0.04,,SKC,0.04,VWS V14.01,2013-10-16 07:51:00,
2013-10-16 02:52:00,50.7,47.6,29.96,NNW,338,6.0,9.0,89,0.00,,SKC,0.00,VWS V14.01,2013-10-16 07:52:00,
2013-10-16 02:53:00,50.7,47.6,29.96,NNE,16,4.0,6.0,89,0.00,,SKC,0.00,VWS V14.01,2013-10-16 07:53:00,
2013-10-16 02:54:00,50.6,47.5,29.96,NNW,336,5.0,9.0,89,0.00,,SKC,0.00,VWS V14.01,2013-10-16 07:54:00,
2013-10-16 02:55:00,50.6,47.5,29.96,NNW,340,7.0,12.0,89,0.00,,SKC,0.00,VWS V14.01,2013-10-16 07:55:00,
2013-10-16 02:56:00,50.0,46.9,29.95,NNE,26,7.0,15.0,89,0.05,,SKC,0.05,VWS V14.01,2013-10-16 07:56:00,
2013-10-16 02:57:00,50.5,47.4,29.96,North,360,6.0,12.0,89,0.00,,SKC,0.00,VWS V14.01,2013-10-16 07:57:00,
2013-10-16 02:58:00,50.5,47.4,29.96,North,360,5.0,10.0,89,0.00,,SKC,0.00,VWS V14.01,2013-10-16 07:58:00,
2013-10-16 02:59:00,50.5,47.4,29.96,NNW,330,4.0,10.0,89,0.00,,SKC,0.00,VWS V14.01,2013-10-16 07:59:00,
2013-10-16 03:00:00,50.4,47.3,29.96,NNE,19,9.0,9.0,89,0.00,,SKC,0.00,VWS V14.01,2013-10-16 08:00:00,
2013-10-16 03:01:00,50.0,46.9,29.95,NNE,21,8.0,11.0,89,0.06,,SKC,0.06,VWS V14.01,2013-10-16 08:01:00,
2013-10-16 03:02:00,50.4,47.3,29.96,North,360,2.0,10.0,89,0.00,,SKC,0.00,VWS V14.01,2013-10-16 08:02:00,
2013-10-16 03:03:00,50.4,47.3,29.97,NNW,330,2.0,5.0,89,0.00,,SKC,0.00,VWS V14.01,2013-10-16 08:03:00,
2013-10-16 03:04:00,50.4,47.3,29.97,NNW,344,2.0,10.0,89,0.00,,SKC,0.00,VWS V14.01,2013-10-16 08:04:00,
2013-10-16 03:05:00,50.4,47.3,29.97,NNW,348,4.0,5.0,89,0.00,,SKC,0.00,VWS V14.01,2013-10-16 08:05:00,
2013-10-16 03:06:00,50.0,46.9,29.95,NNE,13,4.0,5.0,89,0.06,,SKC,0.06,VWS V14.01,2013-10-16 08:06:00,
2013-10-16 03:07:00,50.4,47.3,29.97,NNE,17,6.0,10.0,89,0.00,,SKC,0.00,VWS V14.01,2013-10-16 08:07:00,
2013-10-16 03:08:00,50.4,48.2,29.97,North,5,4.0,10.0,92,0.00,,SKC,0.00,VWS V14.01,2013-10-16 08:08:00,
2013-10-16 03:09:00,50.4,48.2,29.97,North,351,6.0,13.0,92,0.00,,SKC,0.00,VWS V14.01,2013-10-16 08:09:00,
2013-10-16 03:10:00,50.3,47.2,29.97,North,355,6.0,10.0,89,0.00,,SKC,0.00,VWS V14.01,2013-10-16 08:10:00,
2013-10-16 03:11:00,50.0,46.9,29.95,North,360,4.0,6.0,89,0.08,,SKC,0.08,VWS V14.01,2013-10-16 08:11:00,
2013-10-16 03:12:00,50.3,47.2,29.97,NNE,14,6.0,13.0,89,0.00,,SKC,0.00,VWS V14.01,2013-10-16 08:12:00,
2013-10-16 03:13:00,50.3,47.2,29.97,NW,321,2.0,9.0,89,0.00,,SKC,0.00,VWS V14.01,2013-10-16 08:13:00,
2013-10-16 03:14:00,50.3,47.2,29.97,North,351,4.0,9.0,89,0.00,,SKC,0.00,VWS V14.01,2013-10-16 08:14:00,
2013-10-16 03:15:00,50.3,47.2,29.97,NNW,348,4.0,10.0,89,0.00,,SKC,0.00,VWS V14.01,2013-10-16 08:15:00,
2013-10-16 03:16:00,50.0,46.9,29.96,NW,317,3.0,4.0,89,0.11,,SKC,0.11,VWS V14.01,2013-10-16 08:16:00,
2013-10-16 03:17:00,50.2,47.1,29.97,NNW,341,7.0,11.0,89,0.00,,SKC,0.00,VWS V14.01,2013-10-16 08:17:00,
2013-10-16 03:18:00,50.2,47.1,29.97,NNW,346,4.0,10.0,89,0.00,,SKC,0.00,VWS V14.01,2013-10-16 08:18:00,
2013-10-16 03:19:00,50.2,47.1,29.98,North,351,3.0,6.0,89,0.00,,SKC,0.00,VWS V14.01,2013-10-16 08:19:00,
2013-10-16 03:20:00,50.2,47.1,29.98,NNE,19,7.0,7.0,89,0.00,,SKC,0.00,VWS V14.01,2013-10-16 08:20:00,
2013-10-16 03:21:00,50.1,47.0,29.96,North,355,6.0,7.0,89,0.15,,SKC,0.15,VWS V14.01,2013-10-16 08:21:00,
2013-10-16 03:22:00,50.2,47.1,29.98,NNW,344,7.0,13.0,89,0.00,,SKC,0.00,VWS V14.01,2013-10-16 08:22:00,
2013-10-16 03:23:00,50.1,47.0,29.98,North,355,3.0,13.0,89,0.00,,SKC,0.00,VWS V14.01,2013-10-16 08:23:00,
2013-10-16 03:24:00,50.1,47.0,29.98,NNE,24,11.0,12.0,89,0.01,,SKC,0.01,VWS V14.01,2013-10-16 08:24:00,
2013-10-16 03:25:00,50.1,47.0,29.98,NNE,25,7.0,13.0,89,0.01,,SKC,0.01,VWS V14.01,2013-10-16 08:25:00,
2013-10-16 03:26:00,50.1,46.7,29.96,North,11,2.0,4.0,88,0.22,,SKC,0.23,VWS V14.01,2013-10-16 08:26:00,
2013-10-16 03:27:00,50.1,47.0,29.98,NNW,345,9.0,9.0,89,0.01,,SKC,0.01,VWS V14.01,2013-10-16 08:27:00,
2013-10-16 03:28:00,50.1,47.0,29.98,North,360,7.0,9.0,89,0.01,,SKC,0.01,VWS V14.01,2013-10-16 08:28:00,
2013-10-16 03:29:00,50.1,47.0,29.98,North,5,6.0,11.0,89,0.01,,SKC,0.01,VWS V14.01,2013-10-16 08:29:00,
2013-10-16 03:30:00,50.1,47.0,29.98,North,5,6.0,12.0,89,0.01,,SKC,0.01,VWS V14.01,2013-10-16 08:30:00,
2013-10-16 03:31:00,50.2,46.8,29.96,NNE,19,4.0,6.0,88,0.28,,SKC,0.29,VWS V14.01,2013-10-16 08:31:00,
2013-10-16 03:32:00,50.1,47.0,29.98,North,360,9.0,12.0,89,0.01,,SKC,0.01,VWS V14.01,2013-10-16 08:32:00,
2013-10-16 03:33:00,50.0,46.9,29.98,North,360,6.0,11.0,89,0.02,,SKC,0.02,VWS V14.01,2013-10-16 08:33:00,
2013-10-16 03:34:00,50.1,47.0,29.98,NNW,329,7.0,9.0,89,0.02,,SKC,0.02,VWS V14.01,2013-10-16 08:34:00,
2013-10-16 03:35:00,50.1,47.0,29.98,NNW,343,5.0,8.0,89,0.02,,SKC,0.02,VWS V14.01,2013-10-16 08:35:00,
2013-10-16 03:36:00,50.3,46.9,29.95,NNE,17,4.0,6.0,88,0.31,,SKC,0.33,VWS V14.01,2013-10-16 08:36:00,
2013-10-16 03:37:00,50.1,47.0,29.98,NNW,328,3.0,6.0,89,0.02,,SKC,0.02,VWS V14.01,2013-10-16 08:37:00,
2013-10-16 03:38:00,50.1,47.0,29.98,NNE,28,1.0,5.0,89,0.02,,SKC,0.02,VWS V14.01,2013-10-16 08:38:00,
2013-10-16 03:39:00,50.1,47.0,29.98,North,360,4.0,7.0,89,0.02,,SKC,0.02,VWS V14.01,2013-10-16 08:39:00,
2013-10-16 03:40:00,50.2,47.1,29.98,North,5,6.0,7.0,89,0.02,,SKC,0.02,VWS V14.01,2013-10-16 08:40:00,
2013-10-16 03:41:00,50.3,46.9,29.96,North,355,3.0,5.0,88,0.33,,SKC,0.35,VWS V14.01,2013-10-16 08:41:00,
2013-10-16 03:42:00,50.2,47.1,29.98,North,5,2.0,7.0,89,0.02,,SKC,0.02,VWS V14.01,2013-10-16 08:42:00,
2013-10-16 03:43:00,50.2,47.1,29.98,North,5,4.0,11.0,89,0.03,,SKC,0.03,VWS V14.01,2013-10-16 08:43:00,
2013-10-16 03:44:00,50.2,47.1,29.97,North,11,7.0,7.0,89,0.03,,SKC,0.03,VWS V14.01,2013-10-16 08:44:00,
2013-10-16 03:45:00,50.2,47.1,29.97,NE,45,6.0,9.0,89,0.04,,SKC,0.04,VWS V14.01,2013-10-16 08:45:00,
2013-10-16 03:46:00,50.4,47.0,29.97,North,360,2.0,6.0,88,0.33,,SKC,0.36,VWS V14.01,2013-10-16 08:46:00,
2013-10-16 03:47:00,50.2,47.1,29.97,North,11,4.0,7.0,89,0.04,,SKC,0.04,VWS V14.01,2013-10-16 08:47:00,
2013-10-16 03:48:00,50.2,47.1,29.97,NNE,22,6.0,7.0,89,0.04,,SKC,0.04,VWS V14.01,2013-10-16 08:48:00,
2013-10-16 03:49:00,50.2,47.1,29.96,NNE,16,3.0,6.0,89,0.04,,SKC,0.04,VWS V14.01,2013-10-16 08:49:00,
2013-10-16 03:50:00,50.2,47.1,29.96,NNE,30,5.0,9.0,89,0.04,,SKC,0.04,VWS V14.01,2013-10-16 08:50:00,
2013-10-16 03:51:00,50.3,48.1,29.96,NNE,22,6.0,7.0,92,0.33,,SKC,0.37,VWS V14.01,2013-10-16 08:51:00,
2013-10-16 03:52:00,50.1,47.0,29.96,North,360,11.0,11.0,89,0.05,,SKC,0.05,VWS V14.01,2013-10-16 08:52:00,
2013-10-16 03:53:00,50.1,47.0,29.96,North,360,10.0,12.0,89,0.05,,SKC,0.05,VWS V14.01,2013-10-16 08:53:00,
2013-10-16 03:54:00,50.1,47.0,29.96,North,10,7.0,15.0,89,0.05,,SKC,0.05,VWS V14.01,2013-10-16 08:54:00,
2013-10-16 03:55:00,50.0,46.9,29.95,NNE,26,10.0,15.0,89,0.05,,SKC,0.05,VWS V14.01,2013-10-16 08:55:00,
2013-10-16 03:56:00,50.2,46.8,29.95,North,5,4.0,5.0,88,0.33,,SKC,0.38,VWS V14.01,2013-10-16 08:56:00,
2013-10-16 03:57:00,50.0,46.9,29.95,NNE,22,7.0,11.0,89,0.05,,SKC,0.05,VWS V14.01,2013-10-16 08:57:00,
2013-10-16 03:58:00,49.9,46.8,29.95,NNE,28,5.0,11.0,89,0.05,,SKC,0.05,VWS V14.01,2013-10-16 08:58:00,
2013-10-16 03:59:00,49.9,46.8,29.95,North,360,6.0,7.0,89,0.06,,SKC,0.06,VWS V14.01,2013-10-16 08:59:00,
2013-10-16 04:00:00,49.9,46.8,29.95,NE,51,5.0,11.0,89,0.06,,SKC,0.06,VWS V14.01,2013-10-16 09:00:00,
2013-10-16 04:01:00,50.1,46.7,29.94,North,5,11.0,11.0,88,0.34,,SKC,0.40,VWS V14.01,2013-10-16 09:01:00,
2013-10-16 04:02:00,49.9,46.8,29.95,NNE,12,5.0,9.0,89,0.06,,SKC,0.06,VWS V14.01,2013-10-16 09:02:00,
2013-10-16 04:03:00,49.9,46.8,29.95,NNE,18,2.0,7.0,89,0.06,,SKC,0.06,VWS V14.01,2013-10-16 09:03:00,
2013-10-16 04:04:00,49.9,46.8,29.95,North,350,4.0,6.0,89,0.06,,SKC,0.06,VWS V14.01,2013-10-16 09:04:00,
2013-10-16 04:05:00,50.0,46.9,29.95,NNE,14,2.0,5.0,89,0.06,,SKC,0.06,VWS V14.01,2013-10-16 09:05:00,
2013-10-16 04:06:00,49.9,46.8,29.93,North,360,7.0,12.0,89,0.36,,SKC,0.42,VWS V14.01,2013-10-16 09:06:00,
2013-10-16 04:07:00,50.0,46.9,29.95,NNE,14,5.0,8.0,89,0.07,,SKC,0.07,VWS V14.01,2013-10-16 09:07:00,
2013-10-16 04:08:00,50.0,46.9,29.95,NNE,30,4.0,5.0,89,0.07,,SKC,0.07,VWS V14.01,2013-10-16 09:08:00,
2013-10-16 04:09:00,50.0,46.9,29.95,NNE,15,4.0,9.0,89,0.08,,SKC,0.08,VWS V14.01,2013-10-16 09:09:00,
2013-10-16 04:10:00,50.0,46.9,29.95,NNE,20,5.0,6.0,89,0.08,,SKC,0.08,VWS V14.01,2013-10-16 09:10:00,
2013-10-16 04:11:00,49.7,46.6,29.92,North,11,5.0,12.0,89,0.36,,SKC,0.44,VWS V14.01,2013-10-16 09:11:00,
2013-10-16 04:12:00,50.0,46.9,29.96,NNE,15,8.0,8.0,89,0.09,,SKC,0.09,VWS V14.01,2013-10-16 09:12:00,
2013-10-16 04:13:00,50.0,46.9,29.96,North,360,5.0,8.0,89,0.10,,SKC,0.10,VWS V14.01,2013-10-16 09:13:00,
2013-10-16 04:14:00,50.0,46.9,29.96,North,11,4.0,7.0,89,0.10,,SKC,0.10,VWS V14.01,2013-10-16 09:14:00,
2013-10-16 04:15:00,50.0,46.9,29.96,NW,320,1.0,4.0,89,0.11,,SKC,0.11,VWS V14.01,2013-10-16 09:15:00,
2013-10-16 04:16:00,49.7,46.6,29.91,ENE,59,9.0,9.0,89,0.35,,SKC,0.45,VWS V14.01,2013-10-16 09:16:00,
2013-10-16 04:17:00,50.0,46.9,29.96,North,5,4.0,5.0,89,0.12,,SKC,0.12,VWS V14.01,2013-10-16 09:17:00,
2013-10-16 04:18:00,50.0,46.9,29.96,North,10,6.0,6.0,89,0.13,,SKC,0.13,VWS V14.01,2013-10-16 09:18:00,
2013-10-16 04:19:00,50.0,46.9,29.96,North,360,7.0,7.0,89,0.14,,SKC,0.14,VWS V14.01,2013-10-16 09:19:00,
2013-10-16 04:20:00,50.1,47.0,29.96,North,360,6.0,8.0,89,0.15,,SKC,0.15,VWS V14.01,2013-10-16 09:20:00,
2013-10-16 04:21:00,49.7,46.6,29.93,North,360,6.0,9.0,89,0.33,,SKC,0.47,VWS V14.01,2013-10-16 09:21:00,
2013-10-16 04:22:00,50.1,47.0,29.96,NNE,18,6.0,9.0,89,0.19,,SKC,0.19,VWS V14.01,2013-10-16 09:22:00,
2013-10-16 04:23:00,50.1,47.0,29.96,NNE,19,3.0,7.0,89,0.20,,SKC,0.20,VWS V14.01,2013-10-16 09:23:00,
2013-10-16 04:24:00,50.1,47.0,29.96,North,11,2.0,4.0,89,0.22,,SKC,0.22,VWS V14.01,2013-10-16 09:24:00,
2013-10-16 04:25:00,50.1,46.7,29.96,North,11,3.0,4.0,88,0.23,,SKC,0.24,VWS V14.01,2013-10-16 09:25:00,
2013-10-16 04:26:00,49.8,46.7,29.97,NNW,329,0.0,1.0,89,0.28,,SKC,0.50,VWS V14.01,2013-10-16 09:26:00,
2013-10-16 04:27:00,50.2,46.8,29.96,NNE,17,4.0,5.0,88,0.26,,SKC,0.27,VWS V14.01,2013-10-16 09:27:00,
2013-10-16 04:28:00,50.2,46.8,29.96,NE,38,4.0,7.0,88,0.27,,SKC,0.28,VWS V14.01,2013-10-16 09:28:00,
2013-10-16 04:29:00,50.2,46.8,29.96,NE,38,5.0,5.0,88,0.28,,SKC,0.29,VWS V14.01,2013-10-16 09:29:00,
2013-10-16 04:30:00,50.2,46.8,29.96,NNE,20,3.0,6.0,88,0.29,,SKC,0.30,VWS V14.01,2013-10-16 09:30:00,
2013-10-16 04:31:00,50.2,46.8,29.96,North,11,1.0,4.0,88,0.29,,SKC,0.30,VWS V14.01,2013-10-16 09:31:00,
2013-10-16 04:32:00,49.9,46.8,29.97,NNW,327,2.0,5.0,89,0.26,,SKC,0.55,VWS V14.01,2013-10-16 09:32:00,
2013-10-16 04:33:00,50.2,46.8,29.95,NE,42,4.0,8.0,88,0.31,,SKC,0.32,VWS V14.01,2013-10-16 09:33:00,
2013-10-16 04:34:00,50.3,46.9,29.95,NNE,33,4.0,5.0,88,0.30,,SKC,0.32,VWS V14.01,2013-10-16 09:34:00,
2013-10-16 04:35:00,50.3,46.9,29.95,ENE,59,4.0,6.0,88,0.31,,SKC,0.33,VWS V14.01,2013-10-16 09:35:00,
2013-10-16 04:36:00,50.3,46.9,29.95,NE,41,4.0,5.0,88,0.32,,SKC,0.34,VWS V14.01,2013-10-16 09:36:00,
2013-10-16 04:37:00,49.8,46.7,29.94,North,360,4.0,6.0,89,0.31,,SKC,0.63,VWS V14.01,2013-10-16 09:37:00,
2013-10-16 04:38:00,50.3,46.9,29.95,North,350,2.0,5.0,88,0.32,,SKC,0.34,VWS V14.01,2013-10-16 09:38:00,
2013-10-16 04:39:00,50.3,46.9,29.96,North,5,5.0,5.0,88,0.32,,SKC,0.34,VWS V14.01,2013-10-16 09:39:00,
2013-10-16 04:40:00,50.3,46.9,29.96,North,9,6.0,9.0,88,0.33,,SKC,0.35,VWS V14.01,2013-10-16 09:40:00,
2013-10-16 04:41:00,50.3,46.9,29.96,North,360,3.0,7.0,88,0.33,,SKC,0.35,VWS V14.01,2013-10-16 09:41:00,
2013-10-16 04:42:00,49.7,46.6,29.96,NNW,329,4.0,6.0,89,0.37,,SKC,0.71,VWS V14.01,2013-10-16 09:42:00,
2013-10-16 04:43:00,50.3,46.9,29.96,NNE,26,6.0,6.0,88,0.34,,SKC,0.36,VWS V14.01,2013-10-16 09:43:00,
2013-10-16 04:44:00,50.3,46.9,29.96,North,350,2.0,9.0,88,0.33,,SKC,0.36,VWS V14.01,2013-10-16 09:44:00,
2013-10-16 04:45:00,50.4,47.0,29.97,NNW,342,5.0,6.0,88,0.33,,SKC,0.36,VWS V14.01,2013-10-16 09:45:00,
2013-10-16 04:46:00,50.4,48.2,29.96,NW,325,2.0,7.0,92,0.32,,SKC,0.36,VWS V14.01,2013-10-16 09:46:00,
2013-10-16 04:47:00,49.7,46.6,29.96,NNW,336,2.0,9.0,89,0.40,,SKC,0.76,VWS V14.01,2013-10-16 09:47:00,
2013-10-16 04:48:00,50.4,48.2,29.96,North,360,5.0,13.0,92,0.33,,SKC,0.37,VWS V14.01,2013-10-16 09:48:00,
2013-10-16 04:49:00,50.4,48.2,29.96,NNE,14,6.0,11.0,92,0.33,,SKC,0.37,VWS V14.01,2013-10-16 09:49:00,
2013-10-16 04:50:00,50.3,46.9,29.96,North,5,6.0,7.0,88,0.33,,SKC,0.37,VWS V14.01,2013-10-16 09:50:00,
2013-10-16 04:51:00,50.3,46.9,29.96,NNE,13,2.0,6.0,88,0.34,,SKC,0.38,VWS V14.01,2013-10-16 09:51:00,
2013-10-16 04:52:00,49.5,46.1,29.97,NNW,344,3.0,4.0,88,0.44,,SKC,0.81,VWS V14.01,2013-10-16 09:52:00,
2013-10-16 04:53:00,50.3,46.9,29.95,NNE,33,10.0,10.0,88,0.33,,SKC,0.38,VWS V14.01,2013-10-16 09:53:00,
2013-10-16 04:54:00,50.3,46.9,29.95,North,360,4.0,13.0,88,0.33,,SKC,0.38,VWS V14.01,2013-10-16 09:54:00,
2013-10-16 04:55:00,50.2,46.8,29.95,NNE,15,5.0,8.0,88,0.33,,SKC,0.38,VWS V14.01,2013-10-16 09:55:00,
2013-10-16 04:56:00,50.2,46.8,29.95,North,5,4.0,6.0,88,0.34,,SKC,0.39,VWS V14.01,2013-10-16 09:56:00,
2013-10-16 04:57:00,49.5,46.1,29.96,NNE,27,6.0,6.0,88,0.45,,SKC,0.83,VWS V14.01,2013-10-16 09:57:00,
2013-10-16 04:58:00,50.1,46.7,29.95,NNE,19,5.0,13.0,88,0.34,,SKC,0.39,VWS V14.01,2013-10-16 09:58:00,
2013-10-16 04:59:00,50.1,46.7,29.94,NNE,22,3.0,10.0,88,0.35,,SKC,0.40,VWS V14.01,2013-10-16 09:59:00,
2013-10-16 05:00:00,50.0,46.6,29.94,North,5,9.0,11.0,88,0.34,,SKC,0.40,VWS V14.01,2013-10-16 10:00:00,
2013-10-16 05:01:00,50.0,46.9,29.94,NE,48,6.0,10.0,89,0.34,,SKC,0.40,VWS V14.01,2013-10-16 10:01:00,
2013-10-16 05:02:00,49.4,46.0,29.94,North,360,10.0,10.0,88,0.48,,SKC,0.88,VWS V14.01,2013-10-16 10:02:00,
2013-10-16 05:03:00,49.9,46.8,29.94,NNE,24,4.0,12.0,89,0.35,,SKC,0.41,VWS V14.01,2013-10-16 10:03:00,
2013-10-16 05:04:00,49.9,46.8,29.93,North,11,7.0,13.0,89,0.36,,SKC,0.42,VWS V14.01,2013-10-16 10:04:00,
2013-10-16 05:05:00,49.8,46.7,29.93,NE,49,5.0,12.0,89,0.36,,SKC,0.42,VWS V14.01,2013-10-16 10:05:00,
2013-10-16 05:06:00,49.8,46.7,29.93,North,5,7.0,10.0,89,0.36,,SKC,0.42,VWS V14.01,2013-10-16 10:06:00,
2013-10-16 05:07:00,49.4,46.0,29.96,NW,323,4.0,4.0,88,0.52,,SKC,0.94,VWS V14.01,2013-10-16 10:07:00,
2013-10-16 05:08:00,49.7,46.6,29.92,NE,53,7.0,7.0,89,0.36,,SKC,0.43,VWS V14.01,2013-10-16 10:08:00,
2013-10-16 05:09:00,49.7,46.6,29.92,NNE,22,5.0,11.0,89,0.36,,SKC,0.43,VWS V14.01,2013-10-16 10:09:00,
2013-10-16 05:10:00,49.7,46.6,29.92,NNE,15,5.0,12.0,89,0.36,,SKC,0.44,VWS V14.01,2013-10-16 10:10:00,
2013-10-16 05:11:00,49.7,46.6,29.92,NNE,31,4.0,8.0,89,0.36,,SKC,0.44,VWS V14.01,2013-10-16 10:11:00,
2013-10-16 05:12:00,49.2,46.1,29.95,NNE,22,7.0,10.0,89,0.54,,SKC,0.97,VWS V14.01,2013-10-16 10:12:00,
2013-10-16 05:13:00,49.7,46.6,29.92,NE,40,5.0,8.0,89,0.36,,SKC,0.45,VWS V14.01,2013-10-16 10:13:00,
2013-10-16 05:14:00,49.7,46.6,29.91,NNE,18,4.0,12.0,89,0.35,,SKC,0.45,VWS V14.01,2013-10-16 10:14:00,
2013-10-16 05:15:00,49.7,46.6,29.91,NNE,22,10.0,11.0,89,0.35,,SKC,0.45,VWS V14.01,2013-10-16 10:15:00,
2013-10-16 05:16:00,49.7,46.6,29.92,NE,35,9.0,11.0,89,0.34,,SKC,0.45,VWS V14.01,2013-10-16 10:16:00,
2013-10-16 05:17:00,49.2,46.1,29.95,North,355,3.0,9.0,89,0.54,,SKC,0.99,VWS V14.01,2013-10-16 10:17:00,
2013-10-16 05:18:00,49.7,46.6,29.92,NNE,32,5.0,9.0,89,0.34,,SKC,0.46,VWS V14.01,2013-10-16 10:18:00,
2013-10-16 05:19:00,49.7,46.6,29.93,NNW,344,6.0,11.0,89,0.33,,SKC,0.46,VWS V14.01,2013-10-16 10:19:00,
2013-10-16 05:20:00,49.8,46.7,29.93,North,355,4.0,9.0,89,0.33,,SKC,0.47,VWS V14.01,2013-10-16 10:20:00,
2013-10-16 05:21:00,49.8,46.7,29.95,North,355,4.0,6.0,89,0.33,,SKC,0.48,VWS V14.01,2013-10-16 10:21:00,
2013-10-16 05:22:00,49.1,46.0,29.95,North,360,7.0,11.0,89,0.55,,SKC,1.01,VWS V14.01,2013-10-16 10:22:00,
2013-10-16 05:23:00,49.8,46.7,29.96,NNW,329,0.0,4.0,89,0.30,,SKC,0.49,VWS V14.01,2013-10-16 10:23:00,
2013-10-16 05:24:00,49.8,46.7,29.96,NNW,329,0.0,4.0,89,0.29,,SKC,0.49,VWS V14.01,2013-10-16 10:24:00,
2013-10-16 05:25:00,49.8,46.7,29.97,NNW,329,2.0,2.0,89,0.28,,SKC,0.50,VWS V14.01,2013-10-16 10:25:00,
2013-10-16 05:26:00,49.8,46.7,29.97,NNW,327,3.0,3.0,89,0.27,,SKC,0.51,VWS V14.01,2013-10-16 10:26:00,
2013-10-16 05:27:00,49.0,45.9,29.96,NNW,331,4.0,9.0,89,0.54,,SKC,1.03,VWS V14.01,2013-10-16 10:27:00,
2013-10-16 05:28:00,49.9,46.8,29.97,NNW,327,0.0,2.0,89,0.26,,SKC,0.53,VWS V14.01,2013-10-16 10:28:00,
2013-10-16 05:29:00,49.9,46.8,29.97,NNW,327,2.0,3.0,89,0.26,,SKC,0.54,VWS V14.01,2013-10-16 10:29:00,
2013-10-16 05:30:00,49.9,46.8,29.97,North,355,5.0,5.0,89,0.26,,SKC,0.55,VWS V14.01,2013-10-16 10:30:00,
2013-10-16 05:31:00,49.9,46.8,29.96,NNE,16,2.0,5.0,89,0.27,,SKC,0.57,VWS V14.01,2013-10-16 10:31:00,
2013-10-16 05:32:00,49.0,45.9,29.96,NNE,13,4.0,7.0,89,0.50,,SKC,1.04,VWS V14.01,2013-10-16 10:32:00,
2013-10-16 05:33:00,49.9,46.8,29.95,NNE,17,2.0,8.0,89,0.29,,SKC,0.60,VWS V14.01,2013-10-16 10:33:00,
2013-10-16 05:34:00,49.8,46.7,29.94,North,5,4.0,5.0,89,0.30,,SKC,0.62,VWS V14.01,2013-10-16 10:34:00,
2013-10-16 05:35:00,49.8,46.7,29.94,North,360,3.0,6.0,89,0.31,,SKC,0.63,VWS V14.01,2013-10-16 10:35:00,
2013-10-16 05:36:00,49.8,46.7,29.95,North,360,0.0,3.0,89,0.33,,SKC,0.66,VWS V14.01,2013-10-16 10:36:00,
2013-10-16 05:37:00,49.0,45.9,29.96,North,360,3.0,4.0,89,0.43,,SKC,1.05,VWS V14.01,2013-10-16 10:37:00,
2013-10-16 05:38:00,49.8,46.7,29.95,NNW,344,4.0,10.0,89,0.35,,SKC,0.69,VWS V14.01,2013-10-16 10:38:00,
2013-10-16 05:39:00,49.8,46.7,29.96,NNW,331,2.0,4.0,89,0.36,,SKC,0.70,VWS V14.01,2013-10-16 10:39:00,
2013-10-16 05:40:00,49.7,46.6,29.96,NNW,329,4.0,6.0,89,0.37,,SKC,0.71,VWS V14.01,2013-10-16 10:40:00,
2013-10-16 05:41:00,49.7,46.6,29.96,NNW,330,5.0,5.0,89,0.37,,SKC,0.72,VWS V14.01,2013-10-16 10:41:00,
2013-10-16 05:42:00,49.0,45.9,29.97,North,351,1.0,4.0,89,0.36,,SKC,1.06,VWS V14.01,2013-10-16 10:42:00,
2013-10-16 05:43:00,49.7,46.6,29.96,NNW,332,2.0,5.0,89,0.38,,SKC,0.74,VWS V14.01,2013-10-16 10:43:00,
2013-10-16 05:44:00,49.7,46.6,29.96,North,10,9.0,9.0,89,0.39,,SKC,0.75,VWS V14.01,2013-10-16 10:44:00,
2013-10-16 05:45:00,49.7,46.6,29.96,NNW,343,2.0,9.0,89,0.40,,SKC,0.76,VWS V14.01,2013-10-16 10:45:00,
2013-10-16 05:46:00,49.1,46.0,29.96,North,350,3.0,5.0,89,0.33,,SKC,1.08,VWS V14.01,2013-10-16 10:46:00,
2013-10-16 05:47:00,49.6,46.2,29.96,North,355,2.0,6.0,88,0.43,,SKC,0.79,VWS V14.01,2013-10-16 10:47:00,
2013-10-16 05:48:00,49.6,46.2,29.96,North,355,2.0,2.0,88,0.43,,SKC,0.79,VWS V14.01,2013-10-16 10:48:00,
2013-10-16 05:49:00,49.6,46.2,29.97,North,355,2.0,2.0,88,0.43,,SKC,0.80,VWS V14.01,2013-10-16 10:49:00,
2013-10-16 05:50:00,49.5,46.1,29.97,NNW,344,2.0,4.0,88,0.44,,SKC,0.81,VWS V14.01,2013-10-16 10:50:00,
2013-10-16 05:51:00,49.5,46.1,29.97,North,355,3.0,3.0,88,0.45,,SKC,0.82,VWS V14.01,2013-10-16 10:51:00,
2013-10-16 05:52:00,49.1,46.0,29.97,North,355,3.0,5.0,89,0.29,,SKC,1.09,VWS V14.01,2013-10-16 10:52:00,
2013-10-16 05:53:00,49.5,46.1,29.96,NNE,19,3.0,3.0,88,0.44,,SKC,0.82,VWS V14.01,2013-10-16 10:53:00,
2013-10-16 05:54:00,49.5,46.1,29.96,NNE,30,1.0,5.0,88,0.45,,SKC,0.83,VWS V14.01,2013-10-16 10:54:00,
2013-10-16 05:55:00,49.5,46.1,29.96,NNE,27,3.0,6.0,88,0.45,,SKC,0.83,VWS V14.01,2013-10-16 10:55:00,
2013-10-16 05:56:00,49.1,46.0,29.97,NNW,346,4.0,5.0,89,0.27,,SKC,1.10,VWS V14.01,2013-10-16 10:56:00,
2013-10-16 05:57:00,49.4,46.0,29.94,NNE,13,6.0,7.0,88,0.45,,SKC,0.84,VWS V14.01,2013-10-16 10:57:00,
2013-10-16 05:58:00,49.5,46.1,29.94,NNE,25,4.0,7.0,88,0.46,,SKC,0.85,VWS V14.01,2013-10-16 10:58:00,
2013-10-16 05:59:00,49.4,46.0,29.94,NNE,28,4.0,6.0,88,0.48,,SKC,0.87,VWS V14.01,2013-10-16 10:59:00,
2013-10-16 06:00:00,49.4,46.0,29.94,North,5,4.0,10.0,88,0.48,,SKC,0.88,VWS V14.01,2013-10-16 11:00:00,
2013-10-16 06:01:00,49.0,45.9,29.97,North,355,3.0,7.0,89,0.25,,SKC,1.12,VWS V14.01,2013-10-16 11:01:00,
2013-10-16 06:02:00,49.4,46.0,29.95,North,360,0.0,3.0,88,0.51,,SKC,0.91,VWS V14.01,2013-10-16 11:02:00,
2013-10-16 06:03:00,49.4,46.0,29.95,North,5,1.0,3.0,88,0.52,,SKC,0.93,VWS V14.01,2013-10-16 11:03:00,
2013-10-16 06:04:00,49.4,46.0,29.96,North,360,0.0,3.0,88,0.53,,SKC,0.94,VWS V14.01,2013-10-16 11:04:00,
2013-10-16 06:05:00,49.4,46.0,29.96,NNW,327,4.0,5.0,88,0.52,,SKC,0.94,VWS V14.01,2013-10-16 11:05:00,
2013-10-16 06:06:00,49.4,46.0,29.96,NNW,331,1.0,5.0,88,0.53,,SKC,0.95,VWS V14.01,2013-10-16 11:06:00,
2013-10-16 06:07:00,49.0,45.9,29.96,NNE,24,8.0,11.0,89,0.19,,SKC,1.13,VWS V14.01,2013-10-16 11:07:00,
2013-10-16 06:08:00,49.3,45.9,29.96,North,9,3.0,5.0,88,0.54,,SKC,0.97,VWS V14.01,2013-10-16 11:08:00,
2013-10-16 06:09:00,49.3,46.2,29.96,North,360,7.0,9.0,89,0.54,,SKC,0.97,VWS V14.01,2013-10-16 11:09:00,
2013-10-16 06:10:00,49.2,46.1,29.95,North,360,4.0,10.0,89,0.54,,SKC,0.97,VWS V14.01,2013-10-16 11:10:00,
2013-10-16 06:11:00,49.0,45.9,29.96,North,10,7.0,7.0,89,0.17,,SKC,1.14,VWS V14.01,2013-10-16 11:11:00,
2013-10-16 06:12:00,49.2,46.1,29.95,North,5,5.0,12.0,89,0.54,,SKC,0.98,VWS V14.01,2013-10-16 11:12:00,
2013-10-16 06:13:00,49.2,46.1,29.95,North,360,6.0,11.0,89,0.55,,SKC,0.99,VWS V14.01,2013-10-16 11:13:00,
2013-10-16 06:14:00,49.2,46.1,29.95,North,10,9.0,10.0,89,0.54,,SKC,0.99,VWS V14.01,2013-10-16 11:14:00,
2013-10-16 06:15:00,49.1,46.0,29.95,North,355,3.0,9.0,89,0.54,,SKC,0.99,VWS V14.01,2013-10-16 11:15:00,
2013-10-16 06:16:00,49.2,46.1,29.95,North,360,7.0,11.0,89,0.55,,SKC,1.00,VWS V14.01,2013-10-16 11:16:00,
2013-10-16 06:17:00,49.0,45.9,29.96,North,5,4.0,4.0,89,0.16,,SKC,1.15,VWS V14.01,2013-10-16 11:17:00,
2013-10-16 06:18:00,49.1,46.0,29.95,North,11,4.0,11.0,89,0.55,,SKC,1.01,VWS V14.01,2013-10-16 11:18:00,
2013-10-16 06:19:00,49.1,46.0,29.95,North,355,3.0,11.0,89,0.55,,SKC,1.01,VWS V14.01,2013-10-16 11:19:00,
2013-10-16 06:20:00,49.1,46.0,29.95,North,5,6.0,11.0,89,0.55,,SKC,1.01,VWS V14.01,2013-10-16 11:20:00,
2013-10-16 06:21:00,49.0,45.9,29.98,NNW,328,1.0,6.0,89,0.16,,SKC,1.17,VWS V14.01,2013-10-16 11:21:00,
2013-10-16 06:22:00,49.1,46.0,29.96,North,355,4.0,7.0,89,0.54,,SKC,1.02,VWS V14.01,2013-10-16 11:22:00,
2013-10-16 06:23:00,49.1,46.0,29.96,North,355,4.0,10.0,89,0.54,,SKC,1.02,VWS V14.01,2013-10-16 11:23:00,
2013-10-16 06:24:00,49.1,46.0,29.96,West,263,5.0,6.0,89,0.54,,SKC,1.03,VWS V14.01,2013-10-16 11:24:00,
2013-10-16 06:25:00,49.0,45.9,29.96,NNW,331,3.0,9.0,89,0.54,,SKC,1.03,VWS V14.01,2013-10-16 11:25:00,
2013-10-16 06:26:00,49.1,46.0,29.97,North,355,2.0,12.0,89,0.53,,SKC,1.03,VWS V14.01,2013-10-16 11:26:00,
2013-10-16 06:27:00,48.8,45.4,29.98,NNW,348,4.0,12.0,88,0.16,,SKC,1.19,VWS V14.01,2013-10-16 11:27:00,
2013-10-16 06:28:00,49.0,45.9,29.96,North,360,5.0,9.0,89,0.52,,SKC,1.04,VWS V14.01,2013-10-16 11:28:00,
2013-10-16 06:29:00,49.0,45.9,29.96,NNW,348,2.0,9.0,89,0.51,,SKC,1.04,VWS V14.01,2013-10-16 11:29:00,
2013-10-16 06:30:00,49.0,45.9,29.96,NNE,30,7.0,7.0,89,0.50,,SKC,1.04,VWS V14.01,2013-10-16 11:30:00,
2013-10-16 06:31:00,49.0,45.9,29.96,North,5,10.0,10.0,89,0.49,,SKC,1.04,VWS V14.01,2013-10-16 11:31:00,
2013-10-16 06:32:00,48.8,45.4,29.97,North,5,3.0,5.0,88,0.17,,SKC,1.21,VWS V14.01,2013-10-16 11:32:00,
2013-10-16 06:33:00,49.0,45.9,29.96,North,5,7.0,7.0,89,0.46,,SKC,1.04,VWS V14.01,2013-10-16 11:33:00,
2013-10-16 06:34:00,49.0,45.9,29.96,North,5,3.0,10.0,89,0.44,,SKC,1.04,VWS V14.01,2013-10-16 11:34:00,
2013-10-16 06:35:00,49.0,45.9,29.96,North,5,4.0,4.0,89,0.43,,SKC,1.05,VWS V14.01,2013-10-16 11:35:00,
2013-10-16 06:36:00,49.0,45.9,29.96,NNW,336,5.0,5.0,89,0.42,,SKC,1.05,VWS V14.01,2013-10-16 11:36:00,
2013-10-16 06:37:00,48.8,45.4,29.97,NNE,24,3.0,9.0,88,0.18,,SKC,1.22,VWS V14.01,2013-10-16 11:37:00,
2013-10-16 06:38:00,49.0,45.9,29.97,North,355,3.0,5.0,89,0.38,,SKC,1.05,VWS V14.01,2013-10-16 11:38:00,
2013-10-16 06:39:00,49.0,45.9,29.97,NNW,344,4.0,4.0,89,0.36,,SKC,1.05,VWS V14.01,2013-10-16 11:39:00,
2013-10-16 06:40:00,49.0,45.9,29.97,North,5,3.0,4.0,89,0.36,,SKC,1.06,VWS V14.01,2013-10-16 11:40:00,
2013-10-16 06:41:00,49.0,45.9,29.97,NNW,336,5.0,7.0,89,0.35,,SKC,1.06,VWS V14.01,2013-10-16 11:41:00,
2013-10-16 06:42:00,48.7,45.3,29.98,NNW,342,3.0,9.0,88,0.18,,SKC,1.23,VWS V14.01,2013-10-16 11:42:00,
2013-10-16 06:43:00,49.0,45.9,29.97,WNW,294,0.0,6.0,89,0.35,,SKC,1.07,VWS V14.01,2013-10-16 11:43:00,
2013-10-16 06:44:00,49.1,46.0,29.97,NNW,346,2.0,7.0,89,0.33,,SKC,1.07,VWS V14.01,2013-10-16 11:44:00,
2013-10-16 06:45:00,49.1,46.0,29.96,North,355,6.0,7.0,89,0.33,,SKC,1.08,VWS V14.01,2013-10-16 11:45:00,
2013-10-16 06:46:00,49.1,46.0,29.97,North,360,2.0,7.0,89,0.32,,SKC,1.08,VWS V14.01,2013-10-16 11:46:00,
2013-10-16 06:47:00,48.7,45.3,29.99,North,355,3.0,10.0,88,0.16,,SKC,1.23,VWS V14.01,2013-10-16 11:47:00,
2013-10-16 06:48:00,49.1,46.0,29.97,NNW,345,6.0,6.0,89,0.29,,SKC,1.08,VWS V14.01,2013-10-16 11:48:00,
2013-10-16 06:49:00,49.1,46.0,29.97,North,355,5.0,9.0,89,0.30,,SKC,1.09,VWS V14.01,2013-10-16 11:49:00,
2013-10-16 06:50:00,49.1,46.0,29.97,North,355,1.0,5.0,89,0.29,,SKC,1.09,VWS V14.01,2013-10-16 11:50:00,
2013-10-16 06:51:00,49.1,46.0,29.97,NNW,348,1.0,7.0,89,0.28,,SKC,1.09,VWS V14.01,2013-10-16 11:51:00,
2013-10-16 06:52:00,48.7,45.3,29.99,North,5,5.0,9.0,88,0.14,,SKC,1.23,VWS V14.01,2013-10-16 11:52:00,
2013-10-16 06:53:00,49.1,46.0,29.97,North,5,1.0,6.0,89,0.28,,SKC,1.10,VWS V14.01,2013-10-16 11:53:00,
2013-10-16 06:54:00,49.1,46.0,29.97,WNW,296,3.0,6.0,89,0.28,,SKC,1.10,VWS V14.01,2013-10-16 11:54:00,
2013-10-16 06:55:00,49.1,46.0,29.97,North,355,5.0,6.0,89,0.27,,SKC,1.10,VWS V14.01,2013-10-16 11:55:00,
2013-10-16 06:56:00,49.1,46.0,29.97,NNE,15,6.0,7.0,89,0.28,,SKC,1.11,VWS V14.01,2013-10-16 11:56:00,
2013-10-16 06:57:00,48.7,45.3,29.99,North,5,6.0,12.0,88,0.14,,SKC,1.24,VWS V14.01,2013-10-16 11:57:00,
2013-10-16 06:58:00,49.1,46.0,29.97,North,349,4.0,6.0,89,0.27,,SKC,1.11,VWS V14.01,2013-10-16 11:58:00,
2013-10-16 06:59:00,49.0,45.9,29.97,NNW,346,5.0,7.0,89,0.27,,SKC,1.12,VWS V14.01,2013-10-16 11:59:00,
2013-10-16 07:00:00,49.0,45.9,29.97,North,5,7.0,8.0,89,0.25,,SKC,1.12,VWS V14.01,2013-10-16 12:00:00,
2013-10-16 07:01:00,49.0,45.9,29.97,North,360,6.0,6.0,89,0.24,,SKC,1.12,VWS V14.01,2013-10-16 12:01:00,
2013-10-16 07:02:00,48.6,45.2,30.00,NNW,346,4.0,6.0,88,0.13,,SKC,1.25,VWS V14.01,2013-10-16 12:02:00,
2013-10-16 07:03:00,49.0,45.9,29.97,North,355,7.0,7.0,89,0.21,,SKC,1.12,VWS V14.01,2013-10-16 12:03:00,
2013-10-16 07:04:00,49.0,45.9,29.97,North,360,6.0,8.0,89,0.20,,SKC,1.13,VWS V14.01,2013-10-16 12:04:00,
2013-10-16 07:05:00,49.0,45.9,29.96,North,9,6.0,11.0,89,0.19,,SKC,1.13,VWS V14.01,2013-10-16 12:05:00,
2013-10-16 07:06:00,49.0,45.9,29.96,North,360,5.0,9.0,89,0.19,,SKC,1.13,VWS V14.01,2013-10-16 12:06:00,
2013-10-16 07:07:00,48.6,45.2,30.00,NNW,340,3.0,12.0,88,0.12,,SKC,1.25,VWS V14.01,2013-10-16 12:07:00,
2013-10-16 07:08:00,49.0,45.9,29.96,NNW,346,4.0,6.0,89,0.18,,SKC,1.14,VWS V14.01,2013-10-16 12:08:00,
2013-10-16 07:09:00,49.0,45.9,29.96,NNE,15,1.0,5.0,89,0.17,,SKC,1.14,VWS V14.01,2013-10-16 12:09:00,
2013-10-16 07:10:00,49.0,45.9,29.96,North,9,5.0,7.0,89,0.17,,SKC,1.14,VWS V14.01,2013-10-16 12:10:00,
2013-10-16 07:11:00,49.0,45.9,29.96,North,360,3.0,5.0,89,0.17,,SKC,1.14,VWS V14.01,2013-10-16 12:11:00,
2013-10-16 07:12:00,48.6,45.2,30.00,North,11,5.0,10.0,88,0.11,,SKC,1.25,VWS V14.01,2013-10-16 12:12:00,
2013-10-16 07:13:00,49.0,45.9,29.96,North,5,3.0,6.0,89,0.17,,SKC,1.15,VWS V14.01,2013-10-16 12:13:00,
2013-10-16 07:14:00,49.0,45.9,29.96,North,5,3.0,7.0,89,0.16,,SKC,1.15,VWS V14.01,2013-10-16 12:14:00,
2013-10-16 07:15:00,49.0,45.9,29.96,North,355,5.0,5.0,89,0.16,,SKC,1.15,VWS V14.01,2013-10-16 12:15:00,
2013-10-16 07:16:00,49.0,45.9,29.96,North,355,4.0,5.0,89,0.16,,SKC,1.15,VWS V14.01,2013-10-16 12:16:00,
2013-10-16 07:17:00,48.7,45.3,30.00,North,350,4.0,8.0,88,0.10,,SKC,1.25,VWS V14.01,2013-10-16 12:17:00,
2013-10-16 07:18:00,49.0,45.9,29.97,NNW,330,1.0,9.0,89,0.16,,SKC,1.16,VWS V14.01,2013-10-16 12:18:00,
2013-10-16 07:19:00,49.0,45.9,29.97,NW,320,3.0,8.0,89,0.15,,SKC,1.16,VWS V14.01,2013-10-16 12:19:00,
2013-10-16 07:20:00,49.0,45.9,29.98,NNW,329,3.0,6.0,89,0.16,,SKC,1.17,VWS V14.01,2013-10-16 12:20:00,
2013-10-16 07:21:00,49.0,45.9,29.98,NW,321,3.0,7.0,89,0.16,,SKC,1.17,VWS V14.01,2013-10-16 12:21:00,
2013-10-16 07:22:00,48.7,45.3,30.00,North,349,6.0,11.0,88,0.09,,SKC,1.25,VWS V14.01,2013-10-16 12:22:00,
2013-10-16 07:23:00,48.9,45.5,29.98,North,351,7.0,7.0,88,0.16,,SKC,1.18,VWS V14.01,2013-10-16 12:23:00,
2013-10-16 07:24:00,48.8,45.4,29.98,WNW,284,11.0,11.0,88,0.17,,SKC,1.19,VWS V14.01,2013-10-16 12:24:00,
2013-10-16 07:25:00,48.8,45.4,29.98,NNW,348,3.0,12.0,88,0.16,,SKC,1.19,VWS V14.01,2013-10-16 12:25:00,
2013-10-16 07:26:00,48.8,45.4,29.98,NNE,13,6.0,7.0,88,0.16,,SKC,1.19,VWS V14.01,2013-10-16 12:26:00,
2013-10-16 07:27:00,48.7,45.3,30.00,North,350,6.0,8.0,88,0.07,,SKC,1.26,VWS V14.01,2013-10-16 12:27:00,
2013-10-16 07:28:00,48.8,45.4,29.97,North,355,4.0,6.0,88,0.17,,SKC,1.20,VWS V14.01,2013-10-16 12:28:00,
2013-10-16 07:29:00,48.8,45.4,29.97,North,355,4.0,10.0,88,0.17,,SKC,1.21,VWS V14.01,2013-10-16 12:29:00,
2013-10-16 07:30:00,48.8,45.4,29.97,North,5,6.0,7.0,88,0.17,,SKC,1.21,VWS V14.01,2013-10-16 12:30:00,
2013-10-16 07:31:00,48.8,45.4,29.97,North,360,2.0,7.0,88,0.17,,SKC,1.21,VWS V14.01,2013-10-16 12:31:00,
2013-10-16 07:32:00,48.7,45.3,29.99,NNE,19,4.0,6.0,88,0.05,,SKC,1.26,VWS V14.01,2013-10-16 12:32:00,
2013-10-16 07:33:00,48.8,45.4,29.98,North,10,7.0,7.0,88,0.18,,SKC,1.22,VWS V14.01,2013-10-16 12:33:00,
2013-10-16 07:34:00,48.8,45.4,29.98,North,351,9.0,11.0,88,0.18,,SKC,1.22,VWS V14.01,2013-10-16 12:34:00,
2013-10-16 07:35:00,48.8,45.4,29.97,NNE,32,7.0,9.0,88,0.18,,SKC,1.22,VWS V14.01,2013-10-16 12:35:00,
2013-10-16 07:36:00,48.7,45.3,29.97,North,5,3.0,7.0,88,0.17,,SKC,1.22,VWS V14.01,2013-10-16 12:36:00,
2013-10-16 07:37:00,48.7,45.3,30.00,NNW,341,4.0,5.0,88,0.05,,SKC,1.27,VWS V14.01,2013-10-16 12:37:00,
2013-10-16 07:38:00,48.7,45.3,29.97,North,360,2.0,9.0,88,0.17,,SKC,1.22,VWS V14.01,2013-10-16 12:38:00,
2013-10-16 07:39:00,48.7,45.3,29.98,NNE,14,4.0,7.0,88,0.17,,SKC,1.22,VWS V14.01,2013-10-16 12:39:00,
2013-10-16 07:40:00,48.7,45.3,29.98,NNW,342,2.0,9.0,88,0.18,,SKC,1.23,VWS V14.01,2013-10-16 12:40:00,
2013-10-16 07:41:00,48.7,45.3,29.98,North,360,3.0,5.0,88,0.17,,SKC,1.23,VWS V14.01,2013-10-16 12:41:00,
2013-10-16 07:42:00,48.8,45.4,30.00,North,355,5.0,9.0,88,0.05,,SKC,1.27,VWS V14.01,2013-10-16 12:42:00,
2013-10-16 07:43:00,48.7,45.3,29.98,North,355,5.0,6.0,88,0.16,,SKC,1.23,VWS V14.01,2013-10-16 12:43:00,
2013-10-16 07:46:00,48.7,45.3,29.99,North,355,1.0,5.0,88,0.15,,SKC,1.23,VWS V14.01,2013-10-16 12:46:00,
2013-10-16 07:47:00,48.6,45.2,30.01,North,349,4.0,10.0,88,0.04,,SKC,1.27,VWS V14.01,2013-10-16 12:47:00,
2013-10-16 07:48:00,48.8,45.4,29.99,NNE,16,6.0,6.0,88,0.15,,SKC,1.23,VWS V14.01,2013-10-16 12:48:00,
2013-10-16 07:49:00,48.8,45.4,29.99,NW,313,7.0,12.0,88,0.15,,SKC,1.23,VWS V14.01,2013-10-16 12:49:00,
2013-10-16 07:50:00,48.8,45.4,29.99,North,5,3.0,9.0,88,0.14,,SKC,1.23,VWS V14.01,2013-10-16 12:50:00,
2013-10-16 07:51:00,48.7,45.3,29.99,NNW,347,10.0,10.0,88,0.14,,SKC,1.23,VWS V14.01,2013-10-16 12:51:00,
2013-10-16 07:52:00,48.6,45.2,30.01,NNE,15,6.0,6.0,88,0.04,,SKC,1.27,VWS V14.01,2013-10-16 12:52:00,
2013-10-16 07:53:00,48.7,45.3,29.99,NNW,345,3.0,10.0,88,0.14,,SKC,1.23,VWS V14.01,2013-10-16 12:53:00,
2013-10-16 07:54:00,48.7,45.3,29.99,NW,306,5.0,9.0,88,0.14,,SKC,1.24,VWS V14.01,2013-10-16 12:54:00,
2013-10-16 07:55:00,48.7,45.3,29.99,North,355,5.0,12.0,88,0.14,,SKC,1.24,VWS V14.01,2013-10-16 12:55:00,
2013-10-16 07:56:00,48.7,45.3,30.00,NNW,336,8.0,8.0,88,0.14,,SKC,1.24,VWS V14.01,2013-10-16 12:56:00,
2013-10-16 07:57:00,48.6,45.2,30.01,North,355,5.0,10.0,88,0.03,,SKC,1.27,VWS V14.01,2013-10-16 12:57:00,
2013-10-16 07:58:00,48.7,45.3,30.00,NNW,346,7.0,10.0,88,0.14,,SKC,1.25,VWS V14.01,2013-10-16 12:58:00,
2013-10-16 07:59:00,48.7,45.3,30.00,North,355,6.0,11.0,88,0.14,,SKC,1.25,VWS V14.01,2013-10-16 12:59:00,
2013-10-16 08:00:00,48.6,45.2,30.00,NNW,346,3.0,6.0,88,0.13,,SKC,1.25,VWS V14.01,2013-10-16 13:00:00,
2013-10-16 08:01:00,48.6,45.2,30.00,North,350,4.0,4.0,88,0.13,,SKC,1.25,VWS V14.01,2013-10-16 13:01:00,
2013-10-16 08:02:00,48.6,45.2,30.01,NNW,340,6.0,10.0,88,0.02,,SKC,1.27,VWS V14.01,2013-10-16 13:02:00,
2013-10-16 08:03:00,48.6,45.2,30.00,NNW,345,6.0,6.0,88,0.13,,SKC,1.25,VWS V14.01,2013-10-16 13:03:00,
2013-10-16 08:04:00,48.6,45.2,30.00,North,10,12.0,12.0,88,0.13,,SKC,1.25,VWS V14.01,2013-10-16 13:04:00,
2013-10-16 08:05:00,48.6,45.2,30.00,NNW,340,3.0,12.0,88,0.12,,SKC,1.25,VWS V14.01,2013-10-16 13:05:00,
2013-10-16 08:06:00,48.6,45.2,30.00,NNW,338,7.0,7.0,88,0.12,,SKC,1.25,VWS V14.01,2013-10-16 13:06:00,
2013-10-16 08:07:00,48.6,45.2,30.01,North,10,6.0,9.0,88,0.02,,SKC,1.27,VWS V14.01,2013-10-16 13:07:00,
2013-10-16 08:08:00,48.6,45.2,30.00,North,355,2.0,9.0,88,0.11,,SKC,1.25,VWS V14.01,2013-10-16 13:08:00,
2013-10-16 08:09:00,48.6,45.2,30.00,North,5,3.0,10.0,88,0.11,,SKC,1.25,VWS V14.01,2013-10-16 13:09:00,
2013-10-16 08:10:00,48.6,45.2,30.00,North,11,5.0,10.0,88,0.11,,SKC,1.25,VWS V14.01,2013-10-16 13:10:00,
2013-10-16 08:11:00,48.7,45.3,30.00,NNE,31,9.0,10.0,88,0.11,,SKC,1.25,VWS V14.01,2013-10-16 13:11:00,
2013-10-16 08:12:00,48.6,45.2,30.02,North,360,7.0,12.0,88,0.02,,SKC,1.27,VWS V14.01,2013-10-16 13:12:00,
2013-10-16 08:13:00,48.7,45.3,30.00,NE,45,10.0,10.0,88,0.11,,SKC,1.25,VWS V14.01,2013-10-16 13:13:00,
2013-10-16 08:14:00,48.7,45.3,30.00,NNW,345,8.0,10.0,88,0.10,,SKC,1.25,VWS V14.01,2013-10-16 13:14:00,
2013-10-16 08:15:00,48.7,45.3,30.00,North,350,5.0,8.0,88,0.10,,SKC,1.25,VWS V14.01,2013-10-16 13:15:00,
2013-10-16 08:16:00,48.7,45.3,30.00,North,360,9.0,10.0,88,0.10,,SKC,1.25,VWS V14.01,2013-10-16 13:16:00,
2013-10-16 08:17:00,48.6,45.5,30.03,NNW,346,2.0,7.0,89,0.02,,SKC,1.27,VWS V14.01,2013-10-16 13:17:00,
2013-10-16 08:18:00,48.7,45.3,30.00,NNE,24,10.0,11.0,88,0.10,,SKC,1.25,VWS V14.01,2013-10-16 13:18:00,
2013-10-16 08:19:00,48.7,45.3,30.00,NW,326,5.0,10.0,88,0.09,,SKC,1.25,VWS V14.01,2013-10-16 13:19:00,
2013-10-16 08:20:00,48.7,45.3,30.00,NNE,17,7.0,11.0,88,0.09,,SKC,1.25,VWS V14.01,2013-10-16 13:20:00,
2013-10-16 08:21:00,48.7,45.3,30.00,North,5,6.0,10.0,88,0.09,,SKC,1.26,VWS V14.01,2013-10-16 13:21:00,
2013-10-16 08:22:00,48.6,45.2,30.03,NW,324,2.0,8.0,88,0.03,,SKC,1.28,VWS V14.01,2013-10-16 13:22:00,
2013-10-16 08:23:00,48.7,45.3,30.00,North,5,2.0,4.0,88,0.08,,SKC,1.26,VWS V14.01,2013-10-16 13:23:00,
2013-10-16 08:24:00,48.7,45.3,30.00,NNW,342,2.0,11.0,88,0.08,,SKC,1.26,VWS V14.01,2013-10-16 13:24:00,
2013-10-16 08:25:00,48.7,45.3,30.00,North,355,4.0,8.0,88,0.07,,SKC,1.26,VWS V14.01,2013-10-16 13:25:00,
2013-10-16 08:26:00,48.7,45.3,30.00,North,355,3.0,6.0,88,0.07,,SKC,1.26,VWS V14.01,2013-10-16 13:26:00,
2013-10-16 08:27:00,48.7,45.3,30.03,North,351,2.0,9.0,88,0.02,,SKC,1.28,VWS V14.01,2013-10-16 13:27:00,
2013-10-16 08:28:00,48.7,45.3,30.00,NNE,13,7.0,9.0,88,0.06,,SKC,1.26,VWS V14.01,2013-10-16 13:28:00,
2013-10-16 08:29:00,48.7,45.3,30.00,North,360,5.0,8.0,88,0.06,,SKC,1.26,VWS V14.01,2013-10-16 13:29:00,
2013-10-16 08:30:00,48.7,45.3,29.99,North,11,4.0,6.0,88,0.05,,SKC,1.26,VWS V14.01,2013-10-16 13:30:00,
2013-10-16 08:31:00,48.7,45.3,29.99,NNE,19,6.0,9.0,88,0.06,,SKC,1.27,VWS V14.01,2013-10-16 13:31:00,
2013-10-16 08:32:00,48.7,45.3,30.02,NW,320,2.0,6.0,88,0.03,,SKC,1.29,VWS V14.01,2013-10-16 13:32:00,
2013-10-16 08:33:00,48.7,45.3,29.99,North,360,5.0,9.0,88,0.06,,SKC,1.27,VWS V14.01,2013-10-16 13:33:00,
2013-10-16 08:34:00,48.7,45.3,29.99,North,355,2.0,6.0,88,0.05,,SKC,1.27,VWS V14.01,2013-10-16 13:34:00,
2013-10-16 08:35:00,48.7,45.3,30.00,NNW,341,4.0,5.0,88,0.05,,SKC,1.27,VWS V14.01,2013-10-16 13:35:00,
2013-10-16 08:36:00,48.8,45.4,30.00,NNE,13,6.0,7.0,88,0.05,,SKC,1.27,VWS V14.01,2013-10-16 13:36:00,
2013-10-16 08:37:00,48.8,45.4,30.03,WNW,300,3.0,10.0,88,0.02,,SKC,1.29,VWS V14.01,2013-10-16 13:37:00,
2013-10-16 08:38:00,48.8,45.4,30.00,North,360,8.0,8.0,88,0.05,,SKC,1.27,VWS V14.01,2013-10-16 13:38:00,
2013-10-16 08:39:00,48.8,45.4,30.00,North,5,2.0,9.0,88,0.05,,SKC,1.27,VWS V14.01,2013-10-16 13:39:00,
2013-10-16 08:40:00,48.7,45.3,30.00,NNW,342,12.0,12.0,88,0.05,,SKC,1.27,VWS V14.01,2013-10-16 13:40:00,
2013-10-16 08:41:00,48.7,45.3,30.00,North,360,6.0,12.0,88,0.04,,SKC,1.27,VWS V14.01,2013-10-16 13:41:00,
2013-10-16 08:42:00,48.8,45.4,30.03,North,11,8.0,9.0,88,0.03,,SKC,1.30,VWS V14.01,2013-10-16 13:42:00,
2013-10-16 08:43:00,48.7,45.3,30.00,North,355,1.0,6.0,88,0.04,,SKC,1.27,VWS V14.01,2013-10-16 13:43:00,
2013-10-16 08:44:00,48.7,45.3,30.01,North,355,6.0,9.0,88,0.04,,SKC,1.27,VWS V14.01,2013-10-16 13:44:00,
2013-10-16 08:45:00,48.6,45.2,30.01,North,349,4.0,10.0,88,0.04,,SKC,1.27,VWS V14.01,2013-10-16 13:45:00,
2013-10-16 08:46:00,48.6,45.2,30.01,North,355,3.0,8.0,88,0.04,,SKC,1.27,VWS V14.01,2013-10-16 13:46:00,
2013-10-16 08:47:00,48.9,45.8,30.02,NNW,348,5.0,10.0,89,0.03,,SKC,1.30,VWS V14.01,2013-10-16 13:47:00,
2013-10-16 08:48:00,48.6,45.2,30.01,NNW,340,4.0,6.0,88,0.04,,SKC,1.27,VWS V14.01,2013-10-16 13:48:00,
2013-10-16 08:49:00,48.6,45.2,30.01,NNW,338,2.0,6.0,88,0.04,,SKC,1.27,VWS V14.01,2013-10-16 13:49:00,
2013-10-16 08:50:00,48.6,45.2,30.01,NNE,15,6.0,6.0,88,0.04,,SKC,1.27,VWS V14.01,2013-10-16 13:50:00,
2013-10-16 08:51:00,48.6,45.2,30.01,North,355,3.0,9.0,88,0.04,,SKC,1.27,VWS V14.01,2013-10-16 13:51:00,
2013-10-16 08:52:00,49.1,45.7,30.03,North,9,7.0,10.0,88,0.03,,SKC,1.30,VWS V14.01,2013-10-16 13:52:00,
2013-10-16 08:53:00,48.6,45.2,30.01,NNW,346,5.0,12.0,88,0.04,,SKC,1.27,VWS V14.01,2013-10-16 13:53:00,
2013-10-16 08:54:00,48.6,45.2,30.01,North,355,9.0,12.0,88,0.04,,SKC,1.27,VWS V14.01,2013-10-16 13:54:00,
2013-10-16 08:55:00,48.6,45.2,30.01,North,355,5.0,10.0,88,0.03,,SKC,1.27,VWS V14.01,2013-10-16 13:55:00,
2013-10-16 08:56:00,48.6,45.2,30.01,NNE,15,11.0,11.0,88,0.03,,SKC,1.27,VWS V14.01,2013-10-16 13:56:00,
2013-10-16 08:57:00,49.2,45.8,30.03,North,10,7.0,7.0,88,0.03,,SKC,1.30,VWS V14.01,2013-10-16 13:57:00,
2013-10-16 08:58:00,48.6,45.2,30.01,North,360,7.0,9.0,88,0.03,,SKC,1.27,VWS V14.01,2013-10-16 13:58:00,
2013-10-16 08:59:00,48.6,45.2,30.01,North,10,4.0,11.0,88,0.02,,SKC,1.27,VWS V14.01,2013-10-16 13:59:00,
2013-10-16 09:00:00,48.6,45.2,30.01,NNW,340,6.0,10.0,88,0.02,,SKC,1.27,VWS V14.01,2013-10-16 14:00:00,
2013-10-16 09:01:00,48.6,45.2,30.02,North,360,6.0,13.0,88,0.02,,SKC,1.27,VWS V14.01,2013-10-16 14:01:00,
2013-10-16 09:02:00,49.3,45.9,30.03,North,360,7.0,8.0,88,0.03,,SKC,1.30,VWS V14.01,2013-10-16 14:02:00,
2013-10-16 09:03:00,48.6,45.2,30.02,North,355,9.0,10.0,88,0.02,,SKC,1.27,VWS V14.01,2013-10-16 14:03:00,
2013-10-16 09:04:00,48.6,45.2,30.02,NNW,348,4.0,9.0,88,0.02,,SKC,1.27,VWS V14.01,2013-10-16 14:04:00,
2013-10-16 09:05:00,48.6,45.2,30.01,North,10,6.0,9.0,88,0.02,,SKC,1.27,VWS V14.01,2013-10-16 14:05:00,
2013-10-16 09:06:00,48.6,45.2,30.01,NNW,330,3.0,10.0,88,0.02,,SKC,1.27,VWS V14.01,2013-10-16 14:06:00,
2013-10-16 09:07:00,49.4,46.0,30.04,NNE,14,5.0,11.0,88,0.03,,SKC,1.30,VWS V14.01,2013-10-16 14:07:00,
2013-10-16 09:08:00,48.6,45.2,30.02,NNW,329,5.0,11.0,88,0.02,,SKC,1.27,VWS V14.01,2013-10-16 14:08:00,
2013-10-16 09:09:00,48.6,45.2,30.02,North,350,6.0,11.0,88,0.02,,SKC,1.27,VWS V14.01,2013-10-16 14:09:00,
2013-10-16 09:10:00,48.6,45.2,30.02,North,360,7.0,12.0,88,0.02,,SKC,1.27,VWS V14.01,2013-10-16 14:10:00,
2013-10-16 09:11:00,48.6,45.2,30.02,NNE,14,3.0,7.0,88,0.02,,SKC,1.27,VWS V14.01,2013-10-16 14:11:00,
2013-10-16 09:12:00,49.5,46.1,30.04,North,360,7.0,9.0,88,0.03,,SKC,1.30,VWS V14.01,2013-10-16 14:12:00,
2013-10-16 09:13:00,48.6,45.2,30.02,NNW,333,7.0,9.0,88,0.02,,SKC,1.27,VWS V14.01,2013-10-16 14:13:00,
2013-10-16 09:14:00,48.6,45.2,30.02,NNW,333,2.0,6.0,88,0.02,,SKC,1.27,VWS V14.01,2013-10-16 14:14:00,
2013-10-16 09:15:00,48.6,45.5,30.03,NNW,346,2.0,7.0,89,0.02,,SKC,1.27,VWS V14.01,2013-10-16 14:15:00,
2013-10-16 09:16:00,48.6,45.2,30.03,NNE,22,5.0,6.0,88,0.02,,SKC,1.27,VWS V14.01,2013-10-16 14:16:00,
2013-10-16 09:17:00,49.6,46.2,30.04,North,360,2.0,6.0,88,0.03,,SKC,1.30,VWS V14.01,2013-10-16 14:17:00,
2013-10-16 09:18:00,48.6,45.2,30.03,NNW,337,4.0,9.0,88,0.03,,SKC,1.28,VWS V14.01,2013-10-16 14:18:00,
2013-10-16 09:19:00,48.6,45.2,30.03,North,5,8.0,9.0,88,0.03,,SKC,1.28,VWS V14.01,2013-10-16 14:19:00,
2013-10-16 09:20:00,48.6,45.2,30.03,NW,324,2.0,8.0,88,0.03,,SKC,1.28,VWS V14.01,2013-10-16 14:20:00,
2013-10-16 09:21:00,48.6,45.2,30.03,North,355,3.0,9.0,88,0.03,,SKC,1.28,VWS V14.01,2013-10-16 14:21:00,
2013-10-16 09:22:00,49.7,46.3,30.04,NNW,345,5.0,5.0,88,0.02,,SKC,1.30,VWS V14.01,2013-10-16 14:22:00,
2013-10-16 09:23:00,48.6,45.2,30.03,NNW,344,2.0,5.0,88,0.02,,SKC,1.28,VWS V14.01,2013-10-16 14:23:00,
2013-10-16 09:24:00,48.7,45.3,30.03,North,360,4.0,6.0,88,0.02,,SKC,1.28,VWS V14.01,2013-10-16 14:24:00,
2013-10-16 09:25:00,48.7,45.3,30.03,North,351,2.0,9.0,88,0.02,,SKC,1.28,VWS V14.01,2013-10-16 14:25:00,
2013-10-16 09:26:00,48.7,45.3,30.03,North,5,8.0,10.0,88,0.02,,SKC,1.28,VWS V14.01,2013-10-16 14:26:00,
2013-10-16 09:27:00,49.6,46.2,30.04,NNE,16,10.0,14.0,88,0.02,,SKC,1.30,VWS V14.01,2013-10-16 14:27:00,
2013-10-16 09:28:00,48.7,45.3,30.02,NNE,17,11.0,11.0,88,0.03,,SKC,1.29,VWS V14.01,2013-10-16 14:28:00,
2013-10-16 09:29:00,48.7,45.3,30.02,NNW,336,4.0,11.0,88,0.03,,SKC,1.29,VWS V14.01,2013-10-16 14:29:00,
2013-10-16 09:30:00,48.7,45.3,30.02,NW,319,2.0,6.0,88,0.03,,SKC,1.29,VWS V14.01,2013-10-16 14:30:00,
2013-10-16 09:31:00,48.7,45.3,30.02,North,360,11.0,11.0,88,0.03,,SKC,1.29,VWS V14.01,2013-10-16 14:31:00,
2013-10-16 09:32:00,49.7,46.3,30.04,North,350,5.0,10.0,88,0.01,,SKC,1.30,VWS V14.01,2013-10-16 14:32:00,
2013-10-16 09:33:00,48.8,45.4,30.03,North,360,6.0,10.0,88,0.02,,SKC,1.29,VWS V14.01,2013-10-16 14:33:00,
2013-10-16 09:34:00,48.8,45.4,30.03,North,360,9.0,9.0,88,0.02,,SKC,1.29,VWS V14.01,2013-10-16 14:34:00,
2013-10-16 09:35:00,48.8,45.4,30.03,WNW,300,1.0,10.0,88,0.02,,SKC,1.29,VWS V14.01,2013-10-16 14:35:00,
2013-10-16 09:36:00,48.8,45.4,30.03,North,9,8.0,9.0,88,0.02,,SKC,1.29,VWS V14.01,2013-10-16 14:36:00,
2013-10-16 09:37:00,49.9,46.5,30.04,NNW,333,4.0,6.0,88,0.01,,SKC,1.30,VWS V14.01,2013-10-16 14:37:00,
2013-10-16 09:38:00,48.8,45.4,30.03,North,5,4.0,7.0,88,0.03,,SKC,1.30,VWS V14.01,2013-10-16 14:38:00,
2013-10-16 09:39:00,48.8,45.4,30.03,North,355,9.0,9.0,88,0.03,,SKC,1.30,VWS V14.01,2013-10-16 14:39:00,
2013-10-16 09:40:00,48.8,45.4,30.03,North,10,7.0,9.0,88,0.03,,SKC,1.30,VWS V14.01,2013-10-16 14:40:00,
2013-10-16 09:41:00,48.8,45.4,30.03,NNE,13,6.0,9.0,88,0.03,,SKC,1.30,VWS V14.01,2013-10-16 14:41:00,
2013-10-16 09:42:00,49.9,46.5,30.04,North,5,5.0,12.0,88,0.00,,SKC,1.30,VWS V14.01,2013-10-16 14:42:00,
2013-10-16 09:43:00,48.9,45.5,30.02,North,5,5.0,10.0,88,0.03,,SKC,1.30,VWS V14.01,2013-10-16 14:43:00,
2013-10-16 09:44:00,48.9,45.8,30.02,NNE,19,7.0,11.0,89,0.03,,SKC,1.30,VWS V14.01,2013-10-16 14:44:00,
2013-10-16 09:45:00,48.9,45.8,30.02,North,350,3.0,10.0,89,0.03,,SKC,1.30,VWS V14.01,2013-10-16 14:45:00,
2013-10-16 09:46:00,49.0,45.9,30.02,North,355,4.0,7.0,89,0.03,,SKC,1.30,VWS V14.01,2013-10-16 14:46:00,
2013-10-16 09:47:00,49.9,46.5,30.05,NNE,13,4.0,7.0,88,0.00,,SKC,1.30,VWS V14.01,2013-10-16 14:47:00,
2013-10-16 09:48:00,49.0,45.6,30.03,North,360,4.0,12.0,88,0.03,,SKC,1.30,VWS V14.01,2013-10-16 14:48:00,
2013-10-16 09:49:00,49.1,45.7,30.03,NNW,335,6.0,7.0,88,0.03,,SKC,1.30,VWS V14.01,2013-10-16 14:49:00,
2013-10-16 09:50:00,49.1,45.7,30.03,North,9,8.0,10.0,88,0.03,,SKC,1.30,VWS V14.01,2013-10-16 14:50:00,
2013-10-16 09:51:00,49.1,45.7,30.03,NNW,339,2.0,8.0,88,0.03,,SKC,1.30,VWS V14.01,2013-10-16 14:51:00,
2013-10-16 09:52:00,50.0,46.6,30.04,NNE,19,6.0,10.0,88,0.00,,SKC,1.30,VWS V14.01,2013-10-16 14:52:00,
2013-10-16 09:53:00,49.2,45.8,30.03,NNW,333,4.0,9.0,88,0.03,,SKC,1.30,VWS V14.01,2013-10-16 14:53:00,
2013-10-16 09:54:00,49.2,45.8,30.03,NNE,22,4.0,7.0,88,0.03,,SKC,1.30,VWS V14.01,2013-10-16 14:54:00,
2013-10-16 09:55:00,49.2,45.8,30.03,North,10,7.0,7.0,88,0.03,,SKC,1.30,VWS V14.01,2013-10-16 14:55:00,
2013-10-16 09:56:00,49.2,45.8,30.03,NNE,16,5.0,7.0,88,0.03,,SKC,1.30,VWS V14.01,2013-10-16 14:56:00,
2013-10-16 09:57:00,50.1,46.7,30.05,North,360,2.0,7.0,88,0.00,,SKC,1.30,VWS V14.01,2013-10-16 14:57:00,
2013-10-16 09:58:00,49.3,45.9,30.03,NNE,19,5.0,5.0,88,0.03,,SKC,1.30,VWS V14.01,2013-10-16 14:58:00,
2013-10-16 09:59:00,49.3,45.9,30.03,NNE,12,2.0,9.0,88,0.03,,SKC,1.30,VWS V14.01,2013-10-16 14:59:00,
2013-10-16 10:00:00,49.3,45.9,30.03,NNE,15,6.0,8.0,88,0.03,,SKC,1.30,VWS V14.01,2013-10-16 15:00:00,
2013-10-16 10:01:00,49.3,45.9,30.03,NNE,13,5.0,9.0,88,0.03,,SKC,1.30,VWS V14.01,2013-10-16 15:01:00,
2013-10-16 10:02:00,50.3,46.9,30.05,North,351,2.0,4.0,88,0.00,,SKC,1.30,VWS V14.01,2013-10-16 15:02:00,
2013-10-16 10:03:00,49.4,46.0,30.04,North,360,4.0,6.0,88,0.03,,SKC,1.30,VWS V14.01,2013-10-16 15:03:00,
2013-10-16 10:04:00,49.4,46.0,30.03,North,360,10.0,10.0,88,0.03,,SKC,1.30,VWS V14.01,2013-10-16 15:04:00,
2013-10-16 10:05:00,49.4,46.0,30.04,NNE,14,5.0,11.0,88,0.03,,SKC,1.30,VWS V14.01,2013-10-16 15:05:00,
2013-10-16 10:06:00,49.4,46.0,30.03,NNE,15,4.0,10.0,88,0.03,,SKC,1.30,VWS V14.01,2013-10-16 15:06:00,
2013-10-16 10:07:00,50.3,46.9,30.05,North,355,7.0,11.0,88,0.00,,SKC,1.30,VWS V14.01,2013-10-16 15:07:00,
2013-10-16 10:08:00,49.4,46.0,30.03,North,9,2.0,5.0,88,0.03,,SKC,1.30,VWS V14.01,2013-10-16 15:08:00,
2013-10-16 10:09:00,49.5,46.1,30.04,North,355,5.0,6.0,88,0.03,,SKC,1.30,VWS V14.01,2013-10-16 15:09:00,
2013-10-16 10:10:00,49.5,46.1,30.04,North,360,7.0,9.0,88,0.03,,SKC,1.30,VWS V14.01,2013-10-16 15:10:00,
2013-10-16 10:11:00,49.5,46.1,30.03,North,11,4.0,15.0,88,0.03,,SKC,1.30,VWS V14.01,2013-10-16 15:11:00,
2013-10-16 10:12:00,50.3,46.9,30.05,North,355,2.0,7.0,88,0.00,,SKC,1.30,VWS V14.01,2013-10-16 15:12:00,
2013-10-16 10:13:00,49.6,46.2,30.03,North,11,4.0,6.0,88,0.03,,SKC,1.30,VWS V14.01,2013-10-16 15:13:00,
2013-10-16 10:14:00,49.6,46.2,30.04,North,350,6.0,9.0,88,0.03,,SKC,1.30,VWS V14.01,2013-10-16 15:14:00,
2013-10-16 10:15:00,49.6,46.2,30.04,North,360,2.0,6.0,88,0.03,,SKC,1.30,VWS V14.01,2013-10-16 15:15:00,
2013-10-16 10:16:00,49.6,46.2,30.04,NW,323,4.0,6.0,88,0.03,,SKC,1.30,VWS V14.01,2013-10-16 15:16:00,
2013-10-16 10:17:00,50.3,46.9,30.05,NNW,336,5.0,9.0,88,0.00,,SKC,1.30,VWS V14.01,2013-10-16 15:17:00,
2013-10-16 10:18:00,49.7,46.3,30.04,NNE,14,11.0,11.0,88,0.02,,SKC,1.30,VWS V14.01,2013-10-16 15:18:00,
2013-10-16 10:19:00,49.6,46.2,30.04,North,355,6.0,11.0,88,0.02,,SKC,1.30,VWS V14.01,2013-10-16 15:19:00,
2013-10-16 10:20:00,49.7,46.3,30.04,NNW,343,4.0,7.0,88,0.02,,SKC,1.30,VWS V14.01,2013-10-16 15:20:00,
2013-10-16 10:21:00,49.7,46.3,30.04,North,355,4.0,6.0,88,0.02,,SKC,1.30,VWS V14.01,2013-10-16 15:21:00,
2013-10-16 10:22:00,50.3,46.9,30.05,North,350,10.0,10.0,88,0.00,,SKC,1.30,VWS V14.01,2013-10-16 15:22:00,
2013-10-16 10:23:00,49.7,46.3,30.04,NNW,329,2.0,10.0,88,0.02,,SKC,1.30,VWS V14.01,2013-10-16 15:23:00,
2013-10-16 10:24:00,49.7,46.3,30.04,North,5,7.0,12.0,88,0.02,,SKC,1.30,VWS V14.01,2013-10-16 15:24:00,
2013-10-16 10:25:00,49.6,46.2,30.04,NNE,16,10.0,14.0,88,0.02,,SKC,1.30,VWS V14.01,2013-10-16 15:25:00,
2013-10-16 10:26:00,49.6,46.2,30.04,North,5,3.0,10.0,88,0.02,,SKC,1.30,VWS V14.01,2013-10-16 15:26:00,
2013-10-16 10:27:00,50.3,46.9,30.06,North,5,4.0,5.0,88,0.00,,SKC,1.30,VWS V14.01,2013-10-16 15:27:00,
2013-10-16 10:28:00,49.6,46.2,30.04,North,360,6.0,8.0,88,0.02,,SKC,1.30,VWS V14.01,2013-10-16 15:28:00,
2013-10-16 10:29:00,49.7,46.3,30.04,North,9,5.0,12.0,88,0.01,,SKC,1.30,VWS V14.01,2013-10-16 15:29:00,
2013-10-16 10:30:00,49.7,46.3,30.04,North,350,5.0,10.0,88,0.01,,SKC,1.30,VWS V14.01,2013-10-16 15:30:00,
2013-10-16 10:31:00,49.7,46.3,30.04,North,5,6.0,10.0,88,0.01,,SKC,1.30,VWS V14.01,2013-10-16 15:31:00,
2013-10-16 10:32:00,50.3,46.9,30.06,NNW,336,8.0,8.0,88,0.01,,SKC,1.31,VWS V14.01,2013-10-16 15:32:00,
2013-10-16 10:33:00,49.8,46.4,30.04,NNW,343,5.0,10.0,88,0.01,,SKC,1.30,VWS V14.01,2013-10-16 15:33:00,
2013-10-16 10:34:00,49.8,46.4,30.04,North,355,4.0,5.0,88,0.01,,SKC,1.30,VWS V14.01,2013-10-16 15:34:00,
2013-10-16 10:35:00,49.9,46.5,30.04,NNW,333,4.0,6.0,88,0.01,,SKC,1.30,VWS V14.01,2013-10-16 15:35:00,
2013-10-16 10:36:00,49.9,46.5,30.04,NNW,344,9.0,11.0,88,0.01,,SKC,1.30,VWS V14.01,2013-10-16 15:36:00,
2013-10-16 10:37:00,50.3,46.9,30.06,North,350,6.0,7.0,88,0.02,,SKC,1.32,VWS V14.01,2013-10-16 15:37:00,
2013-10-16 10:38:00,49.9,46.5,30.04,NNE,17,4.0,9.0,88,0.00,,SKC,1.30,VWS V14.01,2013-10-16 15:38:00,
2013-10-16 10:39:00,49.9,46.5,30.04,NNE,17,4.0,11.0,88,0.00,,SKC,1.30,VWS V14.01,2013-10-16 15:39:00,
2013-10-16 10:40:00,49.9,46.5,30.04,North,5,5.0,12.0,88,0.00,,SKC,1.30,VWS V14.01,2013-10-16 15:40:00,
2013-10-16 10:41:00,49.9,46.5,30.04,NNE,26,5.0,14.0,88,0.00,,SKC,1.30,VWS V14.01,2013-10-16 15:41:00,
2013-10-16 10:42:00,50.2,46.8,30.05,North,5,5.0,12.0,88,0.03,,SKC,1.33,VWS V14.01,2013-10-16 15:42:00,
2013-10-16 10:43:00,49.9,46.5,30.05,NNW,348,5.0,9.0,88,0.00,,SKC,1.30,VWS V14.01,2013-10-16 15:43:00,
2013-10-16 10:44:00,49.9,46.5,30.05,NNW,337,1.0,9.0,88,0.00,,SKC,1.30,VWS V14.01,2013-10-16 15:44:00,
2013-10-16 10:45:00,49.9,46.5,30.05,NNE,13,4.0,7.0,88,0.00,,SKC,1.30,VWS V14.01,2013-10-16 15:45:00,
2013-10-16 10:46:00,50.0,46.6,30.05,NNE,17,8.0,8.0,88,0.00,,SKC,1.30,VWS V14.01,2013-10-16 15:46:00,
2013-10-16 10:47:00,50.2,46.8,30.06,NNW,342,10.0,12.0,88,0.05,,SKC,1.35,VWS V14.01,2013-10-16 15:47:00,
2013-10-16 10:48:00,50.0,46.6,30.05,NNW,329,10.0,13.0,88,0.00,,SKC,1.30,VWS V14.01,2013-10-16 15:48:00,
2013-10-16 10:49:00,50.0,46.6,30.05,NNE,14,7.0,10.0,88,0.00,,SKC,1.30,VWS V14.01,2013-10-16 15:49:00,
2013-10-16 10:50:00,50.0,46.6,30.04,NNE,19,6.0,10.0,88,0.00,,SKC,1.30,VWS V14.01,2013-10-16 15:50:00,
2013-10-16 10:51:00,50.0,46.6,30.04,North,360,5.0,13.0,88,0.00,,SKC,1.30,VWS V14.01,2013-10-16 15:51:00,
2013-10-16 10:52:00,50.2,46.8,30.06,NNE,18,14.0,15.0,88,0.06,,SKC,1.36,VWS V14.01,2013-10-16 15:52:00,
2013-10-16 10:53:00,50.0,46.6,30.05,North,11,7.0,8.0,88,0.00,,SKC,1.30,VWS V14.01,2013-10-16 15:53:00,
2013-10-16 10:54:00,50.1,46.7,30.05,NNE,17,7.0,11.0,88,0.00,,SKC,1.30,VWS V14.01,2013-10-16 15:54:00,
2013-10-16 10:55:00,50.1,46.7,30.05,North,360,2.0,7.0,88,0.00,,SKC,1.30,VWS V14.01,2013-10-16 15:55:00,
2013-10-16 10:56:00,50.2,46.8,30.05,NNW,333,6.0,11.0,88,0.00,,SKC,1.30,VWS V14.01,2013-10-16 15:56:00,
2013-10-16 10:57:00,50.2,46.8,30.05,NNE,15,5.0,12.0,88,0.07,,SKC,1.37,VWS V14.01,2013-10-16 15:57:00,
2013-10-16 10:58:00,50.2,46.8,30.05,North,355,2.0,6.0,88,0.00,,SKC,1.30,VWS V14.01,2013-10-16 15:58:00,
2013-10-16 10:59:00,50.2,46.8,30.05,North,360,2.0,4.0,88,0.00,,SKC,1.30,VWS V14.01,2013-10-16 15:59:00,
2013-10-16 11:00:00,50.3,46.9,30.05,North,351,2.0,4.0,88,0.00,,SKC,1.30,VWS V14.01,2013-10-16 16:00:00,
2013-10-16 11:01:00,50.3,46.9,30.05,North,11,1.0,6.0,88,0.00,,SKC,1.30,VWS V14.01,2013-10-16 16:01:00,
2013-10-16 11:02:00,50.2,46.8,30.05,NNW,342,11.0,11.0,88,0.08,,SKC,1.38,VWS V14.01,2013-10-16 16:02:00,
2013-10-16 11:03:00,50.4,47.0,30.05,North,360,7.0,11.0,88,0.00,,SKC,1.30,VWS V14.01,2013-10-16 16:03:00,
2013-10-16 11:04:00,50.3,46.9,30.05,NNW,341,4.0,12.0,88,0.00,,SKC,1.30,VWS V14.01,2013-10-16 16:04:00,
2013-10-16 11:05:00,50.3,46.9,30.05,North,355,7.0,11.0,88,0.00,,SKC,1.30,VWS V14.01,2013-10-16 16:05:00,
2013-10-16 11:06:00,50.3,46.9,30.05,North,355,5.0,13.0,88,0.00,,SKC,1.30,VWS V14.01,2013-10-16 16:06:00,
2013-10-16 11:07:00,50.2,46.8,30.06,NNW,343,7.0,13.0,88,0.08,,SKC,1.38,VWS V14.01,2013-10-16 16:07:00,
2013-10-16 11:08:00,50.3,46.9,30.05,NNE,22,6.0,6.0,88,0.00,,SKC,1.30,VWS V14.01,2013-10-16 16:08:00,
2013-10-16 11:09:00,50.3,46.9,30.05,NNW,338,2.0,7.0,88,0.00,,SKC,1.30,VWS V14.01,2013-10-16 16:09:00,
2013-10-16 11:10:00,50.3,46.9,30.05,North,355,2.0,7.0,88,0.00,,SKC,1.30,VWS V14.01,2013-10-16 16:10:00,
2013-10-16 11:11:00,50.3,46.9,30.05,NNE,16,5.0,6.0,88,0.00,,SKC,1.30,VWS V14.01,2013-10-16 16:11:00,
2013-10-16 11:12:00,50.2,46.8,30.06,North,355,7.0,7.0,88,0.09,,SKC,1.39,VWS V14.01,2013-10-16 16:12:00,
2013-10-16 11:13:00,50.3,46.9,30.05,NNW,338,7.0,10.0,88,0.00,,SKC,1.30,VWS V14.01,2013-10-16 16:13:00,
2013-10-16 11:14:00,50.3,46.9,30.05,North,360,5.0,14.0,88,0.00,,SKC,1.30,VWS V14.01,2013-10-16 16:14:00,
2013-10-16 11:15:00,50.3,46.9,30.05,NNW,336,5.0,9.0,88,0.00,,SKC,1.30,VWS V14.01,2013-10-16 16:15:00,
2013-10-16 11:16:00,50.3,46.9,30.05,NNW,340,5.0,6.0,88,0.00,,SKC,1.30,VWS V14.01,2013-10-16 16:16:00,
2013-10-16 11:17:00,50.2,46.8,30.07,North,360,2.0,10.0,88,0.09,,SKC,1.39,VWS V14.01,2013-10-16 16:17:00,
2013-10-16 11:18:00,50.3,46.9,30.05,North,351,5.0,7.0,88,0.00,,SKC,1.30,VWS V14.01,2013-10-16 16:18:00,
2013-10-16 11:19:00,50.3,46.9,30.05,NNW,343,5.0,9.0,88,0.00,,SKC,1.30,VWS V14.01,2013-10-16 16:19:00,
2013-10-16 11:20:00,50.3,46.9,30.05,North,350,10.0,10.0,88,0.00,,SKC,1.30,VWS V14.01,2013-10-16 16:20:00,
2013-10-16 11:21:00,50.3,46.9,30.05,NNW,348,10.0,12.0,88,0.00,,SKC,1.30,VWS V14.01,2013-10-16 16:21:00,
2013-10-16 11:22:00,50.2,46.8,30.07,North,5,7.0,7.0,88,0.09,,SKC,1.39,VWS V14.01,2013-10-16 16:22:00,
2013-10-16 11:23:00,50.3,46.9,30.06,North,11,6.0,10.0,88,0.00,,SKC,1.30,VWS V14.01,2013-10-16 16:23:00,
2013-10-16 11:24:00,50.3,46.9,30.06,NNW,348,4.0,10.0,88,0.00,,SKC,1.30,VWS V14.01,2013-10-16 16:24:00,
2013-10-16 11:25:00,50.3,46.9,30.06,North,5,4.0,5.0,88,0.00,,SKC,1.30,VWS V14.01,2013-10-16 16:25:00,
2013-10-16 11:26:00,50.3,46.9,30.06,North,5,5.0,6.0,88,0.00,,SKC,1.30,VWS V14.01,2013-10-16 16:26:00,
2013-10-16 11:27:00,50.2,46.8,30.07,North,360,5.0,9.0,88,0.09,,SKC,1.39,VWS V14.01,2013-10-16 16:27:00,
2013-10-16 11:28:00,50.3,46.9,30.06,NNW,347,4.0,7.0,88,0.01,,SKC,1.31,VWS V14.01,2013-10-16 16:28:00,
2013-10-16 11:29:00,50.3,46.9,30.06,North,355,8.0,10.0,88,0.01,,SKC,1.31,VWS V14.01,2013-10-16 16:29:00,
2013-10-16 11:30:00,50.3,46.9,30.06,NNW,336,8.0,8.0,88,0.01,,SKC,1.31,VWS V14.01,2013-10-16 16:30:00,
2013-10-16 11:31:00,50.3,46.9,30.06,North,360,5.0,11.0,88,0.01,,SKC,1.31,VWS V14.01,2013-10-16 16:31:00,
2013-10-16 11:32:00,50.2,46.8,30.06,NNE,13,8.0,13.0,88,0.08,,SKC,1.39,VWS V14.01,2013-10-16 16:32:00,
2013-10-16 11:33:00,50.3,46.9,30.06,NNE,28,10.0,10.0,88,0.02,,SKC,1.32,VWS V14.01,2013-10-16 16:33:00,
2013-10-16 11:34:00,50.3,46.9,30.06,NW,307,2.0,10.0,88,0.02,,SKC,1.32,VWS V14.01,2013-10-16 16:34:00,
2013-10-16 11:35:00,50.3,46.9,30.06,North,350,6.0,7.0,88,0.02,,SKC,1.32,VWS V14.01,2013-10-16 16:35:00,
2013-10-16 11:36:00,50.3,46.9,30.06,North,355,10.0,10.0,88,0.03,,SKC,1.33,VWS V14.01,2013-10-16 16:36:00,
2013-10-16 11:37:00,50.2,46.8,30.06,North,9,3.0,9.0,88,0.07,,SKC,1.39,VWS V14.01,2013-10-16 16:37:00,
2013-10-16 11:38:00,50.3,46.9,30.06,North,360,6.0,10.0,88,0.03,,SKC,1.33,VWS V14.01,2013-10-16 16:38:00,
2013-10-16 11:39:00,50.2,46.8,30.06,North,350,8.0,11.0,88,0.03,,SKC,1.33,VWS V14.01,2013-10-16 16:39:00,
2013-10-16 11:40:00,50.2,46.8,30.05,North,5,5.0,12.0,88,0.03,,SKC,1.33,VWS V14.01,2013-10-16 16:40:00,
2013-10-16 11:41:00,50.2,46.8,30.06,North,355,4.0,10.0,88,0.03,,SKC,1.33,VWS V14.01,2013-10-16 16:41:00,
2013-10-16 11:42:00,50.2,46.8,30.06,North,5,9.0,12.0,88,0.06,,SKC,1.39,VWS V14.01,2013-10-16 16:42:00,
2013-10-16 11:43:00,50.2,46.8,30.06,North,5,9.0,11.0,88,0.04,,SKC,1.34,VWS V14.01,2013-10-16 16:43:00,
2013-10-16 11:44:00,50.2,46.8,30.06,North,351,5.0,15.0,88,0.05,,SKC,1.35,VWS V14.01,2013-10-16 16:44:00,
2013-10-16 11:45:00,50.2,46.8,30.06,NNW,342,10.0,12.0,88,0.05,,SKC,1.35,VWS V14.01,2013-10-16 16:45:00,
2013-10-16 11:46:00,50.2,46.8,30.06,NNE,20,10.0,10.0,88,0.05,,SKC,1.35,VWS V14.01,2013-10-16 16:46:00,
2013-10-16 11:47:00,50.2,46.8,30.06,North,360,6.0,12.0,88,0.04,,SKC,1.39,VWS V14.01,2013-10-16 16:47:00,
2013-10-16 11:48:00,50.2,46.8,30.06,NNE,17,9.0,14.0,88,0.05,,SKC,1.35,VWS V14.01,2013-10-16 16:48:00,
2013-10-16 11:49:00,50.2,46.8,30.06,North,355,5.0,9.0,88,0.06,,SKC,1.36,VWS V14.01,2013-10-16 16:49:00,
2013-10-16 11:50:00,50.2,46.8,30.06,NNE,18,14.0,15.0,88,0.06,,SKC,1.36,VWS V14.01,2013-10-16 16:50:00,
2013-10-16 11:51:00,50.2,46.8,30.06,North,5,5.0,14.0,88,0.06,,SKC,1.36,VWS V14.01,2013-10-16 16:51:00,
2013-10-16 11:52:00,50.2,46.8,30.06,NNE,13,7.0,7.0,88,0.03,,SKC,1.39,VWS V14.01,2013-10-16 16:52:00,
2013-10-16 11:53:00,50.2,46.8,30.06,North,5,6.0,11.0,88,0.07,,SKC,1.37,VWS V14.01,2013-10-16 16:53:00,
2013-10-16 11:54:00,50.2,46.8,30.05,NNE,26,10.0,14.0,88,0.07,,SKC,1.37,VWS V14.01,2013-10-16 16:54:00,
2013-10-16 11:55:00,50.2,46.8,30.05,NNE,15,5.0,12.0,88,0.07,,SKC,1.37,VWS V14.01,2013-10-16 16:55:00,
2013-10-16 11:56:00,50.2,46.8,30.05,NNE,19,11.0,11.0,88,0.07,,SKC,1.37,VWS V14.01,2013-10-16 16:56:00,
2013-10-16 11:57:00,50.2,46.8,30.06,NNE,26,7.0,9.0,88,0.02,,SKC,1.39,VWS V14.01,2013-10-16 16:57:00,
2013-10-16 11:58:00,50.2,46.8,30.05,North,9,8.0,12.0,88,0.08,,SKC,1.38,VWS V14.01,2013-10-16 16:58:00,
2013-10-16 11:59:00,50.2,46.8,30.05,NE,37,6.0,10.0,88,0.08,,SKC,1.38,VWS V14.01,2013-10-16 16:59:00,
2013-10-16 12:00:00,50.2,46.8,30.05,North,360,10.0,11.0,88,0.08,,SKC,1.38,VWS V14.01,2013-10-16 17:00:00,
2013-10-16 12:01:00,50.2,46.8,30.05,NNW,339,5.0,14.0,88,0.08,,SKC,1.38,VWS V14.01,2013-10-16 17:01:00,
2013-10-16 12:02:00,50.2,46.8,30.06,NNW,342,6.0,10.0,88,0.01,,SKC,1.39,VWS V14.01,2013-10-16 17:02:00,
2013-10-16 12:03:00,50.2,46.8,30.06,North,5,6.0,11.0,88,0.08,,SKC,1.38,VWS V14.01,2013-10-16 17:03:00,
2013-10-16 12:04:00,50.2,46.8,30.06,NNE,13,6.0,11.0,88,0.08,,SKC,1.38,VWS V14.01,2013-10-16 17:04:00,
2013-10-16 12:05:00,50.2,46.8,30.06,NNW,343,7.0,13.0,88,0.08,,SKC,1.38,VWS V14.01,2013-10-16 17:05:00,
2013-10-16 12:06:00,50.2,46.8,30.06,North,5,9.0,9.0,88,0.08,,SKC,1.38,VWS V14.01,2013-10-16 17:06:00,
2013-10-16 12:07:00,50.2,46.8,30.06,NNE,20,3.0,5.0,88,0.01,,SKC,1.39,VWS V14.01,2013-10-16 17:07:00,
2013-10-16 12:08:00,50.2,46.8,30.06,NNE,14,6.0,9.0,88,0.09,,SKC,1.39,VWS V14.01,2013-10-16 17:08:00,
2013-10-16 12:09:00,50.2,46.8,30.06,North,5,7.0,7.0,88,0.09,,SKC,1.39,VWS V14.01,2013-10-16 17:09:00,
2013-10-16 12:10:00,50.2,46.8,30.06,North,355,7.0,7.0,88,0.09,,SKC,1.39,VWS V14.01,2013-10-16 17:10:00,
2013-10-16 12:11:00,50.2,46.8,30.06,North,11,5.0,13.0,88,0.09,,SKC,1.39,VWS V14.01,2013-10-16 17:11:00,
2013-10-16 12:12:00,50.2,46.8,30.07,North,10,4.0,13.0,88,0.00,,SKC,1.39,VWS V14.01,2013-10-16 17:12:00,
2013-10-16 12:13:00,50.2,46.8,30.07,NNE,12,8.0,13.0,88,0.09,,SKC,1.39,VWS V14.01,2013-10-16 17:13:00,
2013-10-16 12:14:00,50.2,46.8,30.07,NNW,338,5.0,11.0,88,0.09,,SKC,1.39,VWS V14.01,2013-10-16 17:14:00,
2013-10-16 12:15:00,50.2,46.8,30.07,North,5,5.0,10.0,88,0.09,,SKC,1.39,VWS V14.01,2013-10-16 17:15:00,
2013-10-16 12:16:00,50.2,46.8,30.07,North,5,5.0,10.0,88,0.09,,SKC,1.39,VWS V14.01,2013-10-16 17:16:00,
2013-10-16 12:17:00,50.2,46.8,30.07,North,5,7.0,7.0,88,0.00,,SKC,1.39,VWS V14.01,2013-10-16 17:17:00,
2013-10-16 12:18:00,50.2,46.8,30.07,NNE,22,5.0,10.0,88,0.09,,SKC,1.39,VWS V14.01,2013-10-16 17:18:00,
2013-10-16 12:19:00,50.2,46.8,30.07,North,360,3.0,7.0,88,0.09,,SKC,1.39,VWS V14.01,2013-10-16 17:19:00,
2013-10-16 12:20:00,50.2,46.8,30.07,North,5,7.0,7.0,88,0.09,,SKC,1.39,VWS V14.01,2013-10-16 17:20:00,
2013-10-16 12:21:00,50.2,46.8,30.07,North,10,8.0,8.0,88,0.09,,SKC,1.39,VWS V14.01,2013-10-16 17:21:00,
2013-10-16 12:22:00,50.2,46.8,30.07,North,5,3.0,10.0,88,0.00,,SKC,1.39,VWS V14.01,2013-10-16 17:22:00,
2013-10-16 12:23:00,50.2,46.8,30.07,North,355,7.0,10.0,88,0.09,,SKC,1.39,VWS V14.01,2013-10-16 17:23:00,
2013-10-16 12:24:00,50.2,46.8,30.06,NNE,21,5.0,13.0,88,0.09,,SKC,1.39,VWS V14.01,2013-10-16 17:24:00,
2013-10-16 12:25:00,50.2,46.8,30.07,North,360,5.0,9.0,88,0.09,,SKC,1.39,VWS V14.01,2013-10-16 17:25:00,
2013-10-16 12:26:00,50.2,46.8,30.07,NNW,339,4.0,10.0,88,0.09,,SKC,1.39,VWS V14.01,2013-10-16 17:26:00,
2013-10-16 12:27:00,50.2,46.8,30.07,NNE,17,12.0,12.0,88,0.00,,SKC,1.39,VWS V14.01,2013-10-16 17:27:00,
2013-10-16 12:28:00,50.2,46.8,30.06,NW,319,6.0,12.0,88,0.09,,SKC,1.39,VWS V14.01,2013-10-16 17:28:00,
2013-10-16 12:29:00,50.2,46.8,30.06,North,5,13.0,13.0,88,0.08,,SKC,1.39,VWS V14.01,2013-10-16 17:29:00,
2013-10-16 12:30:00,50.2,46.8,30.06,North,5,6.0,13.0,88,0.08,,SKC,1.39,VWS V14.01,2013-10-16 17:30:00,
2013-10-16 12:31:00,50.2,46.8,30.06,North,360,4.0,13.0,88,0.08,,SKC,1.39,VWS V14.01,2013-10-16 17:31:00,
2013-10-16 12:32:00,50.2,46.8,30.06,NNW,345,2.0,11.0,88,0.00,,SKC,1.39,VWS V14.01,2013-10-16 17:32:00,
2013-10-16 12:33:00,50.2,46.8,30.06,North,5,5.0,8.0,88,0.07,,SKC,1.39,VWS V14.01,2013-10-16 17:33:00,
2013-10-16 12:34:00,50.2,46.8,30.06,North,360,5.0,5.0,88,0.07,,SKC,1.39,VWS V14.01,2013-10-16 17:34:00,
2013-10-16 12:35:00,50.2,46.8,30.06,North,9,3.0,9.0,88,0.07,,SKC,1.39,VWS V14.01,2013-10-16 17:35:00,
2013-10-16 12:36:00,50.2,46.8,30.06,North,9,6.0,6.0,88,0.07,,SKC,1.39,VWS V14.01,2013-10-16 17:36:00,
2013-10-16 12:37:00,50.2,46.8,30.06,NW,313,6.0,7.0,88,0.00,,SKC,1.39,VWS V14.01,2013-10-16 17:37:00,
2013-10-16 12:38:00,50.2,46.8,30.06,NNE,20,6.0,6.0,88,0.06,,SKC,1.39,VWS V14.01,2013-10-16 17:38:00,
2013-10-16 12:39:00,50.2,46.8,30.06,NNE,19,3.0,7.0,88,0.06,,SKC,1.39,VWS V14.01,2013-10-16 17:39:00,
2013-10-16 12:40:00,50.2,46.8,30.06,North,5,9.0,12.0,88,0.06,,SKC,1.39,VWS V14.01,2013-10-16 17:40:00,
2013-10-16 12:41:00,50.2,46.8,30.06,North,360,14.0,14.0,88,0.06,,SKC,1.39,VWS V14.01,2013-10-16 17:41:00,
2013-10-16 12:42:00,50.2,46.8,30.05,North,351,6.0,12.0,88,0.00,,SKC,1.39,VWS V14.01,2013-10-16 17:42:00,
2013-10-16 12:43:00,50.2,46.8,30.06,NNE,16,8.0,12.0,88,0.05,,SKC,1.39,VWS V14.01,2013-10-16 17:43:00,
2013-10-16 12:44:00,50.2,46.8,30.06,NNE,23,3.0,10.0,88,0.05,,SKC,1.39,VWS V14.01,2013-10-16 17:44:00,
2013-10-16 12:45:00,50.2,46.8,30.06,North,360,6.0,12.0,88,0.04,,SKC,1.39,VWS V14.01,2013-10-16 17:45:00,
2013-10-16 12:46:00,50.2,46.8,30.06,NNE,17,5.0,12.0,88,0.04,,SKC,1.39,VWS V14.01,2013-10-16 17:46:00,
2013-10-16 12:47:00,50.2,46.8,30.05,North,5,11.0,11.0,88,0.00,,SKC,1.39,VWS V14.01,2013-10-16 17:47:00,
2013-10-16 12:48:00,50.2,46.8,30.06,North,5,4.0,11.0,88,0.04,,SKC,1.39,VWS V14.01,2013-10-16 17:48:00,
2013-10-16 12:49:00,50.2,46.8,30.06,North,5,4.0,6.0,88,0.04,,SKC,1.39,VWS V14.01,2013-10-16 17:49:00,
2013-10-16 12:50:00,50.2,46.8,30.06,NNE,13,7.0,7.0,88,0.03,,SKC,1.39,VWS V14.01,2013-10-16 17:50:00,
2013-10-16 12:51:00,50.2,46.8,30.06,NNE,17,4.0,11.0,88,0.03,,SKC,1.39,VWS V14.01,2013-10-16 17:51:00,
2013-10-16 12:52:00,50.2,46.8,30.04,North,9,9.0,11.0,88,0.00,,SKC,1.39,VWS V14.01,2013-10-16 17:52:00,
2013-10-16 12:53:00,50.2,46.8,30.07,North,5,7.0,8.0,88,0.03,,SKC,1.39,VWS V14.01,2013-10-16 17:53:00,
2013-10-16 12:54:00,50.2,46.8,30.06,North,5,3.0,7.0,88,0.02,,SKC,1.39,VWS V14.01,2013-10-16 17:54:00,
2013-10-16 12:55:00,50.2,46.8,30.06,NNE,26,7.0,9.0,88,0.02,,SKC,1.39,VWS V14.01,2013-10-16 17:55:00,
2013-10-16 12:56:00,50.2,46.8,30.06,NNE,20,12.0,12.0,88,0.02,,SKC,1.39,VWS V14.01,2013-10-16 17:56:00,
2013-10-16 12:57:00,50.2,46.8,30.04,North,5,8.0,12.0,88,0.00,,SKC,1.39,VWS V14.01,2013-10-16 17:57:00,
2013-10-16 12:58:00,50.2,46.8,30.06,North,5,10.0,13.0,88,0.02,,SKC,1.39,VWS V14.01,2013-10-16 17:58:00,
2013-10-16 12:59:00,50.2,46.8,30.06,NNW,340,6.0,10.0,88,0.01,,SKC,1.39,VWS V14.01,2013-10-16 17:59:00,
2013-10-16 13:00:00,50.2,46.8,30.06,NNW,342,6.0,10.0,88,0.01,,SKC,1.39,VWS V14.01,2013-10-16 18:00:00,
2013-10-16 13:01:00,50.2,46.8,30.06,North,351,4.0,10.0,88,0.01,,SKC,1.39,VWS V14.01,2013-10-16 18:01:00,
2013-10-16 13:02:00,50.2,46.8,30.04,NW,316,2.0,6.0,88,0.00,,SKC,1.39,VWS V14.01,2013-10-16 18:02:00,
2013-10-16 13:03:00,50.2,46.8,30.06,NNE,15,8.0,12.0,88,0.01,,SKC,1.39,VWS V14.01,2013-10-16 18:03:00,
2013-10-16 13:04:00,50.2,46.8,30.06,NNE,26,4.0,10.0,88,0.01,,SKC,1.39,VWS V14.01,2013-10-16 18:04:00,
2013-10-16 13:05:00,50.2,46.8,30.06,NNE,20,3.0,5.0,88,0.01,,SKC,1.39,VWS V14.01,2013-10-16 18:05:00,
2013-10-16 13:06:00,50.2,46.8,30.06,NNW,341,6.0,12.0,88,0.01,,SKC,1.39,VWS V14.01,2013-10-16 18:06:00,
2013-10-16 13:07:00,50.2,46.8,30.04,NNE,22,9.0,10.0,88,0.00,,SKC,1.39,VWS V14.01,2013-10-16 18:07:00,
2013-10-16 13:08:00,50.2,46.8,30.06,NNE,23,5.0,8.0,88,0.00,,SKC,1.39,VWS V14.01,2013-10-16 18:08:00,
2013-10-16 13:09:00,50.2,46.8,30.07,NW,325,6.0,9.0,88,0.00,,SKC,1.39,VWS V14.01,2013-10-16 18:09:00,
2013-10-16 13:10:00,50.2,46.8,30.07,North,10,4.0,13.0,88,0.00,,SKC,1.39,VWS V14.01,2013-10-16 18:10:00,
2013-10-16 13:11:00,50.2,46.8,30.07,North,5,9.0,10.0,88,0.00,,SKC,1.39,VWS V14.01,2013-10-16 18:11:00,
2013-10-16 13:12:00,50.2,46.8,30.04,North,5,4.0,9.0,88,0.00,,SKC,1.39,VWS V14.01,2013-10-16 18:12:00,
2013-10-16 13:13:00,50.2,46.8,30.07,NNE,29,4.0,9.0,88,0.00,,SKC,1.39,VWS V14.01,2013-10-16 18:13:00,
2013-10-16 13:14:00,50.2,46.8,30.07,NNE,19,5.0,6.0,88,0.00,,SKC,1.39,VWS V14.01,2013-10-16 18:14:00,
2013-10-16 13:15:00,50.2,46.8,30.07,North,5,7.0,7.0,88,0.00,,SKC,1.39,VWS V14.01,2013-10-16 18:15:00,
2013-10-16 13:16:00,50.2,46.8,30.07,North,5,3.0,11.0,88,0.00,,SKC,1.39,VWS V14.01,2013-10-16 18:16:00,
2013-10-16 13:17:00,50.2,46.8,30.04,North,5,13.0,13.0,88,0.00,,SKC,1.39,VWS V14.01,2013-10-16 18:17:00,
2013-10-16 13:18:00,50.2,46.8,30.07,North,360,8.0,11.0,88,0.00,,SKC,1.39,VWS V14.01,2013-10-16 18:18:00,
2013-10-16 13:19:00,50.2,46.8,30.07,NNE,13,8.0,12.0,88,0.00,,SKC,1.39,VWS V14.01,2013-10-16 18:19:00,
2013-10-16 13:20:00,50.2,46.8,30.07,North,5,3.0,10.0,88,0.00,,SKC,1.39,VWS V14.01,2013-10-16 18:20:00,
2013-10-16 13:21:00,50.2,46.8,30.07,North,355,7.0,10.0,88,0.00,,SKC,1.39,VWS V14.01,2013-10-16 18:21:00,
2013-10-16 13:22:00,50.2,46.8,30.04,North,5,3.0,10.0,88,0.00,,SKC,1.39,VWS V14.01,2013-10-16 18:22:00,
2013-10-16 13:23:00,50.2,46.8,30.07,NE,40,10.0,12.0,88,0.00,,SKC,1.39,VWS V14.01,2013-10-16 18:23:00,
2013-10-16 13:24:00,50.2,46.8,30.07,North,5,5.0,10.0,88,0.00,,SKC,1.39,VWS V14.01,2013-10-16 18:24:00,
2013-10-16 13:25:00,50.2,46.8,30.07,NNE,17,12.0,12.0,88,0.00,,SKC,1.39,VWS V14.01,2013-10-16 18:25:00,
2013-10-16 13:26:00,50.2,46.8,30.06,North,5,5.0,12.0,88,0.00,,SKC,1.39,VWS V14.01,2013-10-16 18:26:00,
2013-10-16 13:27:00,50.2,46.8,30.04,NNW,343,2.0,3.0,88,0.00,,SKC,1.39,VWS V14.01,2013-10-16 18:27:00,
2013-10-16 13:28:00,50.2,46.8,30.06,North,5,10.0,10.0,88,0.00,,SKC,1.39,VWS V14.01,2013-10-16 18:28:00,
2013-10-16 13:29:00,50.2,46.8,30.06,North,355,7.0,11.0,88,0.00,,SKC,1.39,VWS V14.01,2013-10-16 18:29:00,
2013-10-16 13:30:00,50.2,46.8,30.06,NNW,345,2.0,11.0,88,0.00,,SKC,1.39,VWS V14.01,2013-10-16 18:30:00,
2013-10-16 13:31:00,50.2,46.8,30.06,North,350,6.0,8.0,88,0.00,,SKC,1.39,VWS V14.01,2013-10-16 18:31:00,
2013-10-16 13:32:00,50.2,46.8,30.03,North,355,2.0,4.0,88,0.00,,SKC,1.39,VWS V14.01,2013-10-16 18:32:00,
2013-10-16 13:33:00,50.2,46.8,30.06,North,351,7.0,9.0,88,0.00,,SKC,1.39,VWS V14.01,2013-10-16 18:33:00,
2013-10-16 13:34:00,50.2,46.8,30.06,NNW,343,5.0,10.0,88,0.00,,SKC,1.39,VWS V14.01,2013-10-16 18:34:00,
2013-10-16 13:35:00,50.2,46.8,30.06,NNW,348,7.0,12.0,88,0.00,,SKC,1.39,VWS V14.01,2013-10-16 18:35:00,
2013-10-16 13:36:00,50.2,46.8,30.06,North,360,5.0,11.0,88,0.00,,SKC,1.39,VWS V14.01,2013-10-16 18:36:00,
2013-10-16 13:37:00,50.2,46.8,30.03,North,351,8.0,8.0,88,0.00,,SKC,1.39,VWS V14.01,2013-10-16 18:37:00,
2013-10-16 13:38:00,50.2,46.8,30.06,North,5,7.0,12.0,88,0.00,,SKC,1.39,VWS V14.01,2013-10-16 18:38:00,
2013-10-16 13:39:00,50.2,46.8,30.05,NNE,18,10.0,13.0,88,0.00,,SKC,1.39,VWS V14.01,2013-10-16 18:39:00,
2013-10-16 13:40:00,50.2,46.8,30.05,North,351,6.0,12.0,88,0.00,,SKC,1.39,VWS V14.01,2013-10-16 18:40:00,
2013-10-16 13:41:00,50.2,46.8,30.05,North,355,11.0,11.0,88,0.00,,SKC,1.39,VWS V14.01,2013-10-16 18:41:00,
2013-10-16 13:42:00,50.2,46.8,30.03,NNE,13,11.0,11.0,88,0.00,,SKC,1.39,VWS V14.01,2013-10-16 18:42:00,
2013-10-16 13:43:00,50.2,46.8,30.05,NNE,30,7.0,12.0,88,0.00,,SKC,1.39,VWS V14.01,2013-10-16 18:43:00,
2013-10-16 13:44:00,50.2,46.8,30.05,NNE,12,10.0,10.0,88,0.00,,SKC,1.39,VWS V14.01,2013-10-16 18:44:00,
2013-10-16 13:45:00,50.2,46.8,30.05,North,5,11.0,11.0,88,0.00,,SKC,1.39,VWS V14.01,2013-10-16 18:45:00,
2013-10-16 13:46:00,50.2,46.8,30.05,North,5,6.0,11.0,88,0.00,,SKC,1.39,VWS V14.01,2013-10-16 18:46:00,
2013-10-16 13:47:00,50.2,46.8,30.04,NNE,17,6.0,6.0,88,0.00,,SKC,1.39,VWS V14.01,2013-10-16 18:47:00,
2013-10-16 13:48:00,50.2,46.8,30.05,North,11,10.0,10.0,88,0.00,,SKC,1.39,VWS V14.01,2013-10-16 18:48:00,
2013-10-16 13:49:00,50.2,46.8,30.05,NNE,13,6.0,11.0,88,0.00,,SKC,1.39,VWS V14.01,2013-10-16 18:49:00,
2013-10-16 13:50:00,50.2,46.8,30.04,North,9,9.0,11.0,88,0.00,,SKC,1.39,VWS V14.01,2013-10-16 18:50:00,
2013-10-16 13:51:00,50.2,46.8,30.04,North,355,10.0,12.0,88,0.00,,SKC,1.39,VWS V14.01,2013-10-16 18:51:00,
2013-10-16 13:52:00,50.2,46.8,30.03,NNW,340,5.0,10.0,88,0.00,,SKC,1.39,VWS V14.01,2013-10-16 18:52:00,
2013-10-16 13:53:00,50.2,46.8,30.04,NNE,12,8.0,11.0,88,0.00,,SKC,1.39,VWS V14.01,2013-10-16 18:53:00,
2013-10-16 13:54:00,50.2,46.8,30.04,North,5,6.0,11.0,88,0.00,,SKC,1.39,VWS V14.01,2013-10-16 18:54:00,
2013-10-16 13:55:00,50.2,46.8,30.04,North,5,8.0,12.0,88,0.00,,SKC,1.39,VWS V14.01,2013-10-16 18:55:00,
2013-10-16 13:56:00,50.2,46.8,30.04,North,355,10.0,11.0,88,0.00,,SKC,1.39,VWS V14.01,2013-10-16 18:56:00,
2013-10-16 13:57:00,51.8,48.4,30.03,NNE,17,4.0,4.0,88,0.00,,SKC,1.39,VWS V14.01,2013-10-16 18:57:00,
2013-10-16 13:58:00,50.2,46.8,30.04,North,11,1.0,7.0,88,0.00,,SKC,1.39,VWS V14.01,2013-10-16 18:58:00,
2013-10-16 13:59:00,50.2,46.8,30.04,NNW,342,6.0,9.0,88,0.00,,SKC,1.39,VWS V14.01,2013-10-16 18:59:00,
2013-10-16 14:00:00,50.2,46.8,30.04,NW,316,2.0,6.0,88,0.00,,SKC,1.39,VWS V14.01,2013-10-16 19:00:00,
2013-10-16 14:01:00,50.2,46.8,30.04,NNE,15,5.0,10.0,88,0.00,,SKC,1.39,VWS V14.01,2013-10-16 19:01:00,
2013-10-16 14:02:00,51.9,48.5,30.03,North,360,6.0,6.0,88,0.00,,SKC,1.39,VWS V14.01,2013-10-16 19:02:00,
2013-10-16 14:03:00,50.2,46.8,30.05,North,9,3.0,10.0,88,0.00,,SKC,1.39,VWS V14.01,2013-10-16 19:03:00,
2013-10-16 14:04:00,50.2,46.8,30.05,ENE,61,4.0,10.0,88,0.00,,SKC,1.39,VWS V14.01,2013-10-16 19:04:00,
2013-10-16 14:05:00,50.2,46.8,30.04,NNE,22,9.0,10.0,88,0.00,,SKC,1.39,VWS V14.01,2013-10-16 19:05:00,
2013-10-16 14:06:00,50.2,46.8,30.04,North,10,7.0,11.0,88,0.00,,SKC,1.39,VWS V14.01,2013-10-16 19:06:00,
2013-10-16 14:07:00,51.8,48.4,30.02,NW,315,3.0,4.0,88,0.00,,SKC,1.39,VWS V14.01,2013-10-16 19:07:00,
2013-10-16 14:08:00,50.2,46.8,30.04,NNE,15,4.0,10.0,88,0.00,,SKC,1.39,VWS V14.01,2013-10-16 19:08:00,
2013-10-16 14:09:00,50.2,46.8,30.04,NNE,13,6.0,10.0,88,0.00,,SKC,1.39,VWS V14.01,2013-10-16 19:09:00,
2013-10-16 14:10:00,50.2,46.8,30.04,North,5,4.0,9.0,88,0.00,,SKC,1.39,VWS V14.01,2013-10-16 19:10:00,
2013-10-16 14:11:00,50.2,46.8,30.04,NNE,20,7.0,7.0,88,0.00,,SKC,1.39,VWS V14.01,2013-10-16 19:11:00,
2013-10-16 14:12:00,51.9,48.5,30.02,NNW,331,6.0,7.0,88,0.00,,SKC,1.39,VWS V14.01,2013-10-16 19:12:00,
2013-10-16 14:13:00,50.2,46.8,30.04,NNE,26,5.0,7.0,88,0.00,,SKC,1.39,VWS V14.01,2013-10-16 19:13:00,
2013-10-16 14:14:00,50.2,46.8,30.04,North,11,3.0,9.0,88,0.00,,SKC,1.39,VWS V14.01,2013-10-16 19:14:00,
2013-10-16 14:15:00,50.2,46.8,30.04,North,5,13.0,13.0,88,0.00,,SKC,1.39,VWS V14.01,2013-10-16 19:15:00,
2013-10-16 14:16:00,50.2,46.8,30.04,North,355,12.0,13.0,88,0.00,,SKC,1.39,VWS V14.01,2013-10-16 19:16:00,
2013-10-16 14:17:00,51.9,48.5,30.02,NW,323,4.0,4.0,88,0.00,,SKC,1.39,VWS V14.01,2013-10-16 19:17:00,
2013-10-16 14:18:00,50.2,46.8,30.04,NNE,26,6.0,12.0,88,0.00,,SKC,1.39,VWS V14.01,2013-10-16 19:18:00,
2013-10-16 14:19:00,50.2,46.8,30.04,North,351,7.0,10.0,88,0.00,,SKC,1.39,VWS V14.01,2013-10-16 19:19:00,
2013-10-16 14:20:00,50.2,46.8,30.04,North,5,3.0,10.0,88,0.00,,SKC,1.39,VWS V14.01,2013-10-16 19:20:00,
2013-10-16 14:21:00,50.2,46.8,30.04,NNE,24,6.0,7.0,88,0.00,,SKC,1.39,VWS V14.01,2013-10-16 19:21:00,
2013-10-16 14:22:00,51.9,48.5,30.02,North,355,6.0,6.0,88,0.00,,SKC,1.39,VWS V14.01,2013-10-16 19:22:00,
2013-10-16 14:23:00,50.2,46.8,30.04,NNW,342,2.0,7.0,88,0.00,,SKC,1.39,VWS V14.01,2013-10-16 19:23:00,
2013-10-16 14:24:00,50.2,46.8,30.04,NNW,343,2.0,5.0,88,0.00,,SKC,1.39,VWS V14.01,2013-10-16 19:24:00,
2013-10-16 14:25:00,50.2,46.8,30.03,NNW,343,1.0,3.0,88,0.00,,SKC,1.39,VWS V14.01,2013-10-16 19:25:00,
2013-10-16 14:26:00,50.2,46.8,30.03,North,355,5.0,8.0,88,0.00,,SKC,1.39,VWS V14.01,2013-10-16 19:26:00,
2013-10-16 14:27:00,52.1,48.7,30.02,NW,325,4.0,5.0,88,0.00,,SKC,1.39,VWS V14.01,2013-10-16 19:27:00,
2013-10-16 14:28:00,50.2,46.8,30.03,North,355,5.0,9.0,88,0.00,,SKC,1.39,VWS V14.01,2013-10-16 19:28:00,
2013-10-16 14:29:00,50.2,46.8,30.03,North,355,3.0,5.0,88,0.00,,SKC,1.39,VWS V14.01,2013-10-16 19:29:00,
2013-10-16 14:30:00,50.2,46.8,30.03,North,355,4.0,5.0,88,0.00,,SKC,1.39,VWS V14.01,2013-10-16 19:30:00,
2013-10-16 14:31:00,50.2,46.8,30.03,NNW,344,10.0,12.0,88,0.00,,SKC,1.39,VWS V14.01,2013-10-16 19:31:00,
2013-10-16 14:32:00,52.2,48.8,30.02,NNE,33,11.0,11.0,88,0.00,,SKC,1.39,VWS V14.01,2013-10-16 19:32:00,
2013-10-16 14:33:00,50.2,46.8,30.03,North,9,9.0,10.0,88,0.00,,SKC,1.39,VWS V14.01,2013-10-16 19:33:00,
2013-10-16 14:34:00,50.2,46.8,30.03,North,5,4.0,10.0,88,0.00,,SKC,1.39,VWS V14.01,2013-10-16 19:34:00,
2013-10-16 14:35:00,50.2,46.8,30.03,NNW,346,5.0,13.0,88,0.00,,SKC,1.39,VWS V14.01,2013-10-16 19:35:00,
2013-10-16 14:36:00,50.2,46.8,30.03,North,360,4.0,10.0,88,0.00,,SKC,1.39,VWS V14.01,2013-10-16 19:36:00,
2013-10-16 14:37:00,52.2,48.8,30.02,NNE,22,9.0,9.0,88,0.00,,SKC,1.39,VWS V14.01,2013-10-16 19:37:00,
2013-10-16 14:38:00,50.2,46.8,30.03,NNW,346,7.0,11.0,88,0.00,,SKC,1.39,VWS V14.01,2013-10-16 19:38:00,
2013-10-16 14:39:00,50.2,46.8,30.03,North,11,4.0,10.0,88,0.00,,SKC,1.39,VWS V14.01,2013-10-16 19:39:00,
2013-10-16 14:40:00,50.2,46.8,30.03,North,5,4.0,10.0,88,0.00,,SKC,1.39,VWS V14.01,2013-10-16 19:40:00,
2013-10-16 14:41:00,50.2,46.8,30.03,NNE,19,5.0,12.0,88,0.00,,SKC,1.39,VWS V14.01,2013-10-16 19:41:00,
2013-10-16 14:42:00,52.3,48.9,30.02,NNW,343,6.0,6.0,88,0.00,,SKC,1.39,VWS V14.01,2013-10-16 19:42:00,
2013-10-16 14:43:00,50.2,46.8,30.03,North,355,3.0,10.0,88,0.00,,SKC,1.39,VWS V14.01,2013-10-16 19:43:00,
2013-10-16 14:44:00,50.2,46.8,30.03,North,360,5.0,8.0,88,0.00,,SKC,1.39,VWS V14.01,2013-10-16 19:44:00,
2013-10-16 14:45:00,50.2,46.8,30.04,NNW,342,4.0,11.0,88,0.00,,SKC,1.39,VWS V14.01,2013-10-16 19:45:00,
2013-10-16 14:46:00,50.2,46.8,30.04,North,360,6.0,10.0,88,0.00,,SKC,1.39,VWS V14.01,2013-10-16 19:46:00,
2013-10-16 14:47:00,52.5,49.0,30.02,NNW,330,2.0,2.0,88,0.00,,SKC,1.39,VWS V14.01,2013-10-16 19:47:00,
2013-10-16 14:48:00,50.2,46.8,30.04,NNW,345,5.0,7.0,88,0.00,,SKC,1.39,VWS V14.01,2013-10-16 19:48:00,
2013-10-16 14:49:00,50.2,46.8,30.03,North,355,4.0,9.0,88,0.00,,SKC,1.39,VWS V14.01,2013-10-16 19:49:00,
2013-10-16 14:50:00,50.2,46.8,30.03,NNE,17,10.0,12.0,88,0.00,,SKC,1.39,VWS V14.01,2013-10-16 19:50:00,
2013-10-16 14:51:00,51.8,48.4,30.03,NNW,327,4.0,10.0,88,0.00,,SKC,1.39,VWS V14.01,2013-10-16 19:51:00,
2013-10-16 14:52:00,52.6,49.2,30.02,NNW,333,6.0,6.0,88,0.00,,SKC,1.39,VWS V14.01,2013-10-16 19:52:00,
2013-10-16 14:53:00,51.8,48.4,30.03,North,5,3.0,10.0,88,0.00,,SKC,1.39,VWS V14.01,2013-10-16 19:53:00,
2013-10-16 14:54:00,51.8,48.4,30.03,North,355,5.0,10.0,88,0.00,,SKC,1.39,VWS V14.01,2013-10-16 19:54:00,
2013-10-16 14:55:00,51.8,48.4,30.03,North,351,4.0,10.0,88,0.00,,SKC,1.39,VWS V14.01,2013-10-16 19:55:00,
2013-10-16 14:56:00,51.9,48.5,30.03,North,360,6.0,7.0,88,0.00,,SKC,1.39,VWS V14.01,2013-10-16 19:56:00,
2013-10-16 14:57:00,52.5,49.0,30.02,NNW,348,4.0,7.0,88,0.00,,SKC,1.39,VWS V14.01,2013-10-16 19:57:00,
2013-10-16 14:58:00,51.9,48.5,30.03,NNW,337,5.0,12.0,88,0.00,,SKC,1.39,VWS V14.01,2013-10-16 19:58:00,
2013-10-16 14:59:00,51.9,48.5,30.02,NNW,329,6.0,13.0,88,0.00,,SKC,1.39,VWS V14.01,2013-10-16 19:59:00,
2013-10-16 15:00:00,51.9,48.5,30.03,North,9,2.0,8.0,88,0.00,,SKC,1.39,VWS V14.01,2013-10-16 20:00:00,
2013-10-16 15:01:00,51.9,48.5,30.02,NW,325,4.0,9.0,88,0.00,,SKC,1.39,VWS V14.01,2013-10-16 20:01:00,
2013-10-16 15:02:00,52.4,49.0,30.02,North,355,4.0,6.0,88,0.00,,SKC,1.39,VWS V14.01,2013-10-16 20:02:00,
2013-10-16 15:03:00,51.8,48.4,30.02,NNW,346,9.0,9.0,88,0.00,,SKC,1.39,VWS V14.01,2013-10-16 20:03:00,
2013-10-16 15:04:00,51.8,48.4,30.02,North,360,5.0,14.0,88,0.00,,SKC,1.39,VWS V14.01,2013-10-16 20:04:00,
2013-10-16 15:05:00,51.8,48.4,30.02,North,355,4.0,9.0,88,0.00,,SKC,1.39,VWS V14.01,2013-10-16 20:05:00,
2013-10-16 15:06:00,51.8,48.4,30.02,NNW,342,5.0,7.0,88,0.00,,SKC,1.39,VWS V14.01,2013-10-16 20:06:00,
2013-10-16 15:07:00,52.6,49.2,30.01,North,355,5.0,7.0,88,0.00,,SKC,1.39,VWS V14.01,2013-10-16 20:07:00,
2013-10-16 15:08:00,51.8,48.4,30.02,NW,324,4.0,10.0,88,0.00,,SKC,1.39,VWS V14.01,2013-10-16 20:08:00,
2013-10-16 15:09:00,51.8,48.4,30.02,NNE,25,7.0,9.0,88,0.00,,SKC,1.39,VWS V14.01,2013-10-16 20:09:00,
2013-10-16 15:10:00,51.9,48.5,30.02,NNW,333,7.0,7.0,88,0.00,,SKC,1.39,VWS V14.01,2013-10-16 20:10:00,
2013-10-16 15:11:00,51.9,48.5,30.02,NNW,327,4.0,7.0,88,0.00,,SKC,1.39,VWS V14.01,2013-10-16 20:11:00,
2013-10-16 15:12:00,52.8,49.3,30.01,NW,313,11.0,11.0,88,0.00,,SKC,1.39,VWS V14.01,2013-10-16 20:12:00,
2013-10-16 15:13:00,51.9,48.5,30.02,North,355,6.0,11.0,88,0.00,,SKC,1.39,VWS V14.01,2013-10-16 20:13:00,
2013-10-16 15:14:00,51.9,48.5,30.02,NNW,335,4.0,9.0,88,0.00,,SKC,1.39,VWS V14.01,2013-10-16 20:14:00,
2013-10-16 15:15:00,51.9,48.5,30.02,NW,321,4.0,7.0,88,0.00,,SKC,1.39,VWS V14.01,2013-10-16 20:15:00,
2013-10-16 15:16:00,51.9,48.5,30.02,NNE,13,5.0,8.0,88,0.00,,SKC,1.39,VWS V14.01,2013-10-16 20:16:00,
2013-10-16 15:17:00,52.9,49.5,30.01,NW,326,6.0,6.0,88,0.00,,SKC,1.39,VWS V14.01,2013-10-16 20:17:00,
2013-10-16 15:18:00,52.0,48.6,30.02,North,350,7.0,10.0,88,0.00,,SKC,1.39,VWS V14.01,2013-10-16 20:18:00,
2013-10-16 15:19:00,52.0,48.6,30.02,North,5,6.0,10.0,88,0.00,,SKC,1.39,VWS V14.01,2013-10-16 20:19:00,
2013-10-16 15:20:00,51.9,48.5,30.02,North,351,4.0,9.0,88,0.00,,SKC,1.39,VWS V14.01,2013-10-16 20:20:00,
2013-10-16 15:21:00,51.9,48.5,30.02,North,355,2.0,6.0,88,0.00,,SKC,1.39,VWS V14.01,2013-10-16 20:21:00,
2013-10-16 15:22:00,53.2,49.7,30.01,NNE,12,3.0,5.0,88,0.00,,SKC,1.39,VWS V14.01,2013-10-16 20:22:00,
2013-10-16 15:23:00,52.1,48.7,30.02,NW,306,11.0,11.0,88,0.00,,SKC,1.39,VWS V14.01,2013-10-16 20:23:00,
2013-10-16 15:24:00,52.1,48.7,30.02,North,350,5.0,11.0,88,0.00,,SKC,1.39,VWS V14.01,2013-10-16 20:24:00,
2013-10-16 15:25:00,52.1,48.7,30.02,NW,315,1.0,8.0,88,0.00,,SKC,1.39,VWS V14.01,2013-10-16 20:25:00,
2013-10-16 15:26:00,52.1,48.7,30.02,North,349,5.0,9.0,88,0.00,,SKC,1.39,VWS V14.01,2013-10-16 20:26:00,
2013-10-16 15:27:00,53.4,49.9,30.01,NNE,14,5.0,5.0,88,0.00,,SKC,1.39,VWS V14.01,2013-10-16 20:27:00,
2013-10-16 15:28:00,52.1,48.7,30.02,NNE,17,6.0,10.0,88,0.00,,SKC,1.39,VWS V14.01,2013-10-16 20:28:00,
2013-10-16 15:29:00,52.1,48.7,30.02,NNW,332,4.0,6.0,88,0.00,,SKC,1.39,VWS V14.01,2013-10-16 20:29:00,
2013-10-16 15:30:00,52.2,48.8,30.02,North,360,5.0,9.0,88,0.00,,SKC,1.39,VWS V14.01,2013-10-16 20:30:00,
2013-10-16 15:31:00,52.2,48.8,30.02,North,360,4.0,11.0,88,0.00,,SKC,1.39,VWS V14.01,2013-10-16 20:31:00,
2013-10-16 15:32:00,53.3,49.8,30.01,North,349,5.0,5.0,88,0.00,,SKC,1.39,VWS V14.01,2013-10-16 20:32:00,
2013-10-16 15:33:00,52.2,48.8,30.02,North,355,7.0,12.0,88,0.00,,SKC,1.39,VWS V14.01,2013-10-16 20:33:00,
2013-10-16 15:34:00,52.2,48.8,30.02,North,360,6.0,9.0,88,0.00,,SKC,1.39,VWS V14.01,2013-10-16 20:34:00,
2013-10-16 15:35:00,52.2,48.8,30.02,North,360,4.0,13.0,88,0.00,,SKC,1.39,VWS V14.01,2013-10-16 20:35:00,
2013-10-16 15:36:00,52.2,48.8,30.02,NNW,346,10.0,11.0,88,0.00,,SKC,1.39,VWS V14.01,2013-10-16 20:36:00,
2013-10-16 15:37:00,53.4,49.9,30.01,North,351,5.0,5.0,88,0.00,,SKC,1.39,VWS V14.01,2013-10-16 20:37:00,
2013-10-16 15:38:00,52.2,48.8,30.02,North,350,6.0,7.0,88,0.00,,SKC,1.39,VWS V14.01,2013-10-16 20:38:00,
2013-10-16 15:39:00,52.3,48.9,30.01,NNW,346,7.0,7.0,88,0.00,,SKC,1.39,VWS V14.01,2013-10-16 20:39:00,
2013-10-16 15:40:00,52.3,48.9,30.02,NNW,336,4.0,10.0,88,0.00,,SKC,1.39,VWS V14.01,2013-10-16 20:40:00,
2013-10-16 15:41:00,52.3,48.9,30.02,North,11,6.0,6.0,88,0.00,,SKC,1.39,VWS V14.01,2013-10-16 20:41:00,
2013-10-16 15:42:00,53.3,49.8,30.01,NNW,333,2.0,3.0,88,0.00,,SKC,1.39,VWS V14.01,2013-10-16 20:42:00,
2013-10-16 15:43:00,52.4,49.0,30.02,NW,309,3.0,7.0,88,0.00,,SKC,1.39,VWS V14.01,2013-10-16 20:43:00,
2013-10-16 15:44:00,52.4,49.0,30.02,NW,325,4.0,6.0,88,0.00,,SKC,1.39,VWS V14.01,2013-10-16 20:44:00,
2013-10-16 15:45:00,52.5,49.1,30.02,NNW,330,2.0,5.0,88,0.00,,SKC,1.39,VWS V14.01,2013-10-16 20:45:00,
2013-10-16 15:46:00,52.5,49.1,30.02,NNW,330,0.0,2.0,88,0.00,,SKC,1.39,VWS V14.01,2013-10-16 20:46:00,
2013-10-16 15:47:00,53.3,49.8,30.01,NNW,337,3.0,3.0,88,0.00,,SKC,1.39,VWS V14.01,2013-10-16 20:47:00,
2013-10-16 15:48:00,52.7,49.2,30.02,NNE,12,5.0,7.0,88,0.00,,SKC,1.39,VWS V14.01,2013-10-16 20:48:00,
2013-10-16 15:49:00,52.7,49.2,30.02,North,9,5.0,10.0,88,0.00,,SKC,1.39,VWS V14.01,2013-10-16 20:49:00,
2013-10-16 15:50:00,52.7,49.2,30.02,NNW,348,3.0,11.0,88,0.00,,SKC,1.39,VWS V14.01,2013-10-16 20:50:00,
2013-10-16 15:51:00,52.6,49.2,30.02,NNE,18,9.0,11.0,88,0.00,,SKC,1.39,VWS V14.01,2013-10-16 20:51:00,
2013-10-16 15:52:00,53.4,49.9,30.01,NNE,12,5.0,6.0,88,0.00,,SKC,1.39,VWS V14.01,2013-10-16 20:52:00,
2013-10-16 15:53:00,52.6,49.2,30.02,NW,325,10.0,10.0,88,0.00,,SKC,1.39,VWS V14.01,2013-10-16 20:53:00,
2013-10-16 15:54:00,52.6,49.2,30.02,North,349,8.0,13.0,88,0.00,,SKC,1.39,VWS V14.01,2013-10-16 20:54:00,
2013-10-16 15:55:00,52.5,49.1,30.02,North,351,7.0,9.0,88,0.00,,SKC,1.39,VWS V14.01,2013-10-16 20:55:00,
2013-10-16 15:56:00,52.5,49.1,30.02,North,5,9.0,12.0,88,0.00,,SKC,1.39,VWS V14.01,2013-10-16 20:56:00,
2013-10-16 15:57:00,53.5,50.0,30.01,North,5,5.0,5.0,88,0.00,,SKC,1.39,VWS V14.01,2013-10-16 20:57:00,
2013-10-16 15:58:00,52.4,49.0,30.02,NNW,342,11.0,12.0,88,0.00,,SKC,1.39,VWS V14.01,2013-10-16 20:58:00,
2013-10-16 15:59:00,52.4,49.0,30.02,North,360,9.0,12.0,88,0.00,,SKC,1.39,VWS V14.01,2013-10-16 20:59:00,
2013-10-16 16:00:00,52.4,49.0,30.02,North,360,5.0,10.0,88,0.00,,SKC,1.39,VWS V14.01,2013-10-16 21:00:00,
2013-10-16 16:01:00,52.4,49.0,30.02,NNW,329,3.0,6.0,88,0.00,,SKC,1.39,VWS V14.01,2013-10-16 21:01:00,
2013-10-16 16:02:00,53.6,50.1,30.01,North,355,3.0,5.0,88,0.00,,SKC,1.39,VWS V14.01,2013-10-16 21:02:00,
2013-10-16 16:03:00,52.5,49.1,30.01,NNE,17,5.0,9.0,88,0.00,,SKC,1.39,VWS V14.01,2013-10-16 21:03:00,
2013-10-16 16:04:00,52.5,49.1,30.01,North,360,7.0,11.0,88,0.00,,SKC,1.39,VWS V14.01,2013-10-16 21:04:00,
2013-10-16 16:05:00,52.6,49.2,30.01,NNW,345,7.0,11.0,88,0.00,,SKC,1.39,VWS V14.01,2013-10-16 21:05:00,
2013-10-16 16:06:00,52.6,49.2,30.01,NE,36,4.0,7.0,88,0.00,,SKC,1.39,VWS V14.01,2013-10-16 21:06:00,
2013-10-16 16:07:00,53.8,50.3,30.01,NNW,348,5.0,9.0,88,0.00,,SKC,1.39,VWS V14.01,2013-10-16 21:07:00,
2013-10-16 16:08:00,52.7,49.2,30.01,NNW,342,2.0,5.0,88,0.00,,SKC,1.39,VWS V14.01,2013-10-16 21:08:00,
2013-10-16 16:09:00,52.7,49.2,30.01,NNW,334,4.0,9.0,88,0.00,,SKC,1.39,VWS V14.01,2013-10-16 21:09:00,
2013-10-16 16:10:00,52.8,49.3,30.01,NNW,340,2.0,6.0,88,0.00,,SKC,1.39,VWS V14.01,2013-10-16 21:10:00,
2013-10-16 16:11:00,52.8,49.3,30.01,NW,317,9.0,11.0,88,0.00,,SKC,1.39,VWS V14.01,2013-10-16 21:11:00,
2013-10-16 16:12:00,53.7,50.2,30.02,North,350,6.0,7.0,88,0.00,,SKC,1.39,VWS V14.01,2013-10-16 21:12:00,
2013-10-16 16:13:00,52.8,49.3,30.01,North,360,6.0,7.0,88,0.00,,SKC,1.39,VWS V14.01,2013-10-16 21:13:00,
2013-10-16 16:14:00,52.9,49.5,30.01,North,360,5.0,7.0,88,0.00,,SKC,1.39,VWS V14.01,2013-10-16 21:14:00,
2013-10-16 16:15:00,52.9,49.5,30.01,North,5,4.0,7.0,88,0.00,,SKC,1.39,VWS V14.01,2013-10-16 21:15:00,
2013-10-16 16:16:00,53.0,49.5,30.01,NNE,22,3.0,6.0,88,0.00,,SKC,1.39,VWS V14.01,2013-10-16 21:16:00,
2013-10-16 16:17:00,53.7,50.2,30.01,North,360,5.0,5.0,88,0.00,,SKC,1.39,VWS V14.01,2013-10-16 21:17:00,
2013-10-16 16:18:00,53.0,49.5,30.01,NNW,338,3.0,6.0,88,0.00,,SKC,1.39,VWS V14.01,2013-10-16 21:18:00,
2013-10-16 16:19:00,53.1,49.7,30.01,NW,317,0.0,4.0,88,0.00,,SKC,1.39,VWS V14.01,2013-10-16 21:19:00,
2013-10-16 16:20:00,53.2,49.7,30.01,NNE,12,5.0,6.0,88,0.00,,SKC,1.39,VWS V14.01,2013-10-16 21:20:00,
2013-10-16 16:21:00,53.3,49.8,30.01,NNE,12,5.0,5.0,88,0.00,,SKC,1.39,VWS V14.01,2013-10-16 21:21:00,
2013-10-16 16:22:00,53.7,50.2,30.01,North,355,2.0,4.0,88,0.00,,SKC,1.39,VWS V14.01,2013-10-16 21:22:00,
2013-10-16 16:23:00,53.4,49.9,30.01,NW,324,3.0,4.0,88,0.00,,SKC,1.39,VWS V14.01,2013-10-16 21:23:00,
2013-10-16 16:24:00,53.4,49.9,30.01,NNW,346,3.0,10.0,88,0.00,,SKC,1.39,VWS V14.01,2013-10-16 21:24:00,
2013-10-16 16:25:00,53.4,49.9,30.01,North,360,1.0,7.0,88,0.00,,SKC,1.39,VWS V14.01,2013-10-16 21:25:00,
2013-10-16 16:26:00,53.4,49.9,30.01,NW,326,3.0,7.0,88,0.00,,SKC,1.39,VWS V14.01,2013-10-16 21:26:00,
2013-10-16 16:27:00,53.7,50.2,30.01,North,5,3.0,3.0,88,0.00,,SKC,1.39,VWS V14.01,2013-10-16 21:27:00,
2013-10-16 16:28:00,53.4,49.9,30.01,North,355,3.0,9.0,88,0.00,,SKC,1.39,VWS V14.01,2013-10-16 21:28:00,
2013-10-16 16:29:00,53.3,49.8,30.01,NNW,332,1.0,6.0,88,0.00,,SKC,1.39,VWS V14.01,2013-10-16 21:29:00,
2013-10-16 16:30:00,53.3,49.8,30.01,North,351,4.0,5.0,88,0.00,,SKC,1.39,VWS V14.01,2013-10-16 21:30:00,
2013-10-16 16:31:00,53.4,49.9,30.01,NNW,327,2.0,7.0,88,0.00,,SKC,1.39,VWS V14.01,2013-10-16 21:31:00,
2013-10-16 16:32:00,53.8,50.3,30.01,North,360,3.0,3.0,88,0.00,,SKC,1.39,VWS V14.01,2013-10-16 21:32:00,
2013-10-16 16:33:00,53.3,49.8,30.01,NNW,338,3.0,4.0,88,0.00,,SKC,1.39,VWS V14.01,2013-10-16 21:33:00,
2013-10-16 16:34:00,53.4,49.9,30.01,North,5,2.0,6.0,88,0.00,,SKC,1.39,VWS V14.01,2013-10-16 21:34:00,
2013-10-16 16:35:00,53.4,49.9,30.01,NNW,335,2.0,6.0,88,0.00,,SKC,1.39,VWS V14.01,2013-10-16 21:35:00,
2013-10-16 16:36:00,53.4,49.9,30.01,NNW,344,4.0,5.0,88,0.00,,SKC,1.39,VWS V14.01,2013-10-16 21:36:00,
2013-10-16 16:37:00,53.8,50.3,30.01,NW,314,5.0,7.0,88,0.00,,SKC,1.39,VWS V14.01,2013-10-16 21:37:00,
2013-10-16 16:38:00,53.4,49.9,30.01,NNW,328,4.0,5.0,88,0.00,,SKC,1.39,VWS V14.01,2013-10-16 21:38:00,
2013-10-16 16:39:00,53.4,49.9,30.01,North,360,4.0,9.0,88,0.00,,SKC,1.39,VWS V14.01,2013-10-16 21:39:00,
2013-10-16 16:40:00,53.3,49.8,30.01,NNW,333,3.0,4.0,88,0.00,,SKC,1.39,VWS V14.01,2013-10-16 21:40:00,
2013-10-16 16:41:00,53.3,49.8,30.01,North,11,2.0,7.0,88,0.00,,SKC,1.39,VWS V14.01,2013-10-16 21:41:00,
2013-10-16 16:42:00,53.9,50.4,30.01,North,360,4.0,6.0,88,0.00,,SKC,1.39,VWS V14.01,2013-10-16 21:42:00,
2013-10-16 16:43:00,53.3,49.8,30.01,NNE,13,4.0,12.0,88,0.00,,SKC,1.39,VWS V14.01,2013-10-16 21:43:00,
2013-10-16 16:44:00,53.3,49.8,30.02,North,11,7.0,7.0,88,0.00,,SKC,1.39,VWS V14.01,2013-10-16 21:44:00,
2013-10-16 16:45:00,53.3,49.8,30.02,North,350,3.0,7.0,88,0.00,,SKC,1.39,VWS V14.01,2013-10-16 21:45:00,
2013-10-16 16:46:00,53.3,49.8,30.01,NNW,340,1.0,3.0,88,0.00,,SKC,1.39,VWS V14.01,2013-10-16 21:46:00,
2013-10-16 16:47:00,54.1,50.6,30.02,NNW,336,0.0,5.0,88,0.00,,SKC,1.39,VWS V14.01,2013-10-16 21:47:00,
2013-10-16 16:48:00,53.4,49.9,30.01,North,360,9.0,9.0,88,0.00,,SKC,1.39,VWS V14.01,2013-10-16 21:48:00,
2013-10-16 16:49:00,53.4,49.9,30.01,NNE,30,6.0,9.0,88,0.00,,SKC,1.39,VWS V14.01,2013-10-16 21:49:00,
2013-10-16 16:50:00,53.4,49.9,30.01,NNW,344,6.0,7.0,88,0.00,,SKC,1.39,VWS V14.01,2013-10-16 21:50:00,
2013-10-16 16:51:00,53.4,49.9,30.01,North,5,4.0,7.0,88,0.00,,SKC,1.39,VWS V14.01,2013-10-16 21:51:00,
2013-10-16 16:52:00,54.2,50.7,30.01,NNW,342,1.0,3.0,88,0.00,,SKC,1.39,VWS V14.01,2013-10-16 21:52:00,
2013-10-16 16:53:00,53.5,50.0,30.01,North,360,1.0,9.0,88,0.00,,SKC,1.39,VWS V14.01,2013-10-16 21:53:00,
2013-10-16 16:54:00,53.5,50.0,30.01,North,9,4.0,8.0,88,0.00,,SKC,1.39,VWS V14.01,2013-10-16 21:54:00,
2013-10-16 16:55:00,53.5,50.0,30.01,North,360,3.0,7.0,88,0.00,,SKC,1.39,VWS V14.01,2013-10-16 21:55:00,
2013-10-16 16:56:00,53.5,50.0,30.01,North,355,2.0,7.0,88,0.00,,SKC,1.39,VWS V14.01,2013-10-16 21:56:00,
2013-10-16 16:57:00,54.4,50.9,30.01,NNW,339,4.0,4.0,88,0.00,,SKC,1.39,VWS V14.01,2013-10-16 21:57:00,
2013-10-16 16:58:00,53.5,50.0,30.01,North,9,6.0,7.0,88,0.00,,SKC,1.39,VWS V14.01,2013-10-16 21:58:00,
2013-10-16 16:59:00,53.6,50.1,30.01,North,5,2.0,9.0,88,0.00,,SKC,1.39,VWS V14.01,2013-10-16 21:59:00,
2013-10-16 17:00:00,53.6,50.1,30.01,North,355,5.0,5.0,88,0.00,,SKC,1.39,VWS V14.01,2013-10-16 22:00:00,
2013-10-16 17:01:00,53.6,50.1,30.01,North,355,3.0,5.0,88,0.00,,SKC,1.39,VWS V14.01,2013-10-16 22:01:00,
2013-10-16 17:02:00,54.4,51.2,30.01,NNW,329,8.0,8.0,89,0.00,,SKC,1.39,VWS V14.01,2013-10-16 22:02:00,
2013-10-16 17:03:00,53.7,50.2,30.01,North,350,0.0,3.0,88,0.00,,SKC,1.39,VWS V14.01,2013-10-16 22:03:00,
2013-10-16 17:04:00,53.8,50.3,30.01,North,355,7.0,10.0,88,0.00,,SKC,1.39,VWS V14.01,2013-10-16 22:04:00,
2013-10-16 17:05:00,53.8,50.3,30.01,North,351,6.0,11.0,88,0.00,,SKC,1.39,VWS V14.01,2013-10-16 22:05:00,
2013-10-16 17:06:00,53.8,50.3,30.01,North,360,6.0,9.0,88,0.00,,SKC,1.39,VWS V14.01,2013-10-16 22:06:00,
2013-10-16 17:07:00,54.4,51.2,30.02,North,350,3.0,10.0,89,0.00,,SKC,1.39,VWS V14.01,2013-10-16 22:07:00,
2013-10-16 17:08:00,53.8,50.3,30.02,North,355,5.0,9.0,88,0.00,,SKC,1.39,VWS V14.01,2013-10-16 22:08:00,
2013-10-16 17:09:00,53.8,50.3,30.01,NNW,340,6.0,7.0,88,0.00,,SKC,1.39,VWS V14.01,2013-10-16 22:09:00,
2013-10-16 17:10:00,53.8,50.3,30.01,NNE,24,6.0,10.0,88,0.00,,SKC,1.39,VWS V14.01,2013-10-16 22:10:00,
2013-10-16 17:11:00,53.7,50.2,30.02,North,360,2.0,7.0,88,0.00,,SKC,1.39,VWS V14.01,2013-10-16 22:11:00,
2013-10-16 17:12:00,54.4,51.2,30.01,NNW,342,5.0,5.0,89,0.00,,SKC,1.39,VWS V14.01,2013-10-16 22:12:00,
2013-10-16 17:13:00,53.7,50.2,30.02,North,360,3.0,9.0,88,0.00,,SKC,1.39,VWS V14.01,2013-10-16 22:13:00,
2013-10-16 17:14:00,53.7,50.2,30.02,NNW,344,5.0,5.0,88,0.00,,SKC,1.39,VWS V14.01,2013-10-16 22:14:00,
2013-10-16 17:15:00,53.7,50.2,30.01,North,355,5.0,9.0,88,0.00,,SKC,1.39,VWS V14.01,2013-10-16 22:15:00,
2013-10-16 17:16:00,53.7,50.2,30.01,NNW,331,4.0,6.0,88,0.00,,SKC,1.39,VWS V14.01,2013-10-16 22:16:00,
2013-10-16 17:17:00,54.5,51.3,30.01,NNW,340,8.0,9.0,89,0.00,,SKC,1.39,VWS V14.01,2013-10-16 22:17:00,
2013-10-16 17:18:00,53.7,50.2,30.01,NNW,346,6.0,6.0,88,0.00,,SKC,1.39,VWS V14.01,2013-10-16 22:18:00,
2013-10-16 17:19:00,53.6,50.1,30.01,NNW,341,3.0,6.0,88,0.00,,SKC,1.39,VWS V14.01,2013-10-16 22:19:00,
2013-10-16 17:20:00,53.7,50.2,30.01,North,355,1.0,5.0,88,0.00,,SKC,1.39,VWS V14.01,2013-10-16 22:20:00,
2013-10-16 17:21:00,53.7,50.2,30.01,North,355,4.0,5.0,88,0.00,,SKC,1.39,VWS V14.01,2013-10-16 22:21:00,
2013-10-16 17:22:00,54.6,51.4,30.01,North,355,3.0,3.0,89,0.00,,SKC,1.39,VWS V14.01,2013-10-16 22:22:00,
2013-10-16 17:23:00,53.7,50.2,30.01,NNW,329,5.0,9.0,88,0.00,,SKC,1.39,VWS V14.01,2013-10-16 22:23:00,
2013-10-16 17:24:00,53.7,50.2,30.01,NW,309,3.0,5.0,88,0.00,,SKC,1.39,VWS V14.01,2013-10-16 22:24:00,
2013-10-16 17:25:00,53.7,50.2,30.01,North,360,2.0,7.0,88,0.00,,SKC,1.39,VWS V14.01,2013-10-16 22:25:00,
2013-10-16 17:26:00,53.7,50.2,30.01,North,355,4.0,6.0,88,0.00,,SKC,1.39,VWS V14.01,2013-10-16 22:26:00,
2013-10-16 17:27:00,54.6,51.4,30.01,NNE,16,5.0,6.0,89,0.00,,SKC,1.39,VWS V14.01,2013-10-16 22:27:00,
2013-10-16 17:28:00,53.7,50.2,30.01,North,350,6.0,7.0,88,0.00,,SKC,1.39,VWS V14.01,2013-10-16 22:28:00,
2013-10-16 17:29:00,53.7,50.2,30.01,North,355,3.0,6.0,88,0.00,,SKC,1.39,VWS V14.01,2013-10-16 22:29:00,
2013-10-16 17:30:00,53.8,50.3,30.01,North,5,3.0,5.0,88,0.00,,SKC,1.39,VWS V14.01,2013-10-16 22:30:00,
2013-10-16 17:31:00,53.8,50.3,30.01,North,351,5.0,6.0,88,0.00,,SKC,1.39,VWS V14.01,2013-10-16 22:31:00,
2013-10-16 17:32:00,54.8,51.6,30.01,NNE,20,7.0,7.0,89,0.00,,SKC,1.39,VWS V14.01,2013-10-16 22:32:00,
2013-10-16 17:33:00,53.8,50.3,30.01,NNE,13,4.0,6.0,88,0.00,,SKC,1.39,VWS V14.01,2013-10-16 22:33:00,
2013-10-16 17:34:00,53.8,50.3,30.01,NNE,15,3.0,6.0,88,0.00,,SKC,1.39,VWS V14.01,2013-10-16 22:34:00,
2013-10-16 17:35:00,53.9,50.4,30.01,North,355,6.0,9.0,88,0.00,,SKC,1.39,VWS V14.01,2013-10-16 22:35:00,
2013-10-16 17:36:00,53.8,50.3,30.01,NW,319,0.0,7.0,88,0.00,,SKC,1.39,VWS V14.01,2013-10-16 22:36:00,
2013-10-16 17:37:00,55.1,51.9,30.01,North,10,5.0,5.0,89,0.00,,SKC,1.39,VWS V14.01,2013-10-16 22:37:00,
2013-10-16 17:38:00,53.9,50.4,30.01,North,11,3.0,7.0,88,0.00,,SKC,1.39,VWS V14.01,2013-10-16 22:38:00,
2013-10-16 17:39:00,53.9,50.4,30.01,NNW,338,8.0,13.0,88,0.00,,SKC,1.39,VWS V14.01,2013-10-16 22:39:00,
2013-10-16 17:40:00,53.9,50.4,30.02,NNE,24,6.0,8.0,88,0.00,,SKC,1.39,VWS V14.01,2013-10-16 22:40:00,
2013-10-16 17:41:00,53.9,50.4,30.01,NW,325,2.0,6.0,88,0.00,,SKC,1.39,VWS V14.01,2013-10-16 22:41:00,
2013-10-16 17:42:00,55.3,52.1,30.01,NNE,14,5.0,5.0,89,0.00,,SKC,1.39,VWS V14.01,2013-10-16 22:42:00,
2013-10-16 17:43:00,54.0,50.5,30.01,North,360,2.0,6.0,88,0.00,,SKC,1.39,VWS V14.01,2013-10-16 22:43:00,
2013-10-16 17:44:00,54.0,50.5,30.02,NW,326,2.0,5.0,88,0.00,,SKC,1.39,VWS V14.01,2013-10-16 22:44:00,
2013-10-16 17:45:00,54.0,50.5,30.01,NNW,336,5.0,6.0,88,0.00,,SKC,1.39,VWS V14.01,2013-10-16 22:45:00,
2013-10-16 17:46:00,54.1,50.6,30.02,NNW,344,5.0,7.0,88,0.00,,SKC,1.39,VWS V14.01,2013-10-16 22:46:00,
2013-10-16 17:47:00,55.4,52.2,30.01,North,360,1.0,2.0,89,0.00,,SKC,1.39,VWS V14.01,2013-10-16 22:47:00,
2013-10-16 17:48:00,54.1,50.6,30.01,North,355,4.0,9.0,88,0.00,,SKC,1.39,VWS V14.01,2013-10-16 22:48:00,
2013-10-16 17:49:00,54.1,50.6,30.01,North,11,4.0,7.0,88,0.00,,SKC,1.39,VWS V14.01,2013-10-16 22:49:00,
2013-10-16 17:50:00,54.2,50.7,30.01,NNW,345,3.0,7.0,88,0.00,,SKC,1.39,VWS V14.01,2013-10-16 22:50:00,
2013-10-16 17:51:00,54.2,50.7,30.01,North,5,3.0,4.0,88,0.00,,SKC,1.39,VWS V14.01,2013-10-16 22:51:00,
2013-10-16 17:52:00,55.6,52.4,30.01,NNW,342,3.0,3.0,89,0.00,,SKC,1.39,VWS V14.01,2013-10-16 22:52:00,
2013-10-16 17:53:00,54.2,50.7,30.01,North,5,1.0,7.0,88,0.00,,SKC,1.39,VWS V14.01,2013-10-16 22:53:00,
2013-10-16 17:54:00,54.3,50.8,30.01,NNW,344,1.0,4.0,88,0.00,,SKC,1.39,VWS V14.01,2013-10-16 22:54:00,
2013-10-16 17:55:00,54.3,50.8,30.01,NNW,328,1.0,7.0,88,0.00,,SKC,1.39,VWS V14.01,2013-10-16 22:55:00,
2013-10-16 17:56:00,54.4,50.9,30.01,NNW,346,0.0,5.0,88,0.00,,SKC,1.39,VWS V14.01,2013-10-16 22:56:00,
2013-10-16 17:57:00,55.6,52.4,30.02,NNW,328,2.0,2.0,89,0.00,,SKC,1.39,VWS V14.01,2013-10-16 22:57:00,
2013-10-16 17:58:00,54.5,51.3,30.01,NNW,347,3.0,5.0,89,0.00,,SKC,1.39,VWS V14.01,2013-10-16 22:58:00,
2013-10-16 17:59:00,54.4,50.9,30.01,NNW,333,0.0,8.0,88,0.00,,SKC,1.39,VWS V14.01,2013-10-16 22:59:00,
2013-10-16 18:00:00,54.4,51.2,30.01,WNW,303,6.0,6.0,89,0.00,,SKC,1.39,VWS V14.01,2013-10-16 23:00:00,
2013-10-16 18:01:00,54.4,51.2,30.01,NNW,348,5.0,8.0,89,0.00,,SKC,1.39,VWS V14.01,2013-10-16 23:01:00,
2013-10-16 18:02:00,55.5,52.3,30.02,NNW,340,4.0,5.0,89,0.00,,SKC,1.39,VWS V14.01,2013-10-16 23:02:00,
2013-10-16 18:03:00,54.3,51.1,30.02,NNW,337,4.0,4.0,89,0.00,,SKC,1.39,VWS V14.01,2013-10-16 23:03:00,
2013-10-16 18:04:00,54.4,51.2,30.02,North,355,2.0,7.0,89,0.00,,SKC,1.39,VWS V14.01,2013-10-16 23:04:00,
2013-10-16 18:05:00,54.4,51.2,30.02,NNE,22,9.0,9.0,89,0.00,,SKC,1.39,VWS V14.01,2013-10-16 23:05:00,
2013-10-16 18:06:00,54.4,51.2,30.02,North,355,4.0,10.0,89,0.00,,SKC,1.39,VWS V14.01,2013-10-16 23:06:00,
2013-10-16 18:07:00,55.6,52.4,30.02,North,355,2.0,2.0,89,0.00,,SKC,1.39,VWS V14.01,2013-10-16 23:07:00,
2013-10-16 18:08:00,54.4,51.2,30.02,North,355,1.0,8.0,89,0.00,,SKC,1.39,VWS V14.01,2013-10-16 23:08:00,
2013-10-16 18:09:00,54.4,51.2,30.01,NNW,333,2.0,7.0,89,0.00,,SKC,1.39,VWS V14.01,2013-10-16 23:09:00,
2013-10-16 18:10:00,54.4,51.2,30.01,NNW,341,4.0,6.0,89,0.00,,SKC,1.39,VWS V14.01,2013-10-16 23:10:00,
2013-10-16 18:11:00,54.4,51.2,30.01,North,5,5.0,6.0,89,0.00,,SKC,1.39,VWS V14.01,2013-10-16 23:11:00,
2013-10-16 18:12:00,55.6,52.4,30.02,NW,319,2.0,3.0,89,0.00,,SKC,1.39,VWS V14.01,2013-10-16 23:12:00,
2013-10-16 18:13:00,54.4,51.2,30.02,NW,321,3.0,7.0,89,0.00,,SKC,1.39,VWS V14.01,2013-10-16 23:13:00,
2013-10-16 18:14:00,54.5,51.3,30.02,NNW,346,9.0,9.0,89,0.00,,SKC,1.39,VWS V14.01,2013-10-16 23:14:00,
2013-10-16 18:15:00,54.5,51.3,30.01,NNW,337,2.0,9.0,89,0.00,,SKC,1.39,VWS V14.01,2013-10-16 23:15:00,
2013-10-16 18:16:00,54.5,51.3,30.01,North,355,3.0,9.0,89,0.00,,SKC,1.39,VWS V14.01,2013-10-16 23:16:00,
2013-10-16 18:17:00,55.8,52.6,30.02,North,360,6.0,6.0,89,0.00,,SKC,1.39,VWS V14.01,2013-10-16 23:17:00,
2013-10-16 18:18:00,54.5,51.3,30.01,NNE,17,5.0,5.0,89,0.00,,SKC,1.39,VWS V14.01,2013-10-16 23:18:00,
2013-10-16 18:19:00,54.6,51.4,30.01,NNW,343,2.0,5.0,89,0.00,,SKC,1.39,VWS V14.01,2013-10-16 23:19:00,
2013-10-16 18:20:00,54.6,51.4,30.01,NNE,19,1.0,7.0,89,0.00,,SKC,1.39,VWS V14.01,2013-10-16 23:20:00,
2013-10-16 18:21:00,54.6,51.4,30.01,North,360,9.0,9.0,89,0.00,,SKC,1.39,VWS V14.01,2013-10-16 23:21:00,
2013-10-16 18:22:00,55.8,52.6,30.02,NNW,342,4.0,4.0,89,0.00,,SKC,1.39,VWS V14.01,2013-10-16 23:22:00,
2013-10-16 18:23:00,54.6,51.4,30.01,North,355,3.0,12.0,89,0.00,,SKC,1.39,VWS V14.01,2013-10-16 23:23:00,
2013-10-16 18:24:00,54.6,51.4,30.01,North,355,7.0,12.0,89,0.00,,SKC,1.39,VWS V14.01,2013-10-16 23:24:00,
2013-10-16 18:25:00,54.6,51.4,30.01,NNE,26,6.0,9.0,89,0.00,,SKC,1.39,VWS V14.01,2013-10-16 23:25:00,
2013-10-16 18:26:00,54.6,51.4,30.01,NNE,12,2.0,9.0,89,0.00,,SKC,1.39,VWS V14.01,2013-10-16 23:26:00,
2013-10-16 18:27:00,56.0,52.8,30.02,NNW,340,2.0,2.0,89,0.00,,SKC,1.39,VWS V14.01,2013-10-16 23:27:00,
2013-10-16 18:28:00,54.7,51.5,30.01,North,360,7.0,7.0,89,0.00,,SKC,1.39,VWS V14.01,2013-10-16 23:28:00,
2013-10-16 18:29:00,54.7,51.5,30.01,NNW,344,0.0,7.0,89,0.00,,SKC,1.39,VWS V14.01,2013-10-16 23:29:00,
2013-10-16 18:30:00,54.8,51.6,30.01,NNW,344,1.0,4.0,89,0.00,,SKC,1.39,VWS V14.01,2013-10-16 23:30:00,
2013-10-16 18:31:00,54.9,51.7,30.01,NNW,343,4.0,9.0,89,0.00,,SKC,1.39,VWS V14.01,2013-10-16 23:31:00,
2013-10-16 18:32:00,56.0,52.8,30.02,North,11,3.0,3.0,89,0.00,,SKC,1.39,VWS V14.01,2013-10-16 23:32:00,
2013-10-16 18:33:00,55.0,51.8,30.01,North,355,3.0,6.0,89,0.00,,SKC,1.39,VWS V14.01,2013-10-16 23:33:00,
2013-10-16 18:34:00,55.0,51.8,30.01,North,5,4.0,6.0,89,0.00,,SKC,1.39,VWS V14.01,2013-10-16 23:34:00,
2013-10-16 18:35:00,55.1,51.9,30.01,North,349,3.0,6.0,89,0.00,,SKC,1.39,VWS V14.01,2013-10-16 23:35:00,
2013-10-16 18:36:00,55.1,51.9,30.01,North,360,4.0,9.0,89,0.00,,SKC,1.39,VWS V14.01,2013-10-16 23:36:00,
2013-10-16 18:37:00,56.0,52.8,30.02,NNW,337,2.0,3.0,89,0.00,,SKC,1.39,VWS V14.01,2013-10-16 23:37:00,
2013-10-16 18:38:00,55.1,51.9,30.01,NNW,345,3.0,9.0,89,0.00,,SKC,1.39,VWS V14.01,2013-10-16 23:38:00,
2013-10-16 18:39:00,55.2,52.0,30.01,NNW,335,3.0,6.0,89,0.00,,SKC,1.39,VWS V14.01,2013-10-16 23:39:00,
2013-10-16 18:40:00,55.2,52.0,30.01,NNW,346,3.0,6.0,89,0.00,,SKC,1.39,VWS V14.01,2013-10-16 23:40:00,
2013-10-16 18:41:00,55.3,52.1,30.01,North,5,6.0,9.0,89,0.00,,SKC,1.39,VWS V14.01,2013-10-16 23:41:00,
2013-10-16 18:42:00,56.1,52.9,30.02,NNW,346,4.0,4.0,89,0.00,,SKC,1.39,VWS V14.01,2013-10-16 23:42:00,
2013-10-16 18:43:00,55.3,52.1,30.01,North,360,4.0,9.0,89,0.00,,SKC,1.39,VWS V14.01,2013-10-16 23:43:00,
2013-10-16 18:44:00,55.3,52.1,30.01,North,355,3.0,5.0,89,0.00,,SKC,1.39,VWS V14.01,2013-10-16 23:44:00,
2013-10-16 18:45:00,55.4,52.2,30.02,North,360,2.0,5.0,89,0.00,,SKC,1.39,VWS V14.01,2013-10-16 23:45:00,
2013-10-16 18:46:00,55.4,53.1,30.01,NNW,329,0.0,5.0,92,0.00,,SKC,1.39,VWS V14.01,2013-10-16 23:46:00,
2013-10-16 18:47:00,56.2,53.0,30.02,North,350,0.0,0.0,89,0.00,,SKC,1.39,VWS V14.01,2013-10-16 23:47:00,
2013-10-16 18:48:00,55.5,52.3,30.01,NNW,345,0.0,5.0,89,0.00,,SKC,1.39,VWS V14.01,2013-10-16 23:48:00,
2013-10-16 18:49:00,55.5,52.3,30.01,North,349,3.0,3.0,89,0.00,,SKC,1.39,VWS V14.01,2013-10-16 23:49:00,
2013-10-16 18:50:00,55.5,52.3,30.01,NNW,343,0.0,6.0,89,0.00,,SKC,1.39,VWS V14.01,2013-10-16 23:50:00,
2013-10-16 18:51:00,55.6,52.4,30.01,NNW,345,2.0,4.0,89,0.00,,SKC,1.39,VWS V14.01,2013-10-16 23:51:00,
2013-10-16 18:52:00,56.2,53.0,30.02,North,350,0.0,4.0,89,0.00,,SKC,1.39,VWS V14.01,2013-10-16 23:52:00,
2013-10-16 18:53:00,55.6,52.4,30.02,North,5,0.0,7.0,89,0.00,,SKC,1.39,VWS V14.01,2013-10-16 23:53:00,
2013-10-16 18:54:00,55.6,52.4,30.02,NW,319,4.0,5.0,89,0.00,,SKC,1.39,VWS V14.01,2013-10-16 23:54:00,
2013-10-16 18:55:00,55.5,52.3,30.02,NNW,327,2.0,5.0,89,0.00,,SKC,1.39,VWS V14.01,2013-10-16 23:55:00,
2013-10-16 18:56:00,55.5,52.3,30.02,NNW,329,1.0,4.0,89,0.00,,SKC,1.39,VWS V14.01,2013-10-16 23:56:00,
2013-10-16 18:57:00,56.2,53.0,30.02,NNW,344,1.0,1.0,89,0.00,,SKC,1.39,VWS V14.01,2013-10-16 23:57:00,
2013-10-16 18:58:00,55.5,52.3,30.01,NNW,340,5.0,6.0,89,0.00,,SKC,1.39,VWS V14.01,2013-10-16 23:58:00,
2013-10-16 18:59:00,55.5,52.3,30.02,NNW,334,4.0,7.0,89,0.00,,SKC,1.39,VWS V14.01,2013-10-16 23:59:00,
2013-10-16 19:00:00,55.5,52.3,30.02,NNW,344,5.0,9.0,89,0.00,,SKC,1.39,VWS V14.01,2013-10-17 00:00:00,
2013-10-16 19:01:00,55.5,52.3,30.02,NW,319,2.0,6.0,89,0.00,,SKC,1.39,VWS V14.01,2013-10-17 00:01:00,
2013-10-16 19:02:00,56.3,53.1,30.02,NNE,14,4.0,5.0,89,0.00,,SKC,1.39,VWS V14.01,2013-10-17 00:02:00,
2013-10-16 19:03:00,55.5,52.3,30.02,North,360,4.0,7.0,89,0.00,,SKC,1.39,VWS V14.01,2013-10-17 00:03:00,
2013-10-16 19:04:00,55.5,52.3,30.02,NNW,329,1.0,7.0,89,0.00,,SKC,1.39,VWS V14.01,2013-10-17 00:04:00,
2013-10-16 19:05:00,55.5,52.3,30.02,North,355,2.0,5.0,89,0.00,,SKC,1.39,VWS V14.01,2013-10-17 00:05:00,
2013-10-16 19:06:00,55.5,52.3,30.02,NNW,342,4.0,5.0,89,0.00,,SKC,1.39,VWS V14.01,2013-10-17 00:06:00,
2013-10-16 19:07:00,56.3,53.1,30.02,North,360,1.0,1.0,89,0.00,,SKC,1.39,VWS V14.01,2013-10-17 00:07:00,
2013-10-16 19:08:00,55.6,52.4,30.02,NNW,347,0.0,4.0,89,0.00,,SKC,1.39,VWS V14.01,2013-10-17 00:08:00,
2013-10-16 19:09:00,55.6,52.4,30.02,North,350,1.0,2.0,89,0.00,,SKC,1.39,VWS V14.01,2013-10-17 00:09:00,
2013-10-16 19:10:00,55.6,52.4,30.02,NW,318,3.0,4.0,89,0.00,,SKC,1.39,VWS V14.01,2013-10-17 00:10:00,
2013-10-16 19:11:00,55.7,52.5,30.02,NW,319,3.0,3.0,89,0.00,,SKC,1.39,VWS V14.01,2013-10-17 00:11:00,
2013-10-16 19:12:00,56.3,53.1,30.03,NNW,346,1.0,3.0,89,0.00,,SKC,1.39,VWS V14.01,2013-10-17 00:12:00,
2013-10-16 19:13:00,55.7,52.5,30.02,NW,323,2.0,3.0,89,0.00,,SKC,1.39,VWS V14.01,2013-10-17 00:13:00,
2013-10-16 19:14:00,55.8,52.6,30.02,NE,36,3.0,6.0,89,0.00,,SKC,1.39,VWS V14.01,2013-10-17 00:14:00,
2013-10-16 19:15:00,55.8,52.6,30.02,North,355,1.0,5.0,89,0.00,,SKC,1.39,VWS V14.01,2013-10-17 00:15:00,
2013-10-16 19:16:00,55.8,52.6,30.02,North,349,2.0,6.0,89,0.00,,SKC,1.39,VWS V14.01,2013-10-17 00:16:00,
2013-10-16 19:17:00,56.3,53.1,30.03,NNW,338,1.0,1.0,89,0.00,,SKC,1.39,VWS V14.01,2013-10-17 00:17:00,
2013-10-16 19:18:00,55.8,52.6,30.02,NW,323,2.0,5.0,89,0.00,,SKC,1.39,VWS V14.01,2013-10-17 00:18:00,
2013-10-16 19:19:00,55.8,52.6,30.02,NNE,30,2.0,4.0,89,0.00,,SKC,1.39,VWS V14.01,2013-10-17 00:19:00,
2013-10-16 19:20:00,55.9,52.7,30.02,NNW,338,1.0,4.0,89,0.00,,SKC,1.39,VWS V14.01,2013-10-17 00:20:00,
2013-10-16 19:21:00,55.9,52.7,30.02,NNW,344,2.0,5.0,89,0.00,,SKC,1.39,VWS V14.01,2013-10-17 00:21:00,
2013-10-16 19:22:00,56.3,53.1,30.03,NNW,341,2.0,3.0,89,0.00,,SKC,1.39,VWS V14.01,2013-10-17 00:22:00,
2013-10-16 19:23:00,55.9,52.7,30.02,NNW,342,1.0,5.0,89,0.00,,SKC,1.39,VWS V14.01,2013-10-17 00:23:00,
2013-10-16 19:24:00,55.9,52.7,30.02,NNW,345,3.0,3.0,89,0.00,,SKC,1.39,VWS V14.01,2013-10-17 00:24:00,
2013-10-16 19:25:00,56.0,52.8,30.02,NNW,340,2.0,5.0,89,0.00,,SKC,1.39,VWS V14.01,2013-10-17 00:25:00,
2013-10-16 19:26:00,56.0,52.8,30.02,NNW,341,2.0,4.0,89,0.00,,SKC,1.39,VWS V14.01,2013-10-17 00:26:00,
2013-10-16 19:27:00,56.2,53.0,30.03,NW,317,0.0,2.0,89,0.00,,SKC,1.39,VWS V14.01,2013-10-17 00:27:00,
2013-10-16 19:28:00,56.0,52.8,30.02,NNW,334,3.0,5.0,89,0.00,,SKC,1.39,VWS V14.01,2013-10-17 00:28:00,
2013-10-16 19:29:00,56.0,52.8,30.02,North,355,3.0,5.0,89,0.00,,SKC,1.39,VWS V14.01,2013-10-17 00:29:00,
2013-10-16 19:30:00,56.0,52.8,30.02,North,11,0.0,5.0,89,0.00,,SKC,1.39,VWS V14.01,2013-10-17 00:30:00,
2013-10-16 19:31:00,56.0,52.8,30.02,North,350,4.0,7.0,89,0.00,,SKC,1.39,VWS V14.01,2013-10-17 00:31:00,
2013-10-16 19:32:00,56.2,53.0,30.03,NW,318,0.0,2.0,89,0.00,,SKC,1.39,VWS V14.01,2013-10-17 00:32:00,
2013-10-16 19:33:00,56.0,52.8,30.02,NNW,342,4.0,6.0,89,0.00,,SKC,1.39,VWS V14.01,2013-10-17 00:33:00,
2013-10-16 19:34:00,56.0,52.8,30.02,NNW,338,4.0,5.0,89,0.00,,SKC,1.39,VWS V14.01,2013-10-17 00:34:00,
2013-10-16 19:35:00,56.0,52.8,30.02,NNW,336,0.0,4.0,89,0.00,,SKC,1.39,VWS V14.01,2013-10-17 00:35:00,
2013-10-16 19:36:00,56.0,52.8,30.02,NNW,340,5.0,5.0,89,0.00,,SKC,1.39,VWS V14.01,2013-10-17 00:36:00,
2013-10-16 19:37:00,56.2,53.0,30.03,NW,318,0.0,1.0,89,0.00,,SKC,1.39,VWS V14.01,2013-10-17 00:37:00,
2013-10-16 19:38:00,56.1,52.9,30.02,NNW,344,3.0,3.0,89,0.00,,SKC,1.39,VWS V14.01,2013-10-17 00:38:00,
2013-10-16 19:39:00,56.1,52.9,30.02,NNW,345,0.0,3.0,89,0.00,,SKC,1.39,VWS V14.01,2013-10-17 00:39:00,
2013-10-16 19:40:00,56.1,52.9,30.02,NNW,348,2.0,2.0,89,0.00,,SKC,1.39,VWS V14.01,2013-10-17 00:40:00,
2013-10-16 19:41:00,56.1,52.9,30.02,NNW,346,0.0,4.0,89,0.00,,SKC,1.39,VWS V14.01,2013-10-17 00:41:00,
2013-10-16 19:42:00,56.2,53.0,30.03,NW,318,0.0,0.0,89,0.00,,SKC,1.39,VWS V14.01,2013-10-17 00:42:00,
2013-10-16 19:43:00,56.1,52.9,30.02,North,349,0.0,1.0,89,0.00,,SKC,1.39,VWS V14.01,2013-10-17 00:43:00,
2013-10-16 19:44:00,56.2,53.0,30.02,North,349,0.0,1.0,89,0.00,,SKC,1.39,VWS V14.01,2013-10-17 00:44:00,
2013-10-16 19:45:00,56.2,53.0,30.02,North,350,0.0,1.0,89,0.00,,SKC,1.39,VWS V14.01,2013-10-17 00:45:00,
2013-10-16 19:46:00,56.2,53.0,30.02,North,350,0.0,1.0,89,0.00,,SKC,1.39,VWS V14.01,2013-10-17 00:46:00,
2013-10-16 19:47:00,56.2,53.0,30.03,NW,318,2.0,2.0,89,0.00,,SKC,1.39,VWS V14.01,2013-10-17 00:47:00,
2013-10-16 19:48:00,56.2,53.0,30.02,NNW,346,4.0,4.0,89,0.00,,SKC,1.39,VWS V14.01,2013-10-17 00:48:00,
2013-10-16 19:49:00,56.2,53.0,30.02,NNW,348,0.0,4.0,89,0.00,,SKC,1.39,VWS V14.01,2013-10-17 00:49:00,
2013-10-16 19:50:00,56.2,53.0,30.02,North,350,4.0,4.0,89,0.00,,SKC,1.39,VWS V14.01,2013-10-17 00:50:00,
2013-10-16 19:51:00,56.2,53.0,30.02,North,350,0.0,4.0,89,0.00,,SKC,1.39,VWS V14.01,2013-10-17 00:51:00,
2013-10-16 19:52:00,56.3,53.1,30.04,NW,318,3.0,4.0,89,0.00,,SKC,1.39,VWS V14.01,2013-10-17 00:52:00,
2013-10-16 19:53:00,56.2,53.0,30.02,North,350,2.0,2.0,89,0.00,,SKC,1.39,VWS V14.01,2013-10-17 00:53:00,
2013-10-16 19:54:00,56.2,53.0,30.02,NNW,344,1.0,4.0,89,0.00,,SKC,1.39,VWS V14.01,2013-10-17 00:54:00,
2013-10-16 19:55:00,56.2,53.0,30.02,NNW,344,0.0,1.0,89,0.00,,SKC,1.39,VWS V14.01,2013-10-17 00:55:00,
2013-10-16 19:56:00,56.3,53.1,30.02,NNW,344,0.0,2.0,89,0.00,,SKC,1.39,VWS V14.01,2013-10-17 00:56:00,
2013-10-16 19:57:00,56.4,53.2,30.04,NW,318,1.0,2.0,89,0.00,,SKC,1.39,VWS V14.01,2013-10-17 00:57:00,
2013-10-16 19:58:00,56.3,53.1,30.02,NNW,348,1.0,2.0,89,0.00,,SKC,1.39,VWS V14.01,2013-10-17 00:58:00,
2013-10-16 19:59:00,56.3,53.1,30.02,NNW,348,2.0,2.0,89,0.00,,SKC,1.39,VWS V14.01,2013-10-17 00:59:00,
2013-10-16 20:00:00,56.3,53.1,30.02,North,5,4.0,4.0,89,0.00,,SKC,1.39,VWS V14.01,2013-10-17 01:00:00,
2013-10-16 20:01:00,56.3,53.1,30.02,North,5,2.0,5.0,89,0.00,,SKC,1.39,VWS V14.01,2013-10-17 01:01:00,
2013-10-16 20:02:00,56.4,53.2,30.04,NNE,12,2.0,4.0,89,0.00,,SKC,1.39,VWS V14.01,2013-10-17 01:02:00,
2013-10-16 20:03:00,56.3,53.1,30.02,North,5,2.0,4.0,89,0.00,,SKC,1.39,VWS V14.01,2013-10-17 01:03:00,
2013-10-16 20:04:00,56.3,53.1,30.02,North,360,1.0,2.0,89,0.00,,SKC,1.39,VWS V14.01,2013-10-17 01:04:00,
2013-10-16 20:05:00,56.3,53.1,30.02,North,360,0.0,1.0,89,0.00,,SKC,1.39,VWS V14.01,2013-10-17 01:05:00,
2013-10-16 20:06:00,56.3,53.1,30.02,North,5,0.0,1.0,89,0.00,,SKC,1.39,VWS V14.01,2013-10-17 01:06:00,
2013-10-16 20:07:00,56.5,53.3,30.04,NNE,15,3.0,5.0,89,0.00,,SKC,1.39,VWS V14.01,2013-10-17 01:07:00,
2013-10-16 20:08:00,56.3,53.1,30.02,North,350,0.0,2.0,89,0.00,,SKC,1.39,VWS V14.01,2013-10-17 01:08:00,
2013-10-16 20:09:00,56.3,53.1,30.03,North,350,0.0,1.0,89,0.00,,SKC,1.39,VWS V14.01,2013-10-17 01:09:00,
2013-10-16 20:10:00,56.3,53.1,30.03,NNW,346,2.0,2.0,89,0.00,,SKC,1.39,VWS V14.01,2013-10-17 01:10:00,
2013-10-16 20:11:00,56.3,53.1,30.03,NNW,345,3.0,3.0,89,0.00,,SKC,1.39,VWS V14.01,2013-10-17 01:11:00,
2013-10-16 20:12:00,56.6,53.4,30.04,North,360,0.0,1.0,89,0.00,,SKC,1.39,VWS V14.01,2013-10-17 01:12:00,
2013-10-16 20:13:00,56.3,53.1,30.03,NNW,346,0.0,2.0,89,0.00,,SKC,1.39,VWS V14.01,2013-10-17 01:13:00,
2013-10-16 20:14:00,56.3,53.1,30.03,North,360,1.0,2.0,89,0.00,,SKC,1.39,VWS V14.01,2013-10-17 01:14:00,
2013-10-16 20:15:00,56.3,53.1,30.03,North,5,0.0,1.0,89,0.00,,SKC,1.39,VWS V14.01,2013-10-17 01:15:00,
2013-10-16 20:16:00,56.3,53.1,30.03,NNW,338,0.0,1.0,89,0.00,,SKC,1.39,VWS V14.01,2013-10-17 01:16:00,
2013-10-16 20:17:00,56.6,53.4,30.04,NNE,25,4.0,4.0,89,0.00,,SKC,1.39,VWS V14.01,2013-10-17 01:17:00,
2013-10-16 20:18:00,56.3,53.1,30.03,NNW,338,0.0,2.0,89,0.00,,SKC,1.39,VWS V14.01,2013-10-17 01:18:00,
2013-10-16 20:19:00,56.3,53.1,30.03,NNW,338,0.0,1.0,89,0.00,,SKC,1.39,VWS V14.01,2013-10-17 01:19:00,
2013-10-16 20:20:00,56.3,53.1,30.03,NNW,338,0.0,1.0,89,0.00,,SKC,1.39,VWS V14.01,2013-10-17 01:20:00,
2013-10-16 20:21:00,56.3,53.1,30.03,NW,317,1.0,5.0,89,0.00,,SKC,1.39,VWS V14.01,2013-10-17 01:21:00,
2013-10-16 20:22:00,56.7,53.5,30.05,North,5,1.0,2.0,89,0.00,,SKC,1.39,VWS V14.01,2013-10-17 01:22:00,
2013-10-16 20:23:00,56.3,53.1,30.03,NW,317,0.0,2.0,89,0.00,,SKC,1.39,VWS V14.01,2013-10-17 01:23:00,
2013-10-16 20:24:00,56.2,53.0,30.03,NW,317,0.0,3.0,89,0.00,,SKC,1.39,VWS V14.01,2013-10-17 01:24:00,
2013-10-16 20:25:00,56.2,53.0,30.03,NW,317,1.0,3.0,89,0.00,,SKC,1.39,VWS V14.01,2013-10-17 01:25:00,
2013-10-16 20:26:00,56.2,53.0,30.03,NW,317,0.0,2.0,89,0.00,,SKC,1.39,VWS V14.01,2013-10-17 01:26:00,
2013-10-16 20:27:00,56.8,53.6,30.05,North,9,0.0,0.0,89,0.00,,SKC,1.39,VWS V14.01,2013-10-17 01:27:00,
2013-10-16 20:28:00,56.2,53.0,30.03,NW,318,0.0,3.0,89,0.00,,SKC,1.39,VWS V14.01,2013-10-17 01:28:00,
2013-10-16 20:29:00,56.2,53.0,30.03,NW,318,0.0,1.0,89,0.00,,SKC,1.39,VWS V14.01,2013-10-17 01:29:00,
2013-10-16 20:30:00,56.2,53.0,30.03,NW,318,0.0,1.0,89,0.00,,SKC,1.39,VWS V14.01,2013-10-17 01:30:00,
2013-10-16 20:31:00,56.2,53.0,30.03,NW,318,0.0,2.0,89,0.00,,SKC,1.39,VWS V14.01,2013-10-17 01:31:00,
2013-10-16 20:32:00,56.8,53.6,30.05,North,9,0.0,0.0,89,0.00,,SKC,1.39,VWS V14.01,2013-10-17 01:32:00,
2013-10-16 20:33:00,56.2,53.0,30.03,NW,318,0.0,3.0,89,0.00,,SKC,1.39,VWS V14.01,2013-10-17 01:33:00,
2013-10-16 20:34:00,56.2,53.0,30.03,NW,318,0.0,1.0,89,0.00,,SKC,1.39,VWS V14.01,2013-10-17 01:34:00,
2013-10-16 20:35:00,56.2,53.0,30.03,NW,318,1.0,3.0,89,0.00,,SKC,1.39,VWS V14.01,2013-10-17 01:35:00,
2013-10-16 20:36:00,56.2,53.0,30.03,NW,318,0.0,3.0,89,0.00,,SKC,1.39,VWS V14.01,2013-10-17 01:36:00,
2013-10-16 20:37:00,56.9,53.7,30.05,NNE,12,0.0,0.0,89,0.00,,SKC,1.39,VWS V14.01,2013-10-17 01:37:00,
2013-10-16 20:38:00,56.2,53.0,30.03,NW,318,2.0,3.0,89,0.00,,SKC,1.39,VWS V14.01,2013-10-17 01:38:00,
2013-10-16 20:39:00,56.2,53.0,30.03,NW,318,0.0,2.0,89,0.00,,SKC,1.39,VWS V14.01,2013-10-17 01:39:00,
2013-10-16 20:40:00,56.2,53.0,30.03,NW,318,0.0,0.0,89,0.00,,SKC,1.39,VWS V14.01,2013-10-17 01:40:00,
2013-10-16 20:41:00,56.2,53.0,30.03,NW,318,1.0,1.0,89,0.00,,SKC,1.39,VWS V14.01,2013-10-17 01:41:00,
2013-10-16 20:42:00,57.0,53.8,30.05,North,11,0.0,3.0,89,0.00,,SKC,1.39,VWS V14.01,2013-10-17 01:42:00,
2013-10-16 20:43:00,56.2,53.0,30.03,NW,318,0.0,0.0,89,0.00,,SKC,1.39,VWS V14.01,2013-10-17 01:43:00,
2013-10-16 20:44:00,56.2,53.0,30.03,NW,318,2.0,4.0,89,0.00,,SKC,1.39,VWS V14.01,2013-10-17 01:44:00,
2013-10-16 20:45:00,56.2,53.0,30.03,NW,318,0.0,2.0,89,0.00,,SKC,1.39,VWS V14.01,2013-10-17 01:45:00,
2013-10-16 20:46:00,56.2,53.0,30.03,NW,318,0.0,2.0,89,0.00,,SKC,1.39,VWS V14.01,2013-10-17 01:46:00,
2013-10-16 20:47:00,57.1,53.9,30.06,NNE,13,2.0,2.0,89,0.00,,SKC,1.39,VWS V14.01,2013-10-17 01:47:00,
2013-10-16 20:48:00,56.3,53.1,30.03,NW,318,0.0,1.0,89,0.00,,SKC,1.39,VWS V14.01,2013-10-17 01:48:00,
2013-10-16 20:49:00,56.3,53.1,30.03,NW,318,0.0,2.0,89,0.00,,SKC,1.39,VWS V14.01,2013-10-17 01:49:00,
2013-10-16 20:50:00,56.3,53.1,30.03,NW,318,1.0,2.0,89,0.00,,SKC,1.39,VWS V14.01,2013-10-17 01:50:00,
2013-10-16 20:51:00,56.3,53.1,30.04,NW,318,0.0,4.0,89,0.00,,SKC,1.39,VWS V14.01,2013-10-17 01:51:00,
2013-10-16 20:52:00,57.1,53.9,30.06,NNE,17,1.0,2.0,89,0.00,,SKC,1.39,VWS V14.01,2013-10-17 01:52:00,
2013-10-16 20:53:00,56.4,53.2,30.04,NW,318,0.0,4.0,89,0.00,,SKC,1.39,VWS V14.01,2013-10-17 01:53:00,
2013-10-16 20:54:00,56.4,53.2,30.04,NW,318,3.0,3.0,89,0.00,,SKC,1.39,VWS V14.01,2013-10-17 01:54:00,
2013-10-16 20:55:00,56.4,53.2,30.04,NW,318,2.0,4.0,89,0.00,,SKC,1.39,VWS V14.01,2013-10-17 01:55:00,
2013-10-16 20:56:00,56.4,53.2,30.04,NW,318,2.0,3.0,89,0.00,,SKC,1.39,VWS V14.01,2013-10-17 01:56:00,
2013-10-16 20:57:00,57.1,53.9,30.06,North,11,5.0,5.0,89,0.00,,SKC,1.39,VWS V14.01,2013-10-17 01:57:00,
2013-10-16 20:58:00,56.4,53.2,30.04,NW,319,3.0,5.0,89,0.00,,SKC,1.39,VWS V14.01,2013-10-17 01:58:00,
2013-10-16 20:59:00,56.4,53.2,30.04,NW,321,2.0,4.0,89,0.00,,SKC,1.39,VWS V14.01,2013-10-17 01:59:00,
2013-10-16 21:00:00,56.5,53.3,30.04,North,11,3.0,5.0,89,0.00,,SKC,1.39,VWS V14.01,2013-10-17 02:00:00,
2013-10-16 21:01:00,56.5,53.3,30.04,North,360,1.0,4.0,89,0.00,,SKC,1.39,VWS V14.01,2013-10-17 02:01:00,
2013-10-16 21:02:00,57.2,54.0,30.06,NNE,28,5.0,5.0,89,0.00,,SKC,1.39,VWS V14.01,2013-10-17 02:02:00,
2013-10-16 21:03:00,56.5,53.3,30.04,NNE,12,2.0,5.0,89,0.00,,SKC,1.39,VWS V14.01,2013-10-17 02:03:00,
2013-10-16 21:04:00,56.5,53.3,30.04,North,10,1.0,2.0,89,0.00,,SKC,1.39,VWS V14.01,2013-10-17 02:04:00,
2013-10-16 21:05:00,56.5,53.3,30.04,NNE,15,4.0,4.0,89,0.00,,SKC,1.39,VWS V14.01,2013-10-17 02:05:00,
2013-10-16 21:06:00,56.5,53.3,30.04,NNE,15,4.0,5.0,89,0.00,,SKC,1.39,VWS V14.01,2013-10-17 02:06:00,
2013-10-16 21:07:00,57.1,53.6,30.06,NNE,12,0.0,1.0,88,0.00,,SKC,1.39,VWS V14.01,2013-10-17 02:07:00,
2013-10-16 21:08:00,56.5,53.3,30.04,NNE,17,1.0,2.0,89,0.00,,SKC,1.39,VWS V14.01,2013-10-17 02:08:00,
2013-10-16 21:09:00,56.6,53.4,30.04,North,5,2.0,3.0,89,0.00,,SKC,1.39,VWS V14.01,2013-10-17 02:09:00,
2013-10-16 21:10:00,56.6,53.4,30.04,North,5,1.0,4.0,89,0.00,,SKC,1.39,VWS V14.01,2013-10-17 02:10:00,
2013-10-16 21:11:00,56.6,53.4,30.04,North,360,0.0,2.0,89,0.00,,SKC,1.39,VWS V14.01,2013-10-17 02:11:00,
2013-10-16 21:12:00,57.1,53.6,30.06,NE,34,2.0,3.0,88,0.00,,SKC,1.39,VWS V14.01,2013-10-17 02:12:00,
2013-10-16 21:13:00,56.6,53.4,30.04,North,360,2.0,3.0,89,0.00,,SKC,1.39,VWS V14.01,2013-10-17 02:13:00,
2013-10-16 21:14:00,56.6,53.4,30.04,North,11,0.0,3.0,89,0.00,,SKC,1.39,VWS V14.01,2013-10-17 02:14:00,
2013-10-16 21:15:00,56.7,53.5,30.04,NNE,28,4.0,4.0,89,0.00,,SKC,1.39,VWS V14.01,2013-10-17 02:15:00,
2013-10-16 21:16:00,56.6,53.4,30.05,NNE,25,0.0,4.0,89,0.00,,SKC,1.39,VWS V14.01,2013-10-17 02:16:00,
2013-10-16 21:17:00,56.9,53.4,30.07,North,360,1.0,2.0,88,0.00,,SKC,1.39,VWS V14.01,2013-10-17 02:17:00,
2013-10-16 21:18:00,56.7,53.5,30.05,NNE,25,0.0,0.0,89,0.00,,SKC,1.39,VWS V14.01,2013-10-17 02:18:00,
2013-10-16 21:19:00,56.7,53.5,30.05,North,9,2.0,4.0,89,0.00,,SKC,1.39,VWS V14.01,2013-10-17 02:19:00,
2013-10-16 21:20:00,56.7,53.5,30.05,North,360,0.0,2.0,89,0.00,,SKC,1.39,VWS V14.01,2013-10-17 02:20:00,
2013-10-16 21:21:00,56.7,53.5,30.05,North,5,0.0,2.0,89,0.00,,SKC,1.39,VWS V14.01,2013-10-17 02:21:00,
2013-10-16 21:22:00,56.9,53.4,30.07,North,360,0.0,0.0,88,0.00,,SKC,1.39,VWS V14.01,2013-10-17 02:22:00,
2013-10-16 21:23:00,56.8,53.6,30.05,North,9,0.0,2.0,89,0.00,,SKC,1.39,VWS V14.01,2013-10-17 02:23:00,
2013-10-16 21:24:00,56.8,53.6,30.05,North,9,0.0,0.0,89,0.00,,SKC,1.39,VWS V14.01,2013-10-17 02:24:00,
2013-10-16 21:25:00,56.8,53.6,30.05,North,9,0.0,0.0,89,0.00,,SKC,1.39,VWS V14.01,2013-10-17 02:25:00,
2013-10-16 21:26:00,56.8,53.6,30.05,North,9,0.0,2.0,89,0.00,,SKC,1.39,VWS V14.01,2013-10-17 02:26:00,
2013-10-16 21:27:00,56.8,53.3,30.07,North,5,0.0,0.0,88,0.00,,SKC,1.39,VWS V14.01,2013-10-17 02:27:00,
2013-10-16 21:28:00,56.8,53.6,30.05,NNW,346,0.0,1.0,89,0.00,,SKC,1.39,VWS V14.01,2013-10-17 02:28:00,
2013-10-16 21:29:00,56.8,53.6,30.05,North,9,1.0,4.0,89,0.00,,SKC,1.39,VWS V14.01,2013-10-17 02:29:00,
2013-10-16 21:30:00,56.8,53.6,30.05,North,9,0.0,1.0,89,0.00,,SKC,1.39,VWS V14.01,2013-10-17 02:30:00,
2013-10-16 21:31:00,56.9,53.7,30.05,NNE,13,0.0,0.0,89,0.00,,SKC,1.39,VWS V14.01,2013-10-17 02:31:00,
2013-10-16 21:32:00,56.7,53.2,30.07,NNE,12,1.0,1.0,88,0.00,,SKC,1.39,VWS V14.01,2013-10-17 02:32:00,
2013-10-16 21:33:00,56.9,53.7,30.05,NNE,13,0.0,0.0,89,0.00,,SKC,1.39,VWS V14.01,2013-10-17 02:33:00,
2013-10-16 21:34:00,56.9,53.7,30.05,North,11,0.0,2.0,89,0.00,,SKC,1.39,VWS V14.01,2013-10-17 02:34:00,
2013-10-16 21:35:00,56.9,53.7,30.05,North,11,0.0,1.0,89,0.00,,SKC,1.39,VWS V14.01,2013-10-17 02:35:00,
2013-10-16 21:36:00,56.9,53.7,30.05,North,11,1.0,1.0,89,0.00,,SKC,1.39,VWS V14.01,2013-10-17 02:36:00,
2013-10-16 21:37:00,56.8,53.3,30.07,North,10,2.0,2.0,88,0.00,,SKC,1.39,VWS V14.01,2013-10-17 02:37:00,
2013-10-16 21:38:00,57.0,53.8,30.05,North,360,1.0,2.0,89,0.00,,SKC,1.39,VWS V14.01,2013-10-17 02:38:00,
2013-10-16 21:39:00,57.0,53.8,30.05,North,360,2.0,3.0,89,0.00,,SKC,1.39,VWS V14.01,2013-10-17 02:39:00,
2013-10-16 21:40:00,57.0,53.8,30.06,North,11,3.0,3.0,89,0.00,,SKC,1.39,VWS V14.01,2013-10-17 02:40:00,
2013-10-16 21:41:00,57.0,53.8,30.05,North,11,2.0,3.0,89,0.00,,SKC,1.39,VWS V14.01,2013-10-17 02:41:00,
2013-10-16 21:42:00,56.7,53.2,30.07,NNE,16,2.0,2.0,88,0.00,,SKC,1.39,VWS V14.01,2013-10-17 02:42:00,
2013-10-16 21:43:00,57.0,53.8,30.05,NNE,13,1.0,3.0,89,0.00,,SKC,1.39,VWS V14.01,2013-10-17 02:43:00,
2013-10-16 21:44:00,57.1,53.9,30.06,NNE,13,1.0,1.0,89,0.00,,SKC,1.39,VWS V14.01,2013-10-17 02:44:00,
2013-10-16 21:45:00,57.1,53.9,30.05,NNE,13,2.0,2.0,89,0.00,,SKC,1.39,VWS V14.01,2013-10-17 02:45:00,
2013-10-16 21:46:00,57.1,53.9,30.06,NNE,13,0.0,3.0,89,0.00,,SKC,1.39,VWS V14.01,2013-10-17 02:46:00,
2013-10-16 21:47:00,56.7,53.2,30.07,NNE,17,1.0,2.0,88,0.00,,SKC,1.39,VWS V14.01,2013-10-17 02:47:00,
2013-10-16 21:48:00,57.1,53.9,30.05,NNE,13,0.0,2.0,89,0.00,,SKC,1.39,VWS V14.01,2013-10-17 02:48:00,
2013-10-16 21:49:00,57.1,53.9,30.06,NNE,13,0.0,1.0,89,0.00,,SKC,1.39,VWS V14.01,2013-10-17 02:49:00,
2013-10-16 21:50:00,57.1,53.9,30.06,NNE,15,1.0,5.0,89,0.00,,SKC,1.39,VWS V14.01,2013-10-17 02:50:00,
2013-10-16 21:51:00,57.1,53.9,30.06,NNE,16,2.0,2.0,89,0.00,,SKC,1.39,VWS V14.01,2013-10-17 02:51:00,
2013-10-16 21:52:00,56.7,53.2,30.07,North,9,1.0,3.0,88,0.00,,SKC,1.39,VWS V14.01,2013-10-17 02:52:00,
2013-10-16 21:53:00,57.1,53.9,30.06,NNE,20,2.0,2.0,89,0.00,,SKC,1.39,VWS V14.01,2013-10-17 02:53:00,
2013-10-16 21:54:00,57.1,53.9,30.06,NNE,13,3.0,3.0,89,0.00,,SKC,1.39,VWS V14.01,2013-10-17 02:54:00,
2013-10-16 21:55:00,57.1,53.9,30.06,NNW,338,2.0,5.0,89,0.00,,SKC,1.39,VWS V14.01,2013-10-17 02:55:00,
2013-10-16 21:56:00,57.2,54.0,30.06,North,350,3.0,5.0,89,0.00,,SKC,1.39,VWS V14.01,2013-10-17 02:56:00,
2013-10-16 21:57:00,56.6,53.1,30.07,North,9,3.0,3.0,88,0.00,,SKC,1.39,VWS V14.01,2013-10-17 02:57:00,
2013-10-16 21:58:00,57.2,54.0,30.06,NNE,25,1.0,5.0,89,0.00,,SKC,1.39,VWS V14.01,2013-10-17 02:58:00,
2013-10-16 21:59:00,57.2,54.0,30.06,NNE,24,2.0,3.0,89,0.00,,SKC,1.39,VWS V14.01,2013-10-17 02:59:00,
2013-10-16 22:00:00,57.2,54.0,30.06,NNE,28,2.0,5.0,89,0.00,,SKC,1.39,VWS V14.01,2013-10-17 03:00:00,
2013-10-16 22:01:00,57.2,54.0,30.06,NE,44,6.0,6.0,89,0.00,,SKC,1.39,VWS V14.01,2013-10-17 03:01:00,
2013-10-16 22:02:00,56.6,53.1,30.07,North,11,3.0,3.0,88,0.00,,SKC,1.39,VWS V14.01,2013-10-17 03:02:00,
2013-10-16 22:03:00,57.1,53.6,30.06,North,10,2.0,4.0,88,0.00,,SKC,1.39,VWS V14.01,2013-10-17 03:03:00,
2013-10-16 22:04:00,57.1,53.6,30.06,NNE,26,2.0,3.0,88,0.00,,SKC,1.39,VWS V14.01,2013-10-17 03:04:00,
2013-10-16 22:05:00,57.1,53.6,30.06,North,11,0.0,5.0,88,0.00,,SKC,1.39,VWS V14.01,2013-10-17 03:05:00,
2013-10-16 22:06:00,57.1,53.6,30.06,NNE,12,0.0,1.0,88,0.00,,SKC,1.39,VWS V14.01,2013-10-17 03:06:00,
2013-10-16 22:07:00,56.5,53.0,30.08,North,11,2.0,4.0,88,0.00,,SKC,1.39,VWS V14.01,2013-10-17 03:07:00,
2013-10-16 22:08:00,57.1,53.6,30.06,North,355,1.0,5.0,88,0.00,,SKC,1.39,VWS V14.01,2013-10-17 03:08:00,
2013-10-16 22:09:00,57.1,53.6,30.06,North,355,0.0,2.0,88,0.00,,SKC,1.39,VWS V14.01,2013-10-17 03:09:00,
2013-10-16 22:10:00,57.0,53.5,30.06,NE,34,3.0,5.0,88,0.00,,SKC,1.39,VWS V14.01,2013-10-17 03:10:00,
2013-10-16 22:11:00,57.0,53.5,30.06,NNW,348,2.0,4.0,88,0.00,,SKC,1.39,VWS V14.01,2013-10-17 03:11:00,
2013-10-16 22:12:00,56.4,52.9,30.08,North,11,1.0,3.0,88,0.00,,SKC,1.39,VWS V14.01,2013-10-17 03:12:00,
2013-10-16 22:13:00,57.0,53.5,30.06,NNE,27,2.0,5.0,88,0.00,,SKC,1.39,VWS V14.01,2013-10-17 03:13:00,
2013-10-16 22:14:00,56.9,53.4,30.06,North,355,4.0,4.0,88,0.00,,SKC,1.39,VWS V14.01,2013-10-17 03:14:00,
2013-10-16 22:15:00,56.9,53.4,30.07,North,360,1.0,4.0,88,0.00,,SKC,1.39,VWS V14.01,2013-10-17 03:15:00,
2013-10-16 22:16:00,56.9,53.4,30.07,North,360,4.0,4.0,88,0.00,,SKC,1.39,VWS V14.01,2013-10-17 03:16:00,
2013-10-16 22:17:00,56.4,52.9,30.08,North,10,0.0,0.0,88,0.00,,SKC,1.39,VWS V14.01,2013-10-17 03:17:00,
2013-10-16 22:18:00,56.9,53.4,30.07,North,5,1.0,3.0,88,0.00,,SKC,1.39,VWS V14.01,2013-10-17 03:18:00,
2013-10-16 22:19:00,56.9,53.4,30.07,North,5,1.0,2.0,88,0.00,,SKC,1.39,VWS V14.01,2013-10-17 03:19:00,
2013-10-16 22:20:00,56.9,53.4,30.07,North,5,0.0,1.0,88,0.00,,SKC,1.39,VWS V14.01,2013-10-17 03:20:00,
2013-10-16 22:21:00,56.9,53.4,30.07,North,360,0.0,2.0,88,0.00,,SKC,1.39,VWS V14.01,2013-10-17 03:21:00,
2013-10-16 22:22:00,56.2,52.7,30.08,North,11,0.0,0.0,88,0.00,,SKC,1.39,VWS V14.01,2013-10-17 03:22:00,
2013-10-16 22:23:00,56.8,53.3,30.07,North,360,0.0,1.0,88,0.00,,SKC,1.39,VWS V14.01,2013-10-17 03:23:00,
2013-10-16 22:24:00,56.8,53.3,30.07,North,5,0.0,2.0,88,0.00,,SKC,1.39,VWS V14.01,2013-10-17 03:24:00,
2013-10-16 22:25:00,56.8,53.3,30.07,North,5,0.0,1.0,88,0.00,,SKC,1.39,VWS V14.01,2013-10-17 03:25:00,
2013-10-16 22:26:00,56.8,53.3,30.07,North,5,0.0,0.0,88,0.00,,SKC,1.39,VWS V14.01,2013-10-17 03:26:00,
2013-10-16 22:27:00,56.2,52.7,30.08,North,11,0.0,0.0,88,0.00,,SKC,1.39,VWS V14.01,2013-10-17 03:27:00,
2013-10-16 22:28:00,56.7,53.2,30.07,North,10,1.0,3.0,88,0.00,,SKC,1.39,VWS V14.01,2013-10-17 03:28:00,
2013-10-16 22:29:00,56.8,53.3,30.07,North,9,1.0,3.0,88,0.00,,SKC,1.39,VWS V14.01,2013-10-17 03:29:00,
2013-10-16 22:30:00,56.7,53.2,30.07,NNE,12,1.0,4.0,88,0.00,,SKC,1.39,VWS V14.01,2013-10-17 03:30:00,
2013-10-16 22:31:00,56.7,53.2,30.07,NNE,12,1.0,3.0,88,0.00,,SKC,1.39,VWS V14.01,2013-10-17 03:31:00,
2013-10-16 22:32:00,56.1,52.6,30.08,North,11,0.0,0.0,88,0.00,,SKC,1.39,VWS V14.01,2013-10-17 03:32:00,
2013-10-16 22:33:00,56.7,53.2,30.07,NNE,12,0.0,2.0,88,0.00,,SKC,1.39,VWS V14.01,2013-10-17 03:33:00,
2013-10-16 22:34:00,56.7,53.2,30.07,North,11,1.0,3.0,88,0.00,,SKC,1.39,VWS V14.01,2013-10-17 03:34:00,
2013-10-16 22:35:00,56.7,53.2,30.07,North,10,0.0,2.0,88,0.00,,SKC,1.39,VWS V14.01,2013-10-17 03:35:00,
2013-10-16 22:36:00,56.7,53.2,30.07,North,11,0.0,3.0,88,0.00,,SKC,1.39,VWS V14.01,2013-10-17 03:36:00,
2013-10-16 22:37:00,56.0,52.5,30.08,North,11,0.0,0.0,88,0.00,,SKC,1.39,VWS V14.01,2013-10-17 03:37:00,
2013-10-16 22:38:00,56.7,53.2,30.07,NNE,15,2.0,3.0,88,0.00,,SKC,1.39,VWS V14.01,2013-10-17 03:38:00,
2013-10-16 22:39:00,56.7,53.2,30.07,NNE,16,1.0,3.0,88,0.00,,SKC,1.39,VWS V14.01,2013-10-17 03:39:00,
2013-10-16 22:40:00,56.7,53.2,30.07,NNE,15,0.0,3.0,88,0.00,,SKC,1.39,VWS V14.01,2013-10-17 03:40:00,
2013-10-16 22:41:00,56.7,53.2,30.07,NNE,17,2.0,3.0,88,0.00,,SKC,1.39,VWS V14.01,2013-10-17 03:41:00,
2013-10-16 22:42:00,55.8,52.3,30.08,North,5,0.0,0.0,88,0.00,,SKC,1.39,VWS V14.01,2013-10-17 03:42:00,
2013-10-16 22:43:00,56.7,53.2,30.07,NNE,17,1.0,3.0,88,0.00,,SKC,1.39,VWS V14.01,2013-10-17 03:43:00,
2013-10-16 22:44:00,56.7,53.2,30.07,NNE,17,0.0,3.0,88,0.00,,SKC,1.39,VWS V14.01,2013-10-17 03:44:00,
2013-10-16 22:45:00,56.7,53.2,30.07,NNE,17,1.0,2.0,88,0.00,,SKC,1.39,VWS V14.01,2013-10-17 03:45:00,
2013-10-16 22:46:00,56.7,53.2,30.07,North,5,1.0,4.0,88,0.00,,SKC,1.39,VWS V14.01,2013-10-17 03:46:00,
2013-10-16 22:47:00,55.7,52.2,30.09,North,360,1.0,1.0,88,0.00,,SKC,1.39,VWS V14.01,2013-10-17 03:47:00,
2013-10-16 22:48:00,56.7,53.2,30.07,North,360,2.0,3.0,88,0.00,,SKC,1.39,VWS V14.01,2013-10-17 03:48:00,
2013-10-16 22:49:00,56.7,53.2,30.07,North,5,1.0,2.0,88,0.00,,SKC,1.39,VWS V14.01,2013-10-17 03:49:00,
2013-10-16 22:50:00,56.7,53.2,30.07,North,9,2.0,3.0,88,0.00,,SKC,1.39,VWS V14.01,2013-10-17 03:50:00,
2013-10-16 22:51:00,56.7,53.2,30.07,North,9,4.0,4.0,88,0.00,,SKC,1.39,VWS V14.01,2013-10-17 03:51:00,
2013-10-16 22:52:00,55.6,52.1,30.09,North,9,1.0,2.0,88,0.00,,SKC,1.39,VWS V14.01,2013-10-17 03:52:00,
2013-10-16 22:53:00,56.7,53.2,30.07,North,10,2.0,3.0,88,0.00,,SKC,1.39,VWS V14.01,2013-10-17 03:53:00,
2013-10-16 22:54:00,56.7,53.2,30.07,North,9,4.0,4.0,88,0.00,,SKC,1.39,VWS V14.01,2013-10-17 03:54:00,
2013-10-16 22:55:00,56.6,53.1,30.07,North,9,2.0,4.0,88,0.00,,SKC,1.39,VWS V14.01,2013-10-17 03:55:00,
2013-10-16 22:56:00,56.6,53.1,30.07,North,9,1.0,4.0,88,0.00,,SKC,1.39,VWS V14.01,2013-10-17 03:56:00,
2013-10-16 22:57:00,55.4,51.9,30.09,North,9,0.0,2.0,88,0.00,,SKC,1.39,VWS V14.01,2013-10-17 03:57:00,
2013-10-16 22:58:00,56.6,53.1,30.07,North,9,0.0,3.0,88,0.00,,SKC,1.39,VWS V14.01,2013-10-17 03:58:00,
2013-10-16 22:59:00,56.6,53.1,30.07,North,11,3.0,4.0,88,0.00,,SKC,1.39,VWS V14.01,2013-10-17 03:59:00,
2013-10-16 23:00:00,56.6,53.1,30.08,North,11,1.0,4.0,88,0.00,,SKC,1.39,VWS V14.01,2013-10-17 04:00:00,
2013-10-16 23:01:00,55.3,51.8,30.09,NNE,13,2.0,2.0,88,0.00,,SKC,1.39,VWS V14.01,2013-10-17 04:01:00,
2013-10-16 23:02:00,55.3,51.8,30.09,NNE,13,1.0,1.0,88,0.00,,SKC,1.39,VWS V14.01,2013-10-17 04:02:00,
2013-10-16 23:03:00,56.5,53.0,30.07,North,10,1.0,3.0,88,0.00,,SKC,1.39,VWS V14.01,2013-10-17 04:03:00,
2013-10-16 23:04:00,56.5,53.0,30.07,North,10,3.0,4.0,88,0.00,,SKC,1.39,VWS V14.01,2013-10-17 04:04:00,
2013-10-16 23:05:00,56.5,53.0,30.08,North,11,2.0,3.0,88,0.00,,SKC,1.39,VWS V14.01,2013-10-17 04:05:00,
2013-10-16 23:06:00,56.5,53.0,30.08,North,11,1.0,4.0,88,0.00,,SKC,1.39,VWS V14.01,2013-10-17 04:06:00,
2013-10-16 23:07:00,55.1,51.6,30.09,NNE,13,2.0,4.0,88,0.00,,SKC,1.39,VWS V14.01,2013-10-17 04:07:00,
2013-10-16 23:08:00,56.5,53.0,30.07,North,11,2.0,3.0,88,0.00,,SKC,1.39,VWS V14.01,2013-10-17 04:08:00,
2013-10-16 23:09:00,56.5,53.0,30.07,North,10,3.0,4.0,88,0.00,,SKC,1.39,VWS V14.01,2013-10-17 04:09:00,
2013-10-16 23:10:00,56.4,52.9,30.07,North,10,2.0,3.0,88,0.00,,SKC,1.39,VWS V14.01,2013-10-17 04:10:00,
2013-10-16 23:11:00,56.4,52.9,30.08,North,11,1.0,3.0,88,0.00,,SKC,1.39,VWS V14.01,2013-10-17 04:11:00,
2013-10-16 23:12:00,55.1,51.6,30.09,North,9,4.0,4.0,88,0.00,,SKC,1.39,VWS V14.01,2013-10-17 04:12:00,
2013-10-16 23:13:00,56.4,52.9,30.08,North,11,0.0,1.0,88,0.00,,SKC,1.39,VWS V14.01,2013-10-17 04:13:00,
2013-10-16 23:14:00,56.4,52.9,30.08,North,11,0.0,0.0,88,0.00,,SKC,1.39,VWS V14.01,2013-10-17 04:14:00,
2013-10-16 23:15:00,56.4,52.9,30.08,North,11,0.0,0.0,88,0.00,,SKC,1.39,VWS V14.01,2013-10-17 04:15:00,
2013-10-16 23:16:00,56.4,52.9,30.08,North,10,0.0,1.0,88,0.00,,SKC,1.39,VWS V14.01,2013-10-17 04:16:00,
2013-10-16 23:17:00,55.0,51.5,30.09,North,5,1.0,6.0,88,0.00,,SKC,1.39,VWS V14.01,2013-10-17 04:17:00,
2013-10-16 23:18:00,56.3,52.8,30.08,North,11,0.0,0.0,88,0.00,,SKC,1.39,VWS V14.01,2013-10-17 04:18:00,
2013-10-16 23:19:00,56.3,52.8,30.08,North,11,0.0,1.0,88,0.00,,SKC,1.39,VWS V14.01,2013-10-17 04:19:00,
2013-10-16 23:20:00,56.3,52.8,30.08,North,11,0.0,0.0,88,0.00,,SKC,1.39,VWS V14.01,2013-10-17 04:20:00,
2013-10-16 23:21:00,56.2,52.7,30.08,North,11,0.0,1.0,88,0.00,,SKC,1.39,VWS V14.01,2013-10-17 04:21:00,
2013-10-16 23:22:00,54.9,51.4,30.09,North,5,3.0,3.0,88,0.00,,SKC,1.39,VWS V14.01,2013-10-17 04:22:00,
2013-10-16 23:23:00,56.2,52.7,30.08,North,11,1.0,3.0,88,0.00,,SKC,1.39,VWS V14.01,2013-10-17 04:23:00,
2013-10-16 23:24:00,56.2,52.7,30.08,North,11,0.0,2.0,88,0.00,,SKC,1.39,VWS V14.01,2013-10-17 04:24:00,
2013-10-16 23:25:00,56.2,52.7,30.08,North,11,0.0,0.0,88,0.00,,SKC,1.39,VWS V14.01,2013-10-17 04:25:00,
2013-10-16 23:26:00,56.2,52.7,30.08,North,11,0.0,0.0,88,0.00,,SKC,1.39,VWS V14.01,2013-10-17 04:26:00,
2013-10-16 23:27:00,54.8,51.6,30.09,North,360,2.0,4.0,89,0.00,,SKC,1.39,VWS V14.01,2013-10-17 04:27:00,
2013-10-16 23:28:00,56.2,52.7,30.08,North,11,0.0,1.0,88,0.00,,SKC,1.39,VWS V14.01,2013-10-17 04:28:00,
2013-10-16 23:29:00,56.2,52.7,30.08,North,11,1.0,3.0,88,0.00,,SKC,1.39,VWS V14.01,2013-10-17 04:29:00,
2013-10-16 23:30:00,56.1,52.6,30.08,North,11,0.0,1.0,88,0.00,,SKC,1.39,VWS V14.01,2013-10-17 04:30:00,
2013-10-16 23:31:00,56.1,52.6,30.08,North,11,0.0,0.0,88,0.00,,SKC,1.39,VWS V14.01,2013-10-17 04:31:00,
2013-10-16 23:32:00,54.6,51.4,30.09,North,5,0.0,5.0,89,0.00,,SKC,1.39,VWS V14.01,2013-10-17 04:32:00,
2013-10-16 23:33:00,56.1,52.6,30.08,North,11,0.0,2.0,88,0.00,,SKC,1.39,VWS V14.01,2013-10-17 04:33:00,
2013-10-16 23:34:00,56.1,52.6,30.08,North,11,1.0,2.0,88,0.00,,SKC,1.39,VWS V14.01,2013-10-17 04:34:00,
2013-10-16 23:35:00,56.0,52.5,30.08,North,11,0.0,3.0,88,0.00,,SKC,1.39,VWS V14.01,2013-10-17 04:35:00,
2013-10-16 23:36:00,56.0,52.5,30.08,NNE,13,3.0,4.0,88,0.00,,SKC,1.39,VWS V14.01,2013-10-17 04:36:00,
2013-10-16 23:37:00,54.5,51.3,30.09,NNE,14,2.0,3.0,89,0.00,,SKC,1.39,VWS V14.01,2013-10-17 04:37:00,
2013-10-16 23:38:00,55.9,52.4,30.08,North,355,1.0,4.0,88,0.00,,SKC,1.39,VWS V14.01,2013-10-17 04:38:00,
2013-10-16 23:39:00,55.9,52.4,30.08,North,360,2.0,4.0,88,0.00,,SKC,1.39,VWS V14.01,2013-10-17 04:39:00,
2013-10-16 23:40:00,55.9,52.4,30.08,North,5,0.0,3.0,88,0.00,,SKC,1.39,VWS V14.01,2013-10-17 04:40:00,
2013-10-16 23:41:00,55.8,52.3,30.08,North,360,0.0,2.0,88,0.00,,SKC,1.39,VWS V14.01,2013-10-17 04:41:00,
2013-10-16 23:42:00,54.4,51.2,30.09,North,5,2.0,4.0,89,0.00,,SKC,1.39,VWS V14.01,2013-10-17 04:42:00,
2013-10-16 23:43:00,55.8,52.3,30.09,North,5,1.0,2.0,88,0.00,,SKC,1.39,VWS V14.01,2013-10-17 04:43:00,
2013-10-16 23:44:00,55.8,52.3,30.09,North,360,0.0,2.0,88,0.00,,SKC,1.39,VWS V14.01,2013-10-17 04:44:00,
2013-10-16 23:45:00,55.7,52.2,30.09,North,360,0.0,3.0,88,0.00,,SKC,1.39,VWS V14.01,2013-10-17 04:45:00,
2013-10-16 23:46:00,55.7,52.2,30.09,North,5,2.0,2.0,88,0.00,,SKC,1.39,VWS V14.01,2013-10-17 04:46:00,
2013-10-16 23:47:00,54.3,51.1,30.09,North,11,4.0,4.0,89,0.00,,SKC,1.39,VWS V14.01,2013-10-17 04:47:00,
2013-10-16 23:48:00,55.7,52.2,30.09,North,10,1.0,4.0,88,0.00,,SKC,1.39,VWS V14.01,2013-10-17 04:48:00,
2013-10-16 23:49:00,55.7,52.2,30.08,North,9,1.0,3.0,88,0.00,,SKC,1.39,VWS V14.01,2013-10-17 04:49:00,
2013-10-16 23:50:00,55.7,52.2,30.09,North,9,0.0,2.0,88,0.00,,SKC,1.39,VWS V14.01,2013-10-17 04:50:00,
2013-10-16 23:51:00,55.6,52.1,30.09,North,9,0.0,2.0,88,0.00,,SKC,1.39,VWS V14.01,2013-10-17 04:51:00,
2013-10-16 23:52:00,54.3,51.1,30.09,NNE,12,5.0,5.0,89,0.00,,SKC,1.39,VWS V14.01,2013-10-17 04:52:00,
2013-10-16 23:53:00,55.5,52.0,30.09,North,10,0.0,2.0,88,0.00,,SKC,1.39,VWS V14.01,2013-10-17 04:53:00,
2013-10-16 23:54:00,55.5,52.0,30.09,North,10,1.0,1.0,88,0.00,,SKC,1.39,VWS V14.01,2013-10-17 04:54:00,
2013-10-16 23:55:00,55.5,52.0,30.09,North,10,1.0,2.0,88,0.00,,SKC,1.39,VWS V14.01,2013-10-17 04:55:00,
2013-10-16 23:56:00,55.4,51.9,30.09,North,9,1.0,2.0,88,0.00,,SKC,1.39,VWS V14.01,2013-10-17 04:56:00,
2013-10-16 23:57:00,54.2,50.7,30.09,North,9,4.0,6.0,88,0.00,,SKC,1.39,VWS V14.01,2013-10-17 04:57:00,
2013-10-16 23:58:00,55.4,51.9,30.09,North,11,1.0,3.0,88,0.00,,SKC,1.39,VWS V14.01,2013-10-17 04:58:00,
2013-10-16 23:59:00,55.3,51.8,30.09,NNE,13,1.0,2.0,88,0.00,,SKC,1.39,VWS V14.01,2013-10-17 04:59:00,